Site Date LOGGERID PROGID SNOWDEP_MED_0_0_01 SNOWDEP_QUAL_0_0_01 WSPD_PRO_MEAN_1000_0_01 WMAG_PRO_MEAN_1000_0_01 WDIR_PRO_MEAN_1000_0_01 WDIR_PRO_STDDEV_1000_0_01 DEWPT_MEAN_150_0_04 DEWPT_MEAN_450_0_01 AIRTEMP_MEAN_150_0_04 AIRTEMP_MEAN_250_0_03 AIRTEMP_MEAN_350_0_02 AIRTEMP_MEAN_450_0_01 RELHUM_MEAN_150_0_04 RELHUM_MEAN_450_0_01 WSPD_PRO_MAX_1000_0_01 AIRTEMP_MAX_150_0_04 AIRTEMP_MAX_250_0_03 AIRTEMP_MAX_350_0_02 AIRTEMP_MAX_450_0_01 AIRTEMP_MIN_150_0_04 AIRTEMP_MIN_250_0_03 AIRTEMP_MIN_350_0_02 AIRTEMP_MIN_450_0_01 DEWPT_MAX_150_0_04 DEWPT_MAX_450_0_01 DEWPT_MIN_150_0_04 DEWPT_MIN_450_0_01 SATVP_MEAN_150_0_04 VAP_MEAN_150_0_04 VPD_MEAN_150_0_04 SATVP_MEAN_450_0_01 VAP_MEAN_450_0_01 VPD_MEAN_450_0_01
PRIMET_226 2020-10-01 00:00:00 226 3904.0 0.00 264 0.000 0.000     10.800 10.850 11.34 11.500 11.580 11.240 96.500 97.400 0.000 11.39 11.560 11.620 11.280 11.32 11.470 11.530 11.200 10.850 10.900 10.770 10.800 13.426 12.953 0.470 13.337 12.996 0.347
PRIMET_226 2020-09-30 23:55:00 226 3904.0 0.00 277 0.000 0.000     10.870 10.900 11.41 11.570 11.630 11.290 96.500 97.400 0.000 11.43 11.590 11.660 11.330 11.37 11.550 11.610 11.270 10.900 10.940 10.830 10.870 13.488 13.013 0.472 13.381 13.039 0.348
PRIMET_226 2020-09-30 23:50:00 226 3904.0 0.00 349 0.000 0.000     10.870 10.900 11.43 11.570 11.630 11.320 96.400 97.200 0.000 11.47 11.590 11.650 11.350 11.40 11.560 11.600 11.300 10.890 10.930 10.850 10.880 13.506 13.013 0.486 13.408 13.039 0.375
PRIMET_226 2020-09-30 23:45:00 226 3904.0 0.00 318 0.000 0.000     10.910 10.920 11.50 11.610 11.670 11.380 96.200 97.000 0.000 11.54 11.650 11.700 11.410 11.46 11.560 11.640 11.340 10.950 10.950 10.880 10.890 13.569 13.048 0.516 13.461 13.056 0.404
PRIMET_226 2020-09-30 23:40:00 226 3904.0 0.00 262 0.000 0.000     10.980 11.010 11.58 11.710 11.760 11.450 96.100 97.100 0.000 11.62 11.760 11.810 11.490 11.55 11.660 11.720 11.430 11.030 11.050 10.950 10.980 13.641 13.109 0.532 13.524 13.135 0.392
PRIMET_226 2020-09-30 23:35:00 226 3904.0 0.00 306 0.000 0.000     11.040 11.080 11.63 11.780 11.840 11.510 96.200 97.200 0.000 11.66 11.800 11.870 11.570 11.61 11.770 11.810 11.490 11.080 11.140 11.020 11.050 13.686 13.161 0.520 13.578 13.196 0.380
PRIMET_226 2020-09-30 23:30:00 226 3904.0 0.00 348 0.000 0.000     11.080 11.160 11.67 11.830 11.900 11.580 96.200 97.300 0.000 11.71 11.860 11.930 11.610 11.64 11.790 11.870 11.540 11.130 11.210 11.050 11.100 13.722 13.196 0.521 13.641 13.266 0.368
PRIMET_226 2020-09-30 23:25:00 226 3904.0 0.00 280 0.000 0.000     11.110 11.180 11.72 11.840 11.890 11.600 96.100 97.200 0.000 11.75 11.860 11.930 11.610 11.69 11.820 11.860 11.580 11.130 11.200 11.100 11.160 13.768 13.222 0.537 13.659 13.284 0.382
PRIMET_226 2020-09-30 23:20:00 226 3904.0 0.00 364 0.000 0.000     11.160 11.200 11.79 11.890 11.940 11.650 95.900 97.100 0.000 11.83 11.930 11.980 11.680 11.75 11.850 11.900 11.620 11.190 11.220 11.130 11.180 13.831 13.266 0.567 13.704 13.302 0.397
PRIMET_226 2020-09-30 23:15:00 226 3904.0 0.00 220 0.000 0.000     11.210 11.250 11.86 11.990 12.030 11.720 95.800 97.000 0.000 11.89 12.030 12.070 11.760 11.83 11.950 11.990 11.670 11.250 11.300 11.190 11.210 13.896 13.310 0.584 13.768 13.346 0.413
PRIMET_226 2020-09-30 23:10:00 226 3904.0 0.00 325 0.000 0.000     11.280 11.340 11.93 12.100 12.140 11.810 95.800 97.000 0.000 11.96 12.140 12.190 11.850 11.89 12.040 12.090 11.750 11.330 11.380 11.240 11.280 13.960 13.372 0.586 13.850 13.426 0.415
PRIMET_226 2020-09-30 23:05:00 226 3904.0 0.00 360 0.000 0.000     11.330 11.380 11.99 12.160 12.220 11.870 95.800 96.800 0.000 12.03 12.190 12.250 11.900 11.95 12.130 12.180 11.840 11.380 11.420 11.280 11.350 14.015 13.417 0.589 13.905 13.461 0.445
PRIMET_226 2020-09-30 23:00:00 226 3904.0 0.00 0 0.000 0.000     11.390 11.460 12.05 12.220 12.280 11.930 95.700 96.900 0.000 12.09 12.230 12.300 11.960 12.02 12.200 12.250 11.900 11.420 11.490 11.370 11.420 14.071 13.470 0.605 13.960 13.533 0.433
PRIMET_226 2020-09-30 22:55:00 226 3904.0 0.00 274 0.000 0.000     11.450 11.490 12.12 12.250 12.310 11.970 95.700 96.800 0.000 12.13 12.260 12.320 12.000 12.09 12.230 12.290 11.950 11.470 11.510 11.420 11.450 14.136 13.524 0.608 13.997 13.560 0.448
PRIMET_226 2020-09-30 22:50:00 226 3904.0 0.00 266 0.000 0.000     11.460 11.510 12.17 12.280 12.330 12.020 95.400 96.700 0.000 12.21 12.340 12.380 12.050 12.12 12.230 12.310 11.990 11.510 11.540 11.430 11.480 14.182 13.533 0.652 14.043 13.578 0.463
PRIMET_226 2020-09-30 22:45:00 226 3904.0 0.00 313 0.000 0.000     11.550 11.590 12.25 12.390 12.430 12.090 95.500 96.700 0.000 12.29 12.430 12.460 12.120 12.22 12.330 12.380 12.050 11.600 11.620 11.510 11.540 14.257 13.614 0.642 14.108 13.650 0.466
PRIMET_226 2020-09-30 22:40:00 226 3904.0 0.00 357 0.000 0.000     11.630 11.680 12.32 12.450 12.490 12.170 95.600 96.900 0.000 12.33 12.480 12.530 12.190 12.29 12.420 12.460 12.130 11.660 11.720 11.600 11.630 14.323 13.686 0.630 14.182 13.731 0.440
PRIMET_226 2020-09-30 22:35:00 226 3904.0 0.00 336 0.000 0.000     11.670 11.710 12.35 12.470 12.500 12.200 95.600 96.800 0.000 12.39 12.480 12.520 12.240 12.32 12.460 12.490 12.170 11.710 11.740 11.650 11.690 14.351 13.722 0.631 14.211 13.759 0.455
PRIMET_226 2020-09-30 22:30:00 226 3904.0 0.00 364 0.000 0.000     11.730 11.750 12.42 12.510 12.550 12.270 95.500 96.600 0.000 12.47 12.560 12.580 12.310 12.38 12.470 12.510 12.240 11.770 11.780 11.700 11.730 14.418 13.777 0.649 14.276 13.795 0.485
PRIMET_226 2020-09-30 22:25:00 226 3904.0 0.00 0 0.000 0.000     11.800 11.810 12.49 12.600 12.640 12.350 95.500 96.500 0.000 12.52 12.650 12.690 12.380 12.47 12.550 12.590 12.300 11.820 11.840 11.770 11.760 14.484 13.841 0.652 14.351 13.850 0.502
PRIMET_226 2020-09-30 22:20:00 226 3904.0 0.00 324 0.000 0.000     11.850 11.880 12.55 12.680 12.730 12.420 95.500 96.500 0.000 12.59 12.710 12.770 12.470 12.52 12.640 12.690 12.380 11.890 11.920 11.820 11.840 14.541 13.886 0.654 14.418 13.914 0.505
PRIMET_226 2020-09-30 22:15:00 226 3904.0 0.00 0 0.000 0.000     11.910 11.970 12.63 12.760 12.810 12.500 95.400 96.500 0.000 12.67 12.800 12.860 12.540 12.59 12.720 12.770 12.460 11.960 12.010 11.870 11.920 14.618 13.941 0.672 14.494 13.997 0.507
PRIMET_226 2020-09-30 22:10:00 226 3904.0 0.00 340 0.000 0.000     12.000 12.030 12.72 12.850 12.900 12.590 95.400 96.400 0.000 12.77 12.890 12.950 12.650 12.68 12.810 12.850 12.550 12.050 12.090 11.960 12.000 14.704 14.025 0.676 14.579 14.052 0.525
PRIMET_226 2020-09-30 22:05:00 226 3904.0 0.00 0 0.000 0.000     12.090 12.120 12.79 12.930 12.980 12.660 95.500 96.500 0.000 12.81 12.950 13.000 12.670 12.76 12.900 12.960 12.640 12.110 12.140 12.050 12.080 14.772 14.108 0.665 14.647 14.136 0.513
PRIMET_226 2020-09-30 22:00:00 226 3904.0 0.00 402 0.000 0.000     12.110 12.130 12.83 12.930 12.970 12.700 95.400 96.300 0.000 12.87 12.960 13.010 12.750 12.80 12.910 12.950 12.660 12.150 12.170 12.090 12.100 14.811 14.127 0.681 14.685 14.145 0.543
PRIMET_226 2020-09-30 21:55:00 226 3904.0 0.00 0 0.000 0.000     12.180 12.220 12.91 13.020 13.070 12.790 95.300 96.300 0.000 12.95 13.080 13.120 12.840 12.87 12.960 13.010 12.750 12.210 12.250 12.150 12.160 14.889 14.192 0.700 14.772 14.229 0.547
PRIMET_226 2020-09-30 21:50:00 226 3904.0 0.00 0 0.000 0.000     12.250 12.280 13.00 13.120 13.170 12.870 95.200 96.200 0.000 13.04 13.170 13.220 12.920 12.96 13.080 13.120 12.830 12.290 12.310 12.210 12.240 14.976 14.257 0.719 14.850 14.286 0.564
PRIMET_226 2020-09-30 21:45:00 226 3904.0 0.00 344 0.000 0.000     12.310 12.320 13.07 13.210 13.270 12.970 95.100 95.900 0.000 13.11 13.250 13.320 13.030 13.03 13.160 13.220 12.920 12.340 12.370 12.280 12.290 15.045 14.314 0.737 14.947 14.323 0.613
PRIMET_226 2020-09-30 21:40:00 226 3904.0 0.00 0 0.000 0.000     12.370 12.420 13.15 13.300 13.360 13.060 95.000 95.900 0.000 13.19 13.320 13.390 13.080 13.11 13.250 13.330 13.020 12.410 12.460 12.330 12.370 15.124 14.370 0.756 15.035 14.418 0.616
PRIMET_226 2020-09-30 21:35:00 226 3904.0 0.00 384 0.000 0.000     12.440 12.460 13.22 13.350 13.410 13.130 95.000 95.700 0.000 13.27 13.390 13.460 13.180 13.19 13.320 13.370 13.080 12.490 12.510 12.400 12.410 15.193 14.437 0.760 15.104 14.456 0.649
PRIMET_226 2020-09-30 21:30:00 226 3904.0 0.00 269 0.000 0.000     12.490 12.510 13.30 13.430 13.500 13.220 94.800 95.500 0.000 13.35 13.480 13.530 13.260 13.27 13.400 13.470 13.180 12.530 12.570 12.440 12.470 15.273 14.484 0.794 15.193 14.503 0.684
PRIMET_226 2020-09-30 21:25:00 226 3904.0 0.00 296 0.000 0.000     12.580 12.640 13.39 13.530 13.590 13.300 94.800 95.800 0.000 13.42 13.550 13.610 13.320 13.36 13.490 13.550 13.270 12.600 12.660 12.540 12.590 15.363 14.570 0.799 15.273 14.627 0.641
PRIMET_226 2020-09-30 21:20:00 226 3904.0 0.00 348 0.000 0.000     12.640 12.650 13.45 13.570 13.610 13.340 94.800 95.500 0.000 13.49 13.590 13.640 13.380 13.42 13.540 13.590 13.310 12.680 12.670 12.600 12.620 15.423 14.627 0.802 15.313 14.637 0.689
PRIMET_226 2020-09-30 21:15:00 226 3904.0 0.00 350 0.000 0.000     12.710 12.700 13.54 13.650 13.690 13.430 94.700 95.300 0.000 13.57 13.690 13.750 13.480 13.49 13.590 13.650 13.380 12.750 12.760 12.670 12.660 15.514 14.695 0.822 15.403 14.685 0.724
PRIMET_226 2020-09-30 21:10:00 226 3904.0 0.00 0 0.000 0.000     12.790 12.800 13.62 13.740 13.800 13.510 94.700 95.400 0.000 13.67 13.790 13.850 13.560 13.57 13.690 13.760 13.470 12.830 12.820 12.750 12.760 15.595 14.772 0.827 15.483 14.782 0.712
PRIMET_226 2020-09-30 21:05:00 226 3904.0 0.00 0 0.055 0.055 16.860 0.033 12.850 12.850 13.71 13.830 13.900 13.600 94.500 95.200 0.418 13.76 13.900 13.940 13.640 13.67 13.780 13.850 13.550 12.890 12.870 12.820 12.810 15.686 14.830 0.863 15.574 14.830 0.748
PRIMET_226 2020-09-30 21:00:00 226 3904.0 0.00 282 0.000 0.000     12.950 12.940 13.79 13.940 13.990 13.680 94.600 95.300 0.000 13.81 13.970 14.020 13.710 13.75 13.890 13.950 13.640 12.980 12.970 12.890 12.870 15.768 14.928 0.851 15.656 14.918 0.736
PRIMET_226 2020-09-30 20:55:00 226 3904.0 0.00 310 0.000 0.000     13.030 13.040 13.86 14.000 14.060 13.760 94.800 95.400 0.000 13.89 14.030 14.100 13.790 13.80 13.960 14.020 13.720 13.060 13.080 12.970 12.980 15.840 15.006 0.824 15.737 15.016 0.724
PRIMET_226 2020-09-30 20:50:00 226 3904.0 0.00 318 0.000 0.000     13.090 13.110 13.94 14.070 14.120 13.830 94.600 95.400 0.000 14.00 14.110 14.170 13.880 13.89 14.020 14.080 13.780 13.140 13.150 13.050 13.060 15.923 15.065 0.860 15.809 15.085 0.727
PRIMET_226 2020-09-30 20:45:00 226 3904.0 0.00 326 0.000 0.000     13.150 13.170 14.04 14.150 14.200 13.920 94.400 95.200 0.000 14.09 14.210 14.250 13.960 13.98 14.120 14.150 13.880 13.190 13.200 13.120 13.130 16.026 15.124 0.897 15.902 15.144 0.763
PRIMET_226 2020-09-30 20:40:00 226 3904.0 0.00 326 0.000 0.000     13.240 13.240 14.14 14.270 14.310 14.010 94.300 95.100 0.000 14.20 14.320 14.360 14.060 14.09 14.210 14.260 13.960 13.300 13.280 13.180 13.200 16.130 15.213 0.919 15.995 15.213 0.784
PRIMET_226 2020-09-30 20:35:00 226 3904.0 0.00 294 0.000 0.000     13.340 13.350 14.24 14.370 14.410 14.110 94.400 95.200 0.000 14.28 14.400 14.450 14.150 14.20 14.320 14.360 14.060 13.380 13.400 13.300 13.280 16.235 15.313 0.909 16.099 15.323 0.773
PRIMET_226 2020-09-30 20:30:00 226 3904.0 0.00 308 0.000 0.000     13.410 13.400 14.32 14.440 14.460 14.180 94.300 95.100 0.000 14.36 14.480 14.500 14.230 14.26 14.410 14.430 14.150 13.460 13.470 13.340 13.370 16.320 15.383 0.930 16.172 15.373 0.792
PRIMET_226 2020-09-30 20:25:00 226 3904.0 0.00 257 0.000 0.000     13.490 13.480 14.40 14.500 14.530 14.270 94.300 95.000 0.000 14.43 14.550 14.590 14.310 14.36 14.470 14.500 14.210 13.520 13.520 13.460 13.450 16.404 15.463 0.935 16.267 15.453 0.813
PRIMET_226 2020-09-30 20:20:00 226 3904.0 0.00 328 0.000 0.000     13.570 13.540 14.48 14.590 14.630 14.370 94.200 94.700 0.000 14.53 14.630 14.680 14.410 14.45 14.550 14.590 14.310 13.600 13.560 13.540 13.520 16.489 15.544 0.956 16.372 15.514 0.868
PRIMET_226 2020-09-30 20:15:00 226 3904.0 0.00 296 0.000 0.000     13.640 13.600 14.58 14.700 14.740 14.460 94.100 94.600 0.000 14.61 14.740 14.790 14.500 14.54 14.650 14.690 14.420 13.670 13.650 13.600 13.530 16.596 15.615 0.979 16.468 15.574 0.889
PRIMET_226 2020-09-30 20:10:00 226 3904.0 0.00 253 0.000 0.000     13.720 13.720 14.66 14.810 14.860 14.560 94.100 94.700 0.000 14.72 14.860 14.900 14.610 14.61 14.760 14.790 14.510 13.770 13.770 13.670 13.650 16.682 15.697 0.984 16.575 15.697 0.878
PRIMET_226 2020-09-30 20:05:00 226 3904.0 0.00 0 0.000 0.000     13.810 13.780 14.76 14.890 14.930 14.650 94.000 94.500 0.000 14.80 14.940 14.970 14.690 14.72 14.860 14.910 14.600 13.870 13.800 13.770 13.760 16.790 15.789 1.007 16.671 15.758 0.917
PRIMET_226 2020-09-30 20:00:00 226 3904.0 0.00 0 0.000 0.000     13.930 13.890 14.84 14.970 15.020 14.740 94.300 94.600 0.000 14.88 15.010 15.060 14.790 14.81 14.920 14.970 14.690 13.980 13.950 13.870 13.800 16.877 15.912 0.962 16.769 15.871 0.906
PRIMET_226 2020-09-30 19:55:00 226 3904.0 0.00 266 0.000 0.000     14.010 13.980 14.93 15.070 15.120 14.840 94.200 94.600 0.000 14.97 15.120 15.160 14.880 14.89 15.010 15.070 14.780 14.030 14.020 13.990 13.930 16.975 15.995 0.985 16.877 15.964 0.911
PRIMET_226 2020-09-30 19:50:00 226 3904.0 0.00 268 0.000 0.000     14.070 14.050 15.04 15.160 15.200 14.940 93.900 94.400 0.000 15.09 15.200 15.250 14.980 14.97 15.110 15.160 14.880 14.100 14.090 14.020 14.010 17.096 16.057 1.043 16.986 16.037 0.951
PRIMET_226 2020-09-30 19:45:00 226 3904.0 0.00 280 0.011 0.011 16.790 0.022 14.150 14.110 15.12 15.250 15.290 15.030 93.900 94.300 0.137 15.16 15.290 15.340 15.070 15.09 15.210 15.250 14.990 14.220 14.170 14.090 14.070 17.184 16.141 1.048 17.085 16.099 0.974
PRIMET_226 2020-09-30 19:40:00 226 3904.0 0.00 288 0.000 0.000     14.260 14.230 15.19 15.330 15.380 15.120 94.100 94.400 0.000 15.25 15.360 15.420 15.160 15.16 15.300 15.340 15.080 14.300 14.250 14.220 14.170 17.262 16.256 1.018 17.184 16.225 0.962
PRIMET_226 2020-09-30 19:35:00 226 3904.0 0.00 405 0.000 0.000     14.330 14.290 15.28 15.410 15.470 15.210 94.000 94.200 0.000 15.32 15.450 15.520 15.270 15.24 15.370 15.430 15.170 14.380 14.370 14.290 14.240 17.362 16.330 1.042 17.284 16.288 1.002
PRIMET_226 2020-09-30 19:30:00 226 3904.0 0.00 278 0.000 0.000     14.420 14.380 15.37 15.490 15.550 15.320 94.000 94.100 0.000 15.43 15.540 15.600 15.370 15.32 15.450 15.510 15.270 14.460 14.400 14.380 14.360 17.462 16.426 1.048 17.406 16.383 1.027
PRIMET_226 2020-09-30 19:25:00 226 3904.0 0.00 261 0.000 0.000     14.500 14.420 15.47 15.590 15.660 15.430 93.900 93.700 0.000 15.52 15.640 15.720 15.470 15.43 15.550 15.610 15.370 14.540 14.480 14.460 14.340 17.575 16.511 1.072 17.530 16.426 1.104
PRIMET_226 2020-09-30 19:20:00 226 3904.0 0.00 315 0.000 0.000     14.580 14.530 15.58 15.710 15.790 15.550 93.700 93.700 0.000 15.67 15.790 15.870 15.610 15.52 15.640 15.730 15.480 14.630 14.560 14.540 14.500 17.699 16.596 1.115 17.665 16.543 1.113
PRIMET_226 2020-09-30 19:15:00 226 3904.0 0.00 270 0.000 0.000     14.640 14.620 15.71 15.860 15.950 15.680 93.400 93.400 0.000 15.75 15.910 16.000 15.740 15.65 15.790 15.870 15.620 14.700 14.670 14.610 14.550 17.847 16.661 1.178 17.813 16.639 1.176
PRIMET_226 2020-09-30 19:10:00 226 3904.0 0.00 0 0.166 0.166 16.860 0.055 14.670 14.690 15.81 15.940 16.030 15.760 93.000 93.300 0.412 15.86 15.980 16.070 15.800 15.75 15.910 15.990 15.720 14.720 14.730 14.660 14.640 17.962 16.693 1.257 17.904 16.715 1.200
PRIMET_226 2020-09-30 19:05:00 226 3904.0 0.00 288 0.000 0.000     14.770 14.780 15.90 16.030 16.110 15.840 93.000 93.400 0.000 15.93 16.050 16.130 15.880 15.86 15.990 16.080 15.810 14.820 14.810 14.710 14.720 18.065 16.801 1.265 17.996 16.812 1.188
PRIMET_226 2020-09-30 19:00:00 226 3904.0 0.00 0 0.000 0.000     14.860 14.810 15.99 16.110 16.170 15.930 93.000 93.100 0.000 16.04 16.150 16.230 15.980 15.94 16.050 16.120 15.870 14.920 14.840 14.820 14.790 18.170 16.899 1.272 18.100 16.844 1.249
PRIMET_226 2020-09-30 18:55:00 226 3904.0 0.00 256 0.000 0.000     14.960 14.930 16.08 16.200 16.280 16.030 93.100 93.200 0.000 16.14 16.240 16.310 16.060 16.03 16.140 16.230 15.980 15.020 14.970 14.900 14.820 18.274 17.008 1.261 18.216 16.975 1.239
PRIMET_226 2020-09-30 18:50:00 226 3904.0 0.00 334 0.000 0.000     15.050 14.990 16.20 16.300 16.370 16.120 92.900 93.000 0.000 16.25 16.350 16.430 16.180 16.14 16.240 16.320 16.070 15.070 15.010 15.020 14.970 18.415 17.107 1.307 18.321 17.041 1.282
PRIMET_226 2020-09-30 18:45:00 226 3904.0 0.00 294 0.067 0.067 16.840 0.044 15.110 15.070 16.31 16.420 16.500 16.250 92.600 92.700 0.301 16.36 16.500 16.570 16.320 16.25 16.340 16.440 16.190 15.170 15.150 15.050 14.970 18.544 17.173 1.372 18.473 17.129 1.349
PRIMET_226 2020-09-30 18:40:00 226 3904.0 0.00 258 0.078 0.078 16.860 0.047 15.200 15.180 16.41 16.530 16.610 16.360 92.600 92.700 0.438 16.48 16.570 16.650 16.420 16.36 16.500 16.580 16.310 15.260 15.240 15.160 15.130 18.663 17.273 1.381 18.603 17.250 1.358
PRIMET_226 2020-09-30 18:35:00 226 3904.0 0.00 256 0.000 0.000     15.290 15.250 16.53 16.630 16.710 16.480 92.400 92.400 0.000 16.59 16.690 16.760 16.530 16.48 16.570 16.650 16.420 15.330 15.270 15.260 15.210 18.806 17.373 1.429 18.746 17.328 1.425
PRIMET_226 2020-09-30 18:30:00 226 3904.0 0.00 374 0.040 0.040 16.870 0.028 15.370 15.340 16.65 16.760 16.830 16.600 92.100 92.300 0.268 16.72 16.830 16.900 16.670 16.59 16.700 16.760 16.540 15.410 15.390 15.330 15.270 18.950 17.462 1.497 18.890 17.429 1.455
PRIMET_226 2020-09-30 18:25:00 226 3904.0 0.00 313 0.020 0.020 16.820 0.025 15.440 15.410 16.78 16.890 16.960 16.740 91.800 91.900 0.294 16.84 16.950 17.020 16.800 16.71 16.820 16.900 16.660 15.480 15.450 15.380 15.370 19.107 17.541 1.567 19.058 17.507 1.544
PRIMET_226 2020-09-30 18:20:00 226 3904.0 0.00 288 0.000 0.000     15.540 15.510 16.92 17.020 17.090 16.870 91.600 91.700 0.000 16.97 17.070 17.140 16.940 16.85 16.960 17.030 16.810 15.590 15.550 15.490 15.460 19.277 17.654 1.619 19.216 17.620 1.595
PRIMET_226 2020-09-30 18:15:00 226 3904.0 0.00 304 0.000 0.000     15.630 15.570 17.04 17.130 17.210 17.010 91.400 91.300 0.000 17.09 17.180 17.280 17.070 16.97 17.060 17.140 16.940 15.670 15.620 15.580 15.510 19.425 17.756 1.671 19.388 17.688 1.687
PRIMET_226 2020-09-30 18:10:00 226 3904.0 0.00 280 0.000 0.000     15.710 15.640 17.17 17.240 17.340 17.140 91.100 90.900 0.000 17.22 17.290 17.400 17.210 17.10 17.180 17.270 17.080 15.750 15.700 15.650 15.510 19.585 17.847 1.743 19.548 17.767 1.779
PRIMET_226 2020-09-30 18:05:00 226 3904.0 0.00 257 0.000 0.000     15.770 15.740 17.32 17.370 17.460 17.270 90.600 90.700 0.000 17.41 17.470 17.550 17.340 17.24 17.280 17.410 17.210 15.850 15.790 15.720 15.680 19.772 17.916 1.859 19.709 17.881 1.833
PRIMET_226 2020-09-30 18:00:00 226 3904.0 0.00 367 0.000 0.000     15.920 15.890 17.49 17.560 17.620 17.430 90.500 90.700 0.000 17.55 17.610 17.700 17.500 17.41 17.480 17.550 17.340 15.990 15.970 15.850 15.770 19.985 18.088 1.899 19.910 18.054 1.852
PRIMET_226 2020-09-30 17:55:00 226 3904.0 0.00 242 0.000 0.000     16.060 15.950 17.65 17.710 17.780 17.590 90.400 90.100 0.000 17.74 17.800 17.870 17.690 17.56 17.620 17.690 17.510 16.120 16.050 16.000 15.870 20.188 18.251 1.938 20.112 18.123 1.991
PRIMET_226 2020-09-30 17:50:00 226 3904.0 0.00 276 0.000 0.000     16.110 16.040 17.80 17.870 17.940 17.740 89.900 89.800 0.000 17.86 17.930 17.990 17.800 17.75 17.800 17.870 17.680 16.170 16.100 16.060 15.980 20.380 18.309 2.058 20.303 18.228 2.071
PRIMET_226 2020-09-30 17:45:00 226 3904.0 0.00 257 0.000 0.000     16.270 16.180 17.93 18.000 18.080 17.890 90.000 89.700 0.000 18.00 18.080 18.150 17.960 17.86 17.940 18.010 17.820 16.360 16.300 16.180 16.020 20.547 18.497 2.055 20.495 18.391 2.111
PRIMET_226 2020-09-30 17:40:00 226 3904.0 0.00 267 0.000 0.000     16.420 16.360 18.09 18.150 18.230 18.070 89.900 89.800 0.000 18.19 18.240 18.320 18.170 18.01 18.080 18.150 17.980 16.480 16.410 16.350 16.320 20.755 18.675 2.096 20.729 18.603 2.114
PRIMET_226 2020-09-30 17:35:00 226 3904.0 0.00 280 0.000 0.000     16.500 16.390 18.27 18.330 18.420 18.260 89.500 88.800 0.000 18.35 18.390 18.510 18.340 18.19 18.270 18.330 18.180 16.540 16.440 16.460 16.300 20.991 18.770 2.204 20.978 18.639 2.349
PRIMET_226 2020-09-30 17:30:00 226 3904.0 0.00 254 0.000 0.000     16.500 16.430 18.41 18.470 18.580 18.430 88.700 88.100 0.000 18.46 18.530 18.640 18.520 18.35 18.400 18.500 18.350 16.530 16.500 16.460 16.340 21.176 18.770 2.393 21.202 18.686 2.523
PRIMET_226 2020-09-30 17:25:00 226 3904.0 0.00 279 0.000 0.000     16.630 16.470 18.58 18.630 18.720 18.600 88.400 87.400 0.000 18.68 18.750 18.820 18.680 18.47 18.530 18.650 18.520 16.690 16.570 16.530 16.390 21.402 18.926 2.483 21.429 18.734 2.700
PRIMET_226 2020-09-30 17:20:00 226 3904.0 0.00 278 0.000 0.000     16.560 16.300 18.73 18.800 18.890 18.750 87.200 85.700 0.000 18.77 18.850 18.950 18.810 18.69 18.760 18.820 18.690 16.610 16.450 16.490 16.050 21.604 18.842 2.765 21.631 18.532 3.093
PRIMET_226 2020-09-30 17:15:00 226 3904.0 0.00 330 0.000 0.000     16.580 16.450 18.82 18.900 19.020 18.900 86.800 85.700 0.000 18.88 18.960 19.070 18.990 18.77 18.850 18.960 18.820 16.730 16.720 16.420 16.190 21.726 18.866 2.868 21.835 18.710 3.122
PRIMET_226 2020-09-30 17:10:00 226 3904.0 0.00 332 0.000 0.000     16.830 16.750 19.00 19.040 19.150 19.060 87.200 86.500 0.000 19.15 19.130 19.240 19.140 18.89 18.970 19.090 19.000 16.910 16.810 16.750 16.700 21.972 19.168 2.812 22.054 19.071 2.977
PRIMET_226 2020-09-30 17:05:00 226 3904.0 0.00 254 0.000 0.000     16.820 16.670 19.27 19.240 19.330 19.230 85.700 85.100 0.000 19.36 19.300 19.390 19.330 19.17 19.140 19.250 19.150 16.930 16.770 16.750 16.560 22.344 19.155 3.195 22.289 18.974 3.321
PRIMET_226 2020-09-30 17:00:00 226 3904.0 0.00 265 0.000 0.000     16.840 16.710 19.46 19.440 19.510 19.420 84.800 84.300 0.000 19.53 19.530 19.590 19.480 19.37 19.310 19.390 19.340 16.960 16.830 16.740 16.460 22.610 19.180 3.437 22.554 19.022 3.541
PRIMET_226 2020-09-30 16:55:00 226 3904.0 0.00 248 0.000 0.000     16.890 16.810 19.63 19.620 19.700 19.600 84.200 84.000 0.000 19.77 19.750 19.840 19.720 19.53 19.530 19.600 19.500 16.950 16.850 16.840 16.760 22.850 19.241 3.610 22.808 19.143 3.649
PRIMET_226 2020-09-30 16:50:00 226 3904.0 0.00 0 0.000 0.000     16.860 16.770 19.87 19.860 19.930 19.810 82.800 82.600 0.000 19.93 19.920 19.980 19.870 19.79 19.780 19.850 19.740 16.940 16.850 16.790 16.620 23.193 19.204 3.989 23.107 19.095 4.021
PRIMET_226 2020-09-30 16:45:00 226 3904.0 0.00 254 0.000 0.000     16.910 16.810 19.99 19.990 20.060 19.950 82.500 82.100 0.000 20.08 20.030 20.100 20.040 19.94 19.930 20.000 19.870 17.140 16.960 16.740 16.590 23.366 19.265 4.089 23.308 19.143 4.172
PRIMET_226 2020-09-30 16:40:00 226 3904.0 0.00 274 0.000 0.000     16.890 16.900 20.16 20.140 20.200 20.150 81.500 81.600 0.000 20.26 20.240 20.330 20.260 20.07 20.050 20.110 20.050 17.140 17.040 16.740 16.740 23.613 19.241 4.368 23.598 19.253 4.342
PRIMET_226 2020-09-30 16:35:00 226 3904.0 0.00 288 0.000 0.000     16.920 16.900 20.31 20.290 20.380 20.350 80.900 80.600 0.000 20.40 20.350 20.430 20.460 20.26 20.250 20.340 20.270 17.140 16.980 16.620 16.600 23.833 19.277 4.552 23.892 19.253 4.635
PRIMET_226 2020-09-30 16:30:00 226 3904.0 0.00 303 0.000 0.000     17.080 17.010 20.53 20.480 20.560 20.590 80.600 79.960 0.000 20.60 20.560 20.620 20.670 20.42 20.360 20.440 20.480 17.310 17.210 16.860 16.800 24.158 19.474 4.687 24.248 19.388 4.859
PRIMET_226 2020-09-30 16:25:00 226 3904.0 0.00 285 0.021 0.021 16.290 0.031 17.150 17.180 20.73 20.670 20.760 20.850 79.990 79.550 0.163 20.81 20.790 20.870 20.970 20.61 20.570 20.640 20.690 17.310 17.370 16.910 16.940 24.458 19.560 4.894 24.639 19.597 5.039
PRIMET_226 2020-09-30 16:20:00 226 3904.0 0.00 250 0.027 0.027 16.320 0.029 16.730 16.870 20.93 20.880 20.950 21.060 76.950 77.010 0.327 21.06 20.990 21.070 21.180 20.81 20.790 20.860 20.980 17.080 17.030 16.540 16.730 24.761 19.046 5.707 24.959 19.216 5.738
PRIMET_226 2020-09-30 16:15:00 226 3904.0 0.00 350 0.000 0.000     16.610 16.690 21.16 21.110 21.210 21.310 75.260 74.960 0.000 21.24 21.210 21.330 21.430 21.08 21.000 21.100 21.210 16.870 17.120 16.410 16.320 25.113 18.902 6.213 25.345 18.998 6.346
PRIMET_226 2020-09-30 16:10:00 226 3904.0 0.00 270 0.000 0.000     16.660 16.670 21.34 21.300 21.420 21.510 74.650 73.960 0.000 21.44 21.420 21.560 21.610 21.24 21.220 21.330 21.410 16.980 16.960 16.420 16.390 25.391 18.962 6.437 25.657 18.974 6.681
PRIMET_226 2020-09-30 16:05:00 226 3904.0 0.00 250 0.000 0.000     16.220 16.300 21.51 21.460 21.610 21.730 71.860 71.290 0.000 21.60 21.550 21.730 21.840 21.43 21.400 21.540 21.630 16.560 16.660 16.040 15.850 25.657 18.438 7.220 26.004 18.532 7.466
PRIMET_226 2020-09-30 16:00:00 226 3904.0 0.00 243 0.113 0.113 16.830 0.047 16.700 16.630 21.75 21.710 21.850 21.930 73.010 71.920 0.581 21.83 21.820 21.940 22.020 21.62 21.570 21.730 21.820 17.030 16.960 16.290 16.380 26.036 19.010 7.027 26.324 18.926 7.392
PRIMET_226 2020-09-30 15:55:00 226 3904.0 0.00 293 0.083 0.083 311.200 0.018 16.310 16.550 21.93 21.880 22.010 22.130 70.460 70.690 0.771 22.09 22.010 22.140 22.300 21.84 21.820 21.930 22.020 16.650 16.910 15.850 16.020 26.324 18.544 7.776 26.646 18.830 7.810
PRIMET_226 2020-09-30 15:50:00 226 3904.0 0.00 264 0.000 0.000     16.510 16.710 22.22 22.190 22.310 22.530 70.100 69.680 0.000 22.32 22.320 22.460 22.700 22.10 22.010 22.140 22.320 16.940 17.050 16.110 16.420 26.793 18.782 8.011 27.302 19.022 8.278
PRIMET_226 2020-09-30 15:45:00 226 3904.0 0.00 348 0.026 0.026 30.850 0.019 16.370 16.500 22.44 22.450 22.610 22.870 68.580 67.340 0.281 22.54 22.550 22.740 23.030 22.32 22.330 22.470 22.720 16.570 16.750 16.090 16.200 27.154 18.615 8.532 27.871 18.770 9.103
PRIMET_226 2020-09-30 15:40:00 226 3904.0 0.00 309 0.003 0.003 30.880 0.022 16.350 16.770 22.72 22.720 22.910 23.190 67.350 67.200 0.039 22.82 22.830 23.020 23.300 22.55 22.590 22.750 23.050 16.690 17.030 15.900 16.420 27.619 18.592 9.018 28.415 19.095 9.320
PRIMET_226 2020-09-30 15:35:00 226 3904.0 0.00 312 0.076 0.076 30.880 0.027 16.350 16.710 23.05 23.090 23.340 23.640 66.000 65.170 0.477 23.24 23.300 23.570 23.830 22.85 22.870 23.040 23.350 16.630 16.920 16.110 16.390 28.176 18.592 9.580 29.197 19.022 10.169
PRIMET_226 2020-09-30 15:30:00 226 3904.0 0.00 275 0.022 0.022 45.990 0.403 16.210 16.560 23.45 23.480 23.880 24.080 63.870 62.860 0.261 23.72 23.720 24.150 24.350 23.24 23.310 23.590 23.850 16.550 16.750 15.680 16.360 28.865 18.426 10.429 29.979 18.842 11.134
PRIMET_226 2020-09-30 15:25:00 226 3904.0 0.00 218 0.247 0.151 23.300 40.770 16.560 16.670 24.12 24.150 24.770 24.600 62.720 61.370 0.732 24.55 24.610 25.770 24.930 23.75 23.760 24.200 24.360 17.030 16.970 16.290 16.370 30.051 18.842 11.203 30.927 18.974 11.947
PRIMET_226 2020-09-30 15:20:00 226 3904.0 0.00 224 0.134 0.123 54.590 13.680 16.470 16.540 25.05 25.050 27.060 25.050 58.980 59.220 0.686 25.51 25.500 27.920 25.300 24.58 24.630 25.880 24.820 16.870 16.860 16.080 15.820 31.768 18.734 13.031 31.768 18.818 12.955
PRIMET_226 2020-09-30 15:15:00 226 3904.0 0.00 221 0.066 0.066 101.000 0.518 16.380 16.640 25.70 25.750 27.880 25.490 56.400 58.060 0.477 25.82 25.970 28.290 25.590 25.50 25.510 27.300 25.280 16.890 17.010 15.920 16.080 33.019 18.627 14.396 32.610 18.938 13.677
PRIMET_226 2020-09-30 15:10:00 226 3904.0 0.00 411 0.202 0.187 2.867 16.220 16.470 16.650 25.76 25.720 27.910 25.480 56.550 58.140 0.993 26.14 25.870 28.220 25.670 25.51 25.520 27.410 25.290 17.190 17.020 15.900 15.950 33.136 18.734 14.398 32.591 18.950 13.642
PRIMET_226 2020-09-30 15:05:00 226 3904.0 0.00 286 0.220 0.203 49.620 16.360 16.220 16.450 26.21 26.080 28.380 25.820 54.210 56.310 0.915 26.41 26.500 28.640 26.140 26.09 25.840 27.910 25.680 16.910 17.080 15.330 15.640 34.029 18.438 15.582 33.254 18.710 14.529
PRIMET_226 2020-09-30 15:00:00 226 3904.0 0.00 267 0.069 0.069 8.320 0.050 16.310 16.450 26.55 26.630 29.100 26.200 53.420 54.990 0.693 26.67 26.760 29.440 26.330 26.45 26.500 28.790 26.080 17.000 16.760 15.940 15.940 34.718 18.544 16.172 34.009 18.710 15.308
PRIMET_226 2020-09-30 14:55:00 226 3904.0 0.00 235 0.061 0.059 37.840 6.485 16.390 16.420 26.81 26.560 29.320 26.180 52.910 55.000 0.431 26.87 26.670 29.850 26.220 26.70 26.470 29.030 26.110 16.950 16.880 15.700 15.900 35.253 18.639 16.601 33.969 18.675 15.286
PRIMET_226 2020-09-30 14:50:00 226 3904.0 0.00 231 0.150 0.117 33.990 26.650 16.340 16.320 27.06 26.860 29.340 26.420 51.970 53.880 0.810 27.36 27.140 30.120 26.690 26.73 26.550 28.800 26.140 17.230 16.700 15.610 15.490 35.774 18.580 17.182 34.453 18.556 15.890
PRIMET_226 2020-09-30 14:45:00 226 3904.0 0.00 225 0.164 0.150 30.530 16.050 16.540 16.520 27.20 26.990 29.260 26.530 52.190 54.210 0.810 27.36 27.150 29.640 26.750 27.06 26.820 28.870 26.320 17.160 17.050 15.660 15.810 36.069 18.818 17.245 34.677 18.794 15.879
PRIMET_226 2020-09-30 14:40:00 226 3904.0 0.00 258 0.351 0.308 42.520 27.080 16.600 16.470 27.36 26.960 29.540 26.790 51.920 53.250 0.869 27.63 27.220 29.870 27.010 27.20 26.790 29.090 26.640 17.400 16.920 15.450 15.630 36.408 18.890 17.505 35.212 18.734 16.462
PRIMET_226 2020-09-30 14:35:00 226 3904.0 0.00 252 0.130 0.116 50.650 15.320 16.420 16.370 27.74 27.260 30.070 27.000 50.220 52.250 0.875 27.91 27.380 30.530 27.070 27.53 27.010 29.310 26.870 17.640 17.350 15.460 15.300 37.226 18.675 18.531 35.649 18.615 17.022
PRIMET_226 2020-09-30 14:30:00 226 3904.0 0.00 261 0.205 0.179 39.300 20.370 16.680 16.510 27.66 27.260 30.080 27.040 51.270 52.550 0.836 27.70 27.430 30.420 27.140 27.59 27.060 29.580 26.950 17.250 17.010 16.090 15.840 37.052 18.986 18.056 35.732 18.782 16.955
PRIMET_226 2020-09-30 14:25:00 226 3904.0 0.00 230 0.205 0.062 51.600 54.540 16.690 15.950 27.60 27.270 30.090 27.010 51.490 50.980 0.771 27.67 27.550 30.680 27.170 27.53 27.060 29.680 26.900 17.220 16.690 15.810 9.880 36.923 18.998 17.911 35.670 18.123 17.485
PRIMET_226 2020-09-30 14:20:00 226 3904.0 0.00 251 0.252 0.201 34.830 33.700 16.920 16.540 27.47 27.330 30.170 27.100 52.630 52.490 0.699 27.64 27.590 30.690 27.150 27.29 27.090 29.570 27.070 17.830 17.380 16.010 15.720 36.643 19.277 17.358 35.858 18.818 17.036
PRIMET_226 2020-09-30 14:15:00 226 3904.0 0.00 292 0.274 0.150 39.490 50.160 17.250 16.480 27.44 27.220 29.860 27.110 53.840 52.270 0.791 27.51 27.440 30.600 27.220 27.30 26.960 29.370 27.020 17.720 17.110 16.750 14.530 36.579 19.684 16.885 35.879 18.746 17.125
PRIMET_226 2020-09-30 14:10:00 226 3904.0 0.00 278 0.388 0.051 166.800 67.540 16.890 16.180 27.48 27.220 28.270 27.080 52.510 51.520 1.065 27.63 27.370 29.590 27.260 27.33 27.010 27.010 26.960 17.720 17.230 16.010 10.800 36.665 19.241 17.412 35.816 18.391 17.364
PRIMET_226 2020-09-30 14:05:00 226 3904.0 0.00 242 0.328 0.251 57.930 31.520 17.190 16.740 27.53 27.190 27.060 27.050 53.360 53.330 1.026 27.64 27.430 27.180 27.180 27.38 26.920 26.910 26.950 17.810 17.440 16.610 15.560 36.772 19.610 17.151 35.753 19.058 16.686
PRIMET_226 2020-09-30 14:00:00 226 3904.0 0.00 235 0.299 0.180 78.050 51.120 16.860 16.580 27.32 27.190 26.950 26.910 52.900 53.220 0.601 27.46 27.340 27.120 27.060 27.05 26.970 26.630 26.640 17.330 17.240 16.240 15.720 36.323 19.204 17.108 35.461 18.866 16.589
PRIMET_226 2020-09-30 13:55:00 226 3904.0 0.00 202 0.235 0.064 69.910 59.840 17.180 16.780 27.12 27.350 26.680 26.700 54.610 54.540 0.882 27.24 27.680 26.910 26.830 27.02 26.860 26.480 26.600 17.900 17.530 16.230 16.090 35.900 19.597 16.295 35.026 19.107 15.923
PRIMET_226 2020-09-30 13:50:00 226 3904.0 0.00 220 0.430 0.363 67.200 30.480 16.940 16.380 27.23 28.980 26.490 26.560 53.450 53.670 1.143 27.37 30.470 26.680 26.650 27.05 27.760 26.300 26.480 17.730 17.260 16.310 15.640 36.132 19.302 16.820 34.739 18.627 16.094
PRIMET_226 2020-09-30 13:45:00 226 3904.0 0.00 214 0.268 0.205 31.790 36.150 17.340 16.910 26.99 30.230 26.430 26.450 55.570 55.840 1.026 27.19 30.750 26.660 26.570 26.90 29.420 26.230 26.370 18.080 17.620 16.540 16.000 35.628 19.797 15.829 34.514 19.265 15.242
PRIMET_226 2020-09-30 13:40:00 226 3904.0 0.00 248 0.316 0.232 37.490 36.010 16.920 16.580 26.99 30.100 26.410 26.410 54.160 54.810 0.758 27.12 30.600 26.610 26.560 26.82 29.510 26.210 26.340 18.100 17.350 15.680 14.930 35.628 19.277 16.332 34.433 18.866 15.560
PRIMET_226 2020-09-30 13:35:00 226 3904.0 0.00 216 0.433 0.361 49.050 29.500 17.330 16.430 26.80 29.740 26.240 26.280 56.210 54.750 0.941 26.92 30.340 26.430 26.340 26.70 29.110 26.050 26.220 18.150 17.730 15.960 15.120 35.232 19.784 15.428 34.170 18.686 15.462
PRIMET_226 2020-09-30 13:30:00 226 3904.0 0.00 206 0.325 0.310 41.140 15.600 16.620 16.050 26.66 29.450 26.110 26.140 54.150 53.850 0.771 26.76 29.870 26.320 26.260 26.58 29.190 25.960 26.010 17.660 16.910 15.650 15.240 34.944 18.914 16.022 33.889 18.239 15.640
PRIMET_226 2020-09-30 13:25:00 226 3904.0 0.00 223 0.415 0.371 47.770 23.630 17.280 16.810 26.78 29.450 26.080 26.110 56.040 56.600 1.098 26.86 29.990 26.310 26.190 26.68 28.840 25.860 26.030 18.170 17.480 16.200 16.350 35.191 19.722 15.470 33.829 19.143 14.682
PRIMET_226 2020-09-30 13:20:00 226 3904.0 0.00 201 0.367 0.213 52.560 49.830 16.870 16.490 26.62 29.710 25.950 25.900 55.170 56.150 0.973 26.82 30.060 26.200 26.070 26.46 29.360 25.690 25.740 17.930 16.950 15.950 15.970 34.862 19.216 15.628 33.412 18.758 14.651
PRIMET_226 2020-09-30 13:15:00 226 3904.0 0.00 0 0.438 0.414 68.420 18.030 17.380 16.630 26.45 29.290 25.530 25.650 57.500 57.530 0.908 26.54 29.950 25.710 25.740 26.39 28.890 25.400 25.580 17.850 17.600 16.850 15.910 34.514 19.847 14.669 32.921 18.926 13.981
PRIMET_226 2020-09-30 13:10:00 226 3904.0 0.00 234 0.298 0.181 68.800 48.130 17.340 16.750 26.35 29.560 25.730 25.740 57.710 57.650 0.647 26.50 30.280 26.070 25.910 26.21 28.640 25.540 25.580 17.920 17.760 16.670 15.610 34.312 19.797 14.510 33.097 19.071 14.017
PRIMET_226 2020-09-30 13:05:00 226 3904.0 0.00 237 0.329 0.259 71.360 32.430 17.200 16.710 26.03 29.410 25.630 25.610 58.300 57.940 0.666 26.14 30.210 25.960 25.720 25.92 28.550 25.420 25.490 17.910 17.600 16.440 15.870 33.670 19.622 14.040 32.843 19.022 13.814
PRIMET_226 2020-09-30 13:00:00 226 3904.0 0.00 324 0.214 0.206 64.530 11.860 16.910 16.590 25.91 28.910 25.340 25.340 57.650 58.410 0.686 26.02 29.640 25.530 25.510 25.82 28.340 25.140 25.190 17.680 17.400 15.690 15.740 33.432 19.265 14.158 32.321 18.878 13.442
PRIMET_226 2020-09-30 12:55:00 226 3904.0 0.00 265 0.204 0.169 62.550 26.000 17.190 16.300 25.54 29.050 25.050 25.090 60.010 58.240 0.634 25.91 29.890 25.320 25.220 25.23 28.220 24.700 24.980 17.810 17.110 15.470 14.820 32.707 19.610 13.079 31.844 18.532 13.298
PRIMET_226 2020-09-30 12:50:00 226 3904.0 0.00 290 0.304 0.301 54.590 6.180 16.940 15.850 24.84 27.970 24.490 24.780 61.570 57.610 0.738 25.17 28.780 24.910 24.970 24.46 27.570 24.350 24.680 17.560 16.510 16.460 15.160 31.373 19.302 12.057 31.261 18.008 13.252
PRIMET_226 2020-09-30 12:45:00 226 3904.0 0.00 290 0.722 0.709 38.660 10.920 16.600 15.790 24.37 27.140 24.260 24.730 61.940 57.580 0.934 24.43 27.530 24.600 24.890 24.25 26.840 24.060 24.570 17.520 16.660 16.020 14.810 30.504 18.890 11.610 31.168 17.939 13.221
PRIMET_226 2020-09-30 12:40:00 226 3904.0 0.00 349 0.412 0.400 42.060 11.030 17.220 16.150 24.03 27.240 24.430 24.630 65.740 59.240 0.993 24.23 27.660 24.610 24.820 23.85 26.930 24.190 24.380 17.790 16.590 16.750 15.720 29.889 19.647 10.240 30.982 18.356 12.628
PRIMET_226 2020-09-30 12:35:00 226 3904.0 0.00 264 0.152 0.150 64.630 5.544 16.880 15.630 23.98 26.710 23.990 24.260 64.530 58.620 0.542 24.15 26.880 24.140 24.350 23.84 26.570 23.950 24.180 17.370 16.280 16.500 14.850 29.800 19.229 10.570 30.304 17.756 12.540
PRIMET_226 2020-09-30 12:30:00 226 3904.0 0.00 288 0.163 0.149 69.720 19.660 16.780 15.410 24.05 27.110 23.860 23.940 63.860 58.910 0.542 24.21 27.420 24.050 24.170 23.77 26.420 23.480 23.760 17.350 16.520 16.080 14.790 29.925 19.107 10.815 29.728 17.507 12.215
PRIMET_226 2020-09-30 12:25:00 226 3904.0 0.00 224 0.474 0.431 55.310 24.540 16.850 15.990 23.53 26.480 23.380 23.590 66.180 62.430 0.771 23.74 26.960 23.680 23.780 23.34 26.080 23.210 23.430 17.500 16.780 16.190 15.170 29.004 19.192 9.809 29.109 18.170 10.936
PRIMET_226 2020-09-30 12:20:00 226 3904.0 0.00 274 0.414 0.404 62.040 12.390 15.880 15.010 23.22 25.990 22.880 23.170 63.420 60.160 0.738 23.34 26.320 23.190 23.390 23.17 25.790 22.700 23.050 16.960 16.300 15.130 13.800 28.467 18.042 10.413 28.381 17.063 11.307
PRIMET_226 2020-09-30 12:15:00 226 3904.0 0.00 241 0.435 0.429 69.310 8.820 16.250 15.080 22.92 25.910 22.770 23.030 66.130 60.930 0.712 23.17 26.150 22.870 23.130 22.68 25.530 22.660 22.910 17.100 16.170 15.480 14.190 27.955 18.473 9.468 28.142 17.140 10.995
PRIMET_226 2020-09-30 12:10:00 226 3904.0 0.00 376 0.456 0.449 60.590 10.350 15.080 13.970 22.68 25.460 22.640 22.800 62.250 57.570 0.640 22.77 25.990 22.790 22.890 22.61 25.230 22.520 22.690 15.870 15.470 14.510 13.030 27.552 17.140 10.401 27.753 15.954 11.776
PRIMET_226 2020-09-30 12:05:00 226 3904.0 0.00 0 0.422 0.351 71.810 31.580 16.010 15.110 22.61 25.650 22.470 22.540 66.350 62.920 0.862 22.73 26.190 22.720 22.680 22.56 25.200 22.340 22.440 16.730 15.850 15.300 13.940 27.435 18.193 9.232 27.319 17.173 10.130
PRIMET_226 2020-09-30 12:00:00 226 3904.0 0.00 231 0.445 0.412 72.370 21.250 16.070 15.420 22.51 25.530 22.300 22.310 66.990 65.050 0.706 22.59 25.850 22.450 22.450 22.40 25.140 22.180 22.100 16.420 16.120 15.500 14.980 27.269 18.263 9.002 26.940 17.518 9.415
PRIMET_226 2020-09-30 11:55:00 226 3904.0 0.00 237 0.041 0.041 77.320 0.344 15.930 14.450 22.27 25.400 21.870 21.940 67.370 62.500 0.385 22.38 25.760 22.120 22.050 22.08 25.130 21.760 21.890 16.680 15.490 15.130 13.590 26.874 18.100 8.769 26.340 16.457 9.877
PRIMET_226 2020-09-30 11:50:00 226 3904.0 0.00 256 0.102 0.102 64.670 2.808 16.120 14.620 21.87 24.970 21.500 21.620 69.890 64.430 0.359 22.04 25.450 21.780 21.870 21.73 24.610 21.310 21.420 16.720 15.450 15.370 13.310 26.227 18.321 7.897 25.830 16.639 9.188
PRIMET_226 2020-09-30 11:45:00 226 3904.0 0.00 226 0.088 0.088 71.230 0.878 15.640 13.990 21.45 24.520 21.080 21.280 69.570 63.170 0.385 21.71 24.820 21.280 21.410 21.16 24.010 20.860 21.230 16.310 14.710 14.750 12.730 25.563 17.767 7.779 25.298 15.974 9.317
PRIMET_226 2020-09-30 11:40:00 226 3904.0 0.00 247 0.000 0.000     15.610 14.380 21.10 24.020 20.780 21.100 70.880 65.490 0.000 21.18 24.180 20.860 21.260 20.91 23.930 20.630 20.940 16.350 15.000 15.050 13.850 25.020 17.733 7.286 25.020 16.383 8.635
PRIMET_226 2020-09-30 11:35:00 226 3904.0 0.00 249 0.000 0.000     15.880 14.610 20.70 23.670 20.540 20.740 73.950 67.930 0.000 20.88 23.860 20.620 20.920 20.53 23.420 20.350 20.480 16.310 14.930 15.610 14.350 24.413 18.042 6.360 24.473 16.628 7.848
PRIMET_226 2020-09-30 11:30:00 226 3904.0 0.00 322 0.211 0.211 72.380 0.075 15.800 14.490 20.49 23.280 20.180 20.350 74.480 69.090 0.359 20.52 23.530 20.310 20.450 20.47 23.180 20.080 20.170 16.110 14.970 15.320 12.870 24.099 17.950 6.150 23.892 16.500 7.385
PRIMET_226 2020-09-30 11:25:00 226 3904.0 0.00 216 0.000 0.000     15.170 12.660 20.39 23.560 19.940 19.950 72.000 62.870 0.000 20.50 23.820 20.100 20.140 20.29 23.270 19.700 19.780 15.520 13.230 14.910 12.280 23.951 17.239 6.706 23.308 14.647 8.654
PRIMET_226 2020-09-30 11:20:00 226 3904.0 0.00 265 0.000 0.000     15.270 12.980 20.21 23.160 19.480 19.610 73.260 65.540 0.000 20.31 23.350 19.670 19.750 20.06 22.970 19.300 19.460 15.790 13.610 14.940 12.390 23.686 17.351 6.334 22.822 14.957 7.864
PRIMET_226 2020-09-30 11:15:00 226 3904.0 0.00 249 0.000 0.000     15.760 13.250 19.92 22.820 19.180 19.450 76.930 67.380 0.000 20.06 22.990 19.300 19.470 19.71 22.690 19.070 19.430 16.310 13.660 15.370 12.460 23.265 17.904 5.367 22.596 15.223 7.371
PRIMET_226 2020-09-30 11:10:00 226 3904.0 0.00 225 0.000 0.000     15.620 13.510 19.44 21.900 18.930 19.370 78.600 68.900 0.000 19.69 22.540 19.070 19.500 19.18 21.050 18.790 19.090 16.170 13.880 14.910 13.010 22.582 17.745 4.833 22.484 15.483 6.992
PRIMET_226 2020-09-30 11:05:00 226 3904.0 0.00 0 0.000 0.000     15.160 13.600 19.03 19.290 18.580 18.990 78.270 70.950 0.000 19.16 20.890 18.760 19.050 18.97 18.610 18.490 18.920 15.480 14.210 14.760 12.850 22.013 17.228 4.783 21.958 15.574 6.379
PRIMET_226 2020-09-30 11:00:00 226 3904.0 0.00 321 0.000 0.000     15.160 12.960 18.85 18.500 18.280 18.570 79.130 69.860 0.000 18.98 18.680 18.470 18.900 18.68 18.250 18.060 18.260 15.740 13.350 14.750 12.490 21.767 17.228 4.543 21.389 14.937 6.447
PRIMET_226 2020-09-30 10:55:00 226 3904.0 0.00 241 0.000 0.000     15.270 13.300 18.52 18.070 17.930 18.240 81.400 72.880 0.000 18.66 18.220 18.040 18.270 18.40 17.980 17.840 18.220 15.800 13.690 14.760 13.030 21.322 17.351 3.966 20.951 15.273 5.682
PRIMET_226 2020-09-30 10:50:00 226 3904.0 0.00 228 0.000 0.000     15.140 13.320 18.29 17.760 17.650 18.130 81.900 73.490 0.000 18.42 17.890 17.790 18.260 18.00 17.600 17.510 17.910 15.630 13.750 14.480 13.050 21.017 17.206 3.804 20.807 15.293 5.516
PRIMET_226 2020-09-30 10:45:00 226 3904.0 0.00 222 0.000 0.000     15.080 13.220 17.60 17.390 17.290 17.680 85.200 75.160 0.000 17.98 17.600 17.510 17.890 17.20 17.070 17.080 17.620 15.480 13.600 14.530 12.720 20.124 17.140 2.978 20.226 15.193 5.024
PRIMET_226 2020-09-30 10:40:00 226 3904.0 0.00 233 0.127 0.127 44.910 0.000 14.190 13.060 16.89 16.770 16.910 17.460 84.100 75.370 0.281 17.13 17.030 17.040 17.610 16.70 16.670 16.790 17.230 15.030 13.270 13.870 12.930 19.241 16.183 3.059 19.947 15.035 4.913
PRIMET_226 2020-09-30 10:35:00 226 3904.0 0.00 234 0.038 0.038 44.900 0.000 13.730 13.050 16.50 16.450 16.470 16.970 83.700 77.660 0.294 16.68 16.660 16.780 17.190 16.23 16.260 16.280 16.900 13.940 13.330 13.550 12.850 18.770 15.707 3.059 19.339 15.025 4.320
PRIMET_226 2020-09-30 10:30:00 226 3904.0 0.00 200 0.000 0.000     13.500 12.820 15.81 16.020 16.210 16.840 86.100 77.140 0.000 16.19 16.230 16.280 16.980 15.48 15.770 16.050 16.620 13.810 12.890 13.260 12.750 17.962 15.473 2.497 19.180 14.801 4.384
PRIMET_226 2020-09-30 10:25:00 226 3904.0 0.00 362 0.000 0.000     13.180 12.670 15.07 15.560 15.910 16.490 88.500 78.140 0.000 15.43 15.750 16.020 16.590 14.75 15.360 15.780 16.410 13.280 12.860 13.040 12.580 17.129 15.154 1.970 18.758 14.656 4.100
PRIMET_226 2020-09-30 10:20:00 226 3904.0 0.00 244 0.000 0.000     12.910 12.450 14.54 15.100 15.580 16.360 89.900 77.620 0.000 14.72 15.330 15.770 16.420 14.38 14.880 15.390 16.310 13.010 12.640 12.840 12.340 16.553 14.889 1.672 18.603 14.446 4.163
PRIMET_226 2020-09-30 10:15:00 226 3904.0 0.00 222 0.000 0.000     12.890 12.760 14.15 14.530 15.090 16.020 92.100 81.000 0.000 14.36 14.830 15.380 16.290 14.00 14.310 14.760 15.790 13.010 13.010 12.800 12.500 16.141 14.869 1.275 18.204 14.743 3.459
PRIMET_226 2020-09-30 10:10:00 226 3904.0 0.00 235 0.000 0.000     12.730 12.620 13.96 14.300 14.800 15.630 92.300 82.200 0.000 13.99 14.350 14.870 15.800 13.94 14.260 14.730 15.390 12.840 12.740 12.620 12.480 15.943 14.714 1.228 17.756 14.608 3.161
PRIMET_226 2020-09-30 10:05:00 226 3904.0 0.00 259 0.000 0.000     12.610 12.500 13.99 14.400 14.760 15.130 91.400 84.300 0.000 14.04 14.460 14.840 15.370 13.94 14.320 14.590 14.820 12.670 12.660 12.530 12.360 15.974 14.599 1.374 17.195 14.494 2.700
PRIMET_226 2020-09-30 10:00:00 226 3904.0 0.00 304 0.000 0.000     12.590 12.420 13.94 14.200 14.400 14.660 91.600 86.500 0.000 14.04 14.390 14.570 14.820 13.78 14.000 14.240 14.490 12.670 12.470 12.520 12.380 15.923 14.579 1.337 16.682 14.418 2.252
PRIMET_226 2020-09-30 09:55:00 226 3904.0 0.00 0 0.016 0.016 44.290 0.000 12.440 12.430 13.51 13.770 14.020 14.300 93.200 88.500 0.124 13.74 13.970 14.220 14.480 13.27 13.580 13.840 14.010 12.550 12.650 12.370 12.310 15.483 14.437 1.053 16.298 14.427 1.874
PRIMET_226 2020-09-30 09:50:00 226 3904.0 0.00 0 0.061 0.061 44.270 0.000 12.270 12.400 12.91 13.280 13.520 13.660 95.900 92.100 0.222 13.24 13.550 13.800 13.980 12.56 13.010 13.250 13.390 12.370 12.550 12.110 12.300 14.889 14.276 0.610 15.635 14.399 1.235
PRIMET_226 2020-09-30 09:45:00 226 3904.0 0.00 0 0.035 0.035 44.190 0.000 11.780 12.220 12.20 12.590 12.840 12.980 97.200 95.100 0.451 12.51 12.960 13.230 13.340 11.98 12.260 12.490 12.640 12.080 12.460 11.560 12.060 14.211 13.822 0.398 14.957 14.229 0.733
PRIMET_226 2020-09-30 09:40:00 226 3904.0 0.00 0 0.000 0.000     11.410 11.850 11.84 12.130 12.370 12.430 97.200 96.300 0.000 11.96 12.240 12.490 12.620 11.72 12.040 12.280 12.330 11.540 12.050 11.280 11.740 13.877 13.488 0.389 14.427 13.886 0.534
PRIMET_226 2020-09-30 09:35:00 226 3904.0 0.00 0 0.000 0.000     11.160 11.620 11.61 11.920 12.160 12.300 97.000 95.600 0.000 11.70 12.040 12.270 12.340 11.54 11.810 12.070 12.280 11.260 11.720 11.090 11.530 13.668 13.266 0.410 14.304 13.677 0.629
PRIMET_226 2020-09-30 09:30:00 226 3904.0 0.00 0 0.000 0.000     11.140 11.620 11.48 11.740 12.060 12.390 97.800 95.000 0.000 11.56 11.810 12.090 12.440 11.32 11.690 12.020 12.340 11.200 11.800 11.030 11.540 13.551 13.249 0.298 14.389 13.677 0.719
PRIMET_226 2020-09-30 09:25:00 226 3904.0 0.00 0 0.000 0.000     10.830 11.570 11.11 11.480 11.810 12.150 98.200 96.200 0.000 11.28 11.690 12.070 12.370 10.99 11.340 11.600 11.950 11.000 11.780 10.750 11.320 13.222 12.979 0.238 14.164 13.632 0.538
PRIMET_226 2020-09-30 09:20:00 226 3904.0 0.00 0 0.002 0.002 44.070 0.000 10.680 11.370 10.87 11.320 11.650 11.740 98.800 97.600 0.026 10.99 11.400 11.670 11.930 10.70 11.180 11.600 11.460 10.760 11.450 10.540 11.300 13.013 12.850 0.156 13.786 13.452 0.331
PRIMET_226 2020-09-30 09:15:00 226 3904.0 0.00 0 0.215 0.215 44.060 0.000 10.370 10.990 10.52 10.850 11.260 11.060 99.000 99.600 0.359 10.69 11.160 11.590 11.420 10.39 10.640 10.880 10.670 10.520 11.310 10.240 10.600 12.713 12.586 0.127 13.179 13.117 0.053
PRIMET_226 2020-09-30 09:10:00 226 3904.0 0.00 0 0.139 0.139 44.060 0.000 10.140 10.300 10.28 10.500 10.670 10.380 99.100 99.500 0.405 10.38 10.630 10.850 10.620 10.16 10.360 10.540 10.220 10.230 10.540 10.030 10.160 12.511 12.394 0.113 12.595 12.528 0.063
PRIMET_226 2020-09-30 09:05:00 226 3904.0 0.00 0 0.066 0.066 43.900 0.000 9.920 10.070 10.04 10.230 10.410 10.110 99.200 99.800 0.307 10.15 10.360 10.530 10.210 9.93 10.110 10.290 9.990 10.020 10.160 9.800 9.970 12.312 12.213 0.098 12.370 12.336 0.025
PRIMET_226 2020-09-30 09:00:00 226 3904.0 0.00 0 0.046 0.046 43.890 0.000 9.710 9.840 9.83 9.980 10.140 9.840 99.200 99.900 0.261 9.91 10.100 10.270 9.970 9.72 9.860 10.020 9.720 9.790 9.950 9.610 9.720 12.140 12.042 0.097 12.148 12.148 0.012
PRIMET_226 2020-09-30 08:55:00 226 3904.0 0.00 0 0.134 0.134 43.890 0.000 9.500 9.640 9.61 9.740 9.940 9.640 99.300 100.000 0.346 9.71 9.860 10.010 9.720 9.49 9.610 9.900 9.580 9.610 9.720 9.380 9.580 11.962 11.873 0.084 11.986 11.986 0.000
PRIMET_226 2020-09-30 08:50:00 226 3904.0 0.00 0 0.000 0.000     9.240 9.500 9.35 9.490 9.790 9.500 99.200 100.000 0.000 9.47 9.600 9.870 9.580 9.23 9.380 9.620 9.350 9.370 9.580 9.120 9.350 11.754 11.667 0.094 11.873 11.873 0.000
PRIMET_226 2020-09-30 08:45:00 226 3904.0 0.00 0 0.000 0.000     9.040 9.170 9.16 9.310 9.430 9.170 99.200 100.000 0.000 9.24 9.370 9.570 9.330 9.10 9.260 9.340 9.030 9.120 9.330 8.980 9.030 11.604 11.511 0.093 11.612 11.612 0.000
PRIMET_226 2020-09-30 08:40:00 226 3904.0 0.00 0 0.000 0.000     8.910 8.960 9.03 9.190 9.280 8.960 99.200 100.000 0.000 9.08 9.260 9.350 9.020 8.98 9.140 9.240 8.900 8.960 9.020 8.860 8.900 11.503 11.410 0.092 11.449 11.449 0.000
PRIMET_226 2020-09-30 08:35:00 226 3904.0 0.00 0 0.000 0.000     8.810 8.850 8.93 9.100 9.190 8.850 99.200 100.000 0.000 8.97 9.140 9.230 8.900 8.87 9.050 9.120 8.800 8.850 8.900 8.740 8.800 11.426 11.333 0.091 11.364 11.364 0.000
PRIMET_226 2020-09-30 08:30:00 226 3904.0 0.00 0 0.000 0.000     8.690 8.760 8.82 8.980 9.070 8.760 99.100 100.000 0.000 8.87 9.040 9.120 8.800 8.77 8.910 9.000 8.710 8.740 8.800 8.640 8.710 11.341 11.242 0.102 11.295 11.295 0.000
PRIMET_226 2020-09-30 08:25:00 226 3904.0 0.00 0 0.000 0.000     8.640 8.700 8.77 8.890 8.990 8.700 99.100 100.000 0.000 8.78 8.910 9.010 8.710 8.76 8.890 8.970 8.680 8.650 8.710 8.630 8.680 11.303 11.204 0.102 11.249 11.249 0.000
PRIMET_226 2020-09-30 08:20:00 226 3904.0 0.00 0 0.000 0.000     8.640 8.670 8.77 8.900 8.970 8.670 99.100 100.000 0.000 8.78 8.910 8.980 8.690 8.74 8.880 8.960 8.630 8.660 8.690 8.610 8.630 11.303 11.204 0.102 11.226 11.226 0.000
PRIMET_226 2020-09-30 08:15:00 226 3904.0 0.00 0 0.000 0.000     8.590 8.610 8.71 8.850 8.920 8.610 99.200 100.000 0.000 8.74 8.890 8.960 8.640 8.68 8.810 8.890 8.570 8.610 8.640 8.550 8.570 11.257 11.166 0.090 11.181 11.181 0.000
PRIMET_226 2020-09-30 08:10:00 226 3904.0 0.00 0 0.000 0.000     8.530 8.560 8.66 8.790 8.870 8.560 99.200 100.000 0.000 8.69 8.810 8.890 8.580 8.63 8.760 8.840 8.540 8.560 8.580 8.510 8.540 11.219 11.120 0.090 11.143 11.143 0.000
PRIMET_226 2020-09-30 08:05:00 226 3904.0 0.00 0 0.000 0.000     8.490 8.520 8.61 8.750 8.820 8.520 99.200 100.000 0.000 8.64 8.770 8.850 8.540 8.60 8.730 8.810 8.500 8.510 8.540 8.480 8.500 11.181 11.090 0.089 11.113 11.113 0.000
PRIMET_226 2020-09-30 08:00:00 226 3904.0 0.00 0 0.000 0.000     8.460 8.510 8.59 8.710 8.800 8.510 99.200 100.000 0.000 8.60 8.730 8.820 8.530 8.56 8.680 8.800 8.500 8.480 8.530 8.440 8.500 11.166 11.068 0.089 11.105 11.105 0.000
PRIMET_226 2020-09-30 07:55:00 226 3904.0 0.00 0 0.000 0.000     8.440 8.500 8.56 8.690 8.790 8.500 99.200 100.000 0.000 8.58 8.700 8.810 8.520 8.55 8.650 8.760 8.470 8.460 8.520 8.430 8.470 11.143 11.053 0.089 11.098 11.098 -0.000
PRIMET_226 2020-09-30 07:50:00 226 3904.0 0.00 0 0.000 0.000     8.440 8.470 8.56 8.660 8.750 8.470 99.200 100.000 0.000 8.57 8.670 8.770 8.480 8.55 8.650 8.740 8.450 8.450 8.480 8.430 8.450 11.143 11.053 0.089 11.075 11.075 0.000
PRIMET_226 2020-09-30 07:45:00 226 3904.0 0.00 0 0.000 0.000     8.420 8.450 8.54 8.660 8.740 8.450 99.200 100.000 0.000 8.55 8.670 8.760 8.470 8.51 8.640 8.720 8.420 8.440 8.470 8.400 8.420 11.128 11.038 0.089 11.060 11.060 0.000
PRIMET_226 2020-09-30 07:40:00 226 3904.0 0.00 0 0.000 0.000     8.410 8.410 8.52 8.630 8.710 8.410 99.300 100.000 0.000 8.54 8.640 8.720 8.440 8.51 8.620 8.700 8.390 8.430 8.440 8.400 8.390 11.113 11.030 0.078 11.030 11.030 0.000
PRIMET_226 2020-09-30 07:35:00 226 3904.0 0.00 0 0.000 0.000     8.410 8.380 8.52 8.610 8.700 8.380 99.300 100.000 0.000 8.53 8.630 8.710 8.400 8.50 8.600 8.690 8.360 8.430 8.400 8.390 8.360 11.113 11.030 0.078 11.008 11.008 0.000
PRIMET_226 2020-09-30 07:30:00 226 3904.0 0.00 0 0.000 0.000     8.380 8.350 8.48 8.580 8.680 8.350 99.300 100.000 0.000 8.52 8.610 8.700 8.380 8.44 8.550 8.650 8.310 8.420 8.380 8.330 8.310 11.083 11.008 0.078 10.985 10.985 -0.000
PRIMET_226 2020-09-30 07:25:00 226 3904.0 0.00 0 0.000 0.000     8.290 8.290 8.40 8.490 8.590 8.290 99.300 100.000 0.000 8.43 8.540 8.640 8.310 8.38 8.470 8.560 8.260 8.330 8.310 8.270 8.260 11.023 10.941 0.077 10.941 10.941 0.000
PRIMET_226 2020-09-30 07:20:00 226 3904.0 0.00 0 0.000 0.000     8.310 8.290 8.42 8.500 8.590 8.290 99.300 100.000 0.000 8.44 8.530 8.610 8.300 8.40 8.480 8.570 8.280 8.340 8.300 8.290 8.280 11.038 10.956 0.077 10.941 10.941 0.000
PRIMET_226 2020-09-30 07:15:00 226 3904.0 0.00 0 0.000 0.000     8.300 8.260 8.40 8.500 8.580 8.260 99.300 100.000 0.000 8.44 8.530 8.610 8.290 8.37 8.460 8.560 8.240 8.340 8.290 8.270 8.240 11.023 10.948 0.077 10.918 10.918 0.000
PRIMET_226 2020-09-30 07:10:00 226 3904.0 0.00 0 0.000 0.000     8.270 8.240 8.37 8.450 8.540 8.240 99.300 100.000 0.000 8.39 8.470 8.550 8.250 8.35 8.440 8.520 8.230 8.290 8.250 8.240 8.230 11.000 10.926 0.077 10.904 10.904 0.000
PRIMET_226 2020-09-30 07:05:00 226 3904.0 0.00 0 0.000 0.000     8.270 8.250 8.38 8.460 8.550 8.250 99.300 100.000 0.000 8.40 8.500 8.590 8.280 8.35 8.440 8.520 8.230 8.300 8.280 8.240 8.230 11.008 10.926 0.077 10.911 10.911 0.000
PRIMET_226 2020-09-30 07:00:00 226 3904.0 0.00 0 0.000 0.000     8.250 8.260 8.35 8.470 8.560 8.260 99.300 100.000 0.000 8.38 8.510 8.590 8.280 8.33 8.450 8.540 8.250 8.280 8.280 8.230 8.250 10.985 10.911 0.077 10.918 10.918 0.000
PRIMET_226 2020-09-30 06:55:00 226 3904.0 0.00 0 0.000 0.000     8.240 8.260 8.35 8.450 8.560 8.260 99.300 100.000 0.000 8.37 8.480 8.580 8.270 8.32 8.420 8.530 8.240 8.270 8.270 8.210 8.240 10.985 10.904 0.077 10.918 10.918 0.000
PRIMET_226 2020-09-30 06:50:00 226 3904.0 0.00 0 0.000 0.000     8.220 8.240 8.33 8.410 8.510 8.240 99.300 100.000 0.000 8.34 8.420 8.530 8.250 8.31 8.400 8.500 8.220 8.230 8.250 8.200 8.220 10.970 10.889 0.077 10.904 10.904 0.000
PRIMET_226 2020-09-30 06:45:00 226 3904.0 0.00 0 0.000 0.000     8.260 8.250 8.36 8.440 8.530 8.250 99.300 100.000 0.000 8.38 8.460 8.550 8.260 8.34 8.420 8.500 8.230 8.270 8.260 8.230 8.230 10.993 10.918 0.077 10.911 10.911 0.000
PRIMET_226 2020-09-30 06:40:00 226 3904.0 0.00 0 0.000 0.000     8.250 8.270 8.36 8.470 8.570 8.270 99.300 100.000 0.000 8.38 8.490 8.600 8.290 8.35 8.460 8.550 8.240 8.270 8.290 8.240 8.240 10.993 10.911 0.077 10.926 10.926 0.000
PRIMET_226 2020-09-30 06:35:00 226 3904.0 0.00 0 0.010 0.010 43.770 0.000 8.220 8.260 8.33 8.460 8.550 8.260 99.200 100.000 0.144 8.36 8.470 8.590 8.270 8.31 8.440 8.540 8.240 8.250 8.270 8.200 8.240 10.970 10.889 0.088 10.918 10.918 0.000
PRIMET_226 2020-09-30 06:30:00 226 3904.0 0.00 0 0.113 0.113 43.770 0.000 8.230 8.280 8.34 8.450 8.540 8.280 99.200 100.000 0.444 8.36 8.460 8.550 8.300 8.32 8.440 8.520 8.260 8.250 8.300 8.210 8.260 10.978 10.896 0.088 10.933 10.933 0.000
PRIMET_226 2020-09-30 06:25:00 226 3904.0 0.00 0 0.000 0.000     8.270 8.340 8.38 8.500 8.610 8.340 99.300 100.000 0.000 8.40 8.530 8.650 8.350 8.35 8.460 8.550 8.300 8.290 8.350 8.240 8.300 11.008 10.926 0.077 10.978 10.978 0.000
PRIMET_226 2020-09-30 06:20:00 226 3904.0 0.00 0 0.000 0.000     8.240 8.340 8.35 8.480 8.610 8.340 99.200 100.000 0.000 8.39 8.520 8.640 8.350 8.32 8.440 8.590 8.320 8.280 8.350 8.200 8.320 10.985 10.904 0.088 10.978 10.978 0.000
PRIMET_226 2020-09-30 06:15:00 226 3904.0 0.00 0 0.000 0.000     8.260 8.320 8.38 8.470 8.620 8.320 99.200 100.000 0.000 8.41 8.490 8.630 8.330 8.33 8.430 8.590 8.290 8.300 8.330 8.210 8.290 11.008 10.918 0.088 10.963 10.963 0.000
PRIMET_226 2020-09-30 06:10:00 226 3904.0 0.00 0 0.000 0.000     8.230 8.320 8.36 8.450 8.600 8.320 99.200 100.000 0.000 8.41 8.470 8.620 8.340 8.32 8.430 8.580 8.310 8.290 8.340 8.200 8.310 10.993 10.896 0.088 10.963 10.963 0.000
PRIMET_226 2020-09-30 06:05:00 226 3904.0 0.00 0 0.000 0.000     8.290 8.330 8.41 8.490 8.620 8.330 99.200 100.000 0.000 8.42 8.510 8.640 8.340 8.39 8.460 8.600 8.310 8.310 8.340 8.260 8.310 11.030 10.941 0.088 10.970 10.970 0.000
PRIMET_226 2020-09-30 06:00:00 226 3904.0 0.00 0 0.000 0.000     8.300 8.330 8.42 8.480 8.590 8.330 99.100 100.000 0.000 8.44 8.500 8.600 8.350 8.41 8.450 8.580 8.300 8.320 8.350 8.280 8.300 11.038 10.948 0.099 10.970 10.970 0.000
PRIMET_226 2020-09-30 05:55:00 226 3904.0 0.00 0 0.000 0.000     8.340 8.370 8.47 8.530 8.630 8.370 99.100 100.000 0.000 8.50 8.570 8.670 8.400 8.44 8.510 8.610 8.340 8.380 8.400 8.310 8.340 11.075 10.978 0.100 11.000 11.000 0.000
PRIMET_226 2020-09-30 05:50:00 226 3904.0 0.00 0 0.000 0.000     8.410 8.430 8.54 8.620 8.720 8.430 99.200 100.000 0.000 8.57 8.670 8.760 8.460 8.49 8.570 8.670 8.400 8.450 8.460 8.360 8.400 11.128 11.030 0.089 11.045 11.045 -0.000
PRIMET_226 2020-09-30 05:45:00 226 3904.0 0.00 0 0.000 0.000     8.430 8.430 8.55 8.650 8.730 8.430 99.200 100.000 0.000 8.58 8.700 8.770 8.470 8.52 8.620 8.700 8.420 8.470 8.470 8.400 8.420 11.135 11.045 0.089 11.045 11.045 -0.000
PRIMET_226 2020-09-30 05:40:00 226 3904.0 0.00 0 0.000 0.000     8.430 8.440 8.55 8.670 8.760 8.440 99.200 100.000 0.000 8.59 8.710 8.800 8.470 8.52 8.630 8.720 8.420 8.480 8.470 8.390 8.420 11.135 11.045 0.089 11.053 11.053 0.000
PRIMET_226 2020-09-30 05:35:00 226 3904.0 0.00 0 0.000 0.000     8.400 8.430 8.53 8.620 8.710 8.430 99.100 100.000 0.000 8.55 8.640 8.720 8.440 8.51 8.610 8.700 8.410 8.420 8.440 8.380 8.410 11.120 11.023 0.100 11.045 11.045 -0.000
PRIMET_226 2020-09-30 05:30:00 226 3904.0 0.00 0 0.000 0.000     8.440 8.470 8.57 8.650 8.740 8.470 99.100 100.000 0.000 8.60 8.680 8.770 8.520 8.55 8.630 8.720 8.440 8.470 8.520 8.420 8.440 11.151 11.053 0.100 11.075 11.075 0.000
PRIMET_226 2020-09-30 05:25:00 226 3904.0 0.00 0 0.025 0.025 43.770 0.000 8.530 8.550 8.66 8.730 8.830 8.550 99.200 100.000 0.248 8.70 8.790 8.900 8.570 8.61 8.680 8.770 8.510 8.580 8.570 8.480 8.510 11.219 11.120 0.090 11.135 11.135 -0.000
PRIMET_226 2020-09-30 05:20:00 226 3904.0 0.00 0 0.000 0.000     8.540 8.540 8.66 8.760 8.860 8.540 99.200 100.000 0.000 8.71 8.800 8.900 8.570 8.61 8.700 8.800 8.520 8.590 8.570 8.480 8.520 11.219 11.128 0.090 11.128 11.128 0.000
PRIMET_226 2020-09-30 05:15:00 226 3904.0 0.00 0 0.000 0.000     8.520 8.550 8.65 8.730 8.810 8.550 99.100 100.000 0.000 8.68 8.770 8.850 8.580 8.62 8.700 8.790 8.510 8.550 8.580 8.490 8.510 11.211 11.113 0.101 11.135 11.135 -0.000
PRIMET_226 2020-09-30 05:10:00 226 3904.0 0.00 0 0.000 0.000     8.590 8.610 8.72 8.810 8.910 8.610 99.200 100.000 0.000 8.75 8.860 8.960 8.640 8.67 8.760 8.850 8.580 8.640 8.640 8.540 8.580 11.264 11.166 0.090 11.181 11.181 0.000
PRIMET_226 2020-09-30 05:05:00 226 3904.0 0.00 0 0.000 0.000     8.560 8.630 8.69 8.800 8.930 8.630 99.200 100.000 0.000 8.73 8.870 8.970 8.660 8.66 8.760 8.890 8.620 8.620 8.660 8.530 8.620 11.242 11.143 0.090 11.196 11.196 0.000
PRIMET_226 2020-09-30 05:00:00 226 3904.0 0.00 0 0.000 0.000     8.560 8.630 8.69 8.770 8.910 8.630 99.100 100.000 0.000 8.71 8.790 8.920 8.640 8.67 8.740 8.890 8.610 8.580 8.640 8.540 8.610 11.242 11.143 0.101 11.196 11.196 0.000
PRIMET_226 2020-09-30 04:55:00 226 3904.0 0.00 0 0.000 0.000     8.600 8.620 8.73 8.790 8.890 8.620 99.100 100.000 0.000 8.76 8.820 8.910 8.640 8.71 8.740 8.880 8.600 8.630 8.640 8.570 8.600 11.272 11.173 0.101 11.188 11.188 0.000
PRIMET_226 2020-09-30 04:50:00 226 3904.0 0.00 0 0.000 0.000     8.620 8.650 8.76 8.820 8.900 8.650 99.100 100.000 0.000 8.78 8.840 8.930 8.690 8.74 8.800 8.880 8.620 8.640 8.690 8.600 8.620 11.295 11.188 0.102 11.211 11.211 0.000
PRIMET_226 2020-09-30 04:45:00 226 3904.0 0.00 0 0.000 0.000     8.670 8.710 8.80 8.900 8.980 8.710 99.100 100.000 0.000 8.84 8.940 9.030 8.730 8.78 8.850 8.940 8.680 8.710 8.730 8.650 8.680 11.326 11.226 0.102 11.257 11.257 0.000
PRIMET_226 2020-09-30 04:40:00 226 3904.0 0.00 0 0.000 0.000     8.690 8.740 8.83 8.930 9.030 8.740 99.100 100.000 0.000 8.86 8.950 9.060 8.770 8.81 8.920 8.990 8.710 8.730 8.770 8.670 8.710 11.349 11.242 0.102 11.280 11.280 0.000
PRIMET_226 2020-09-30 04:35:00 226 3904.0 0.00 0 0.000 0.000     8.700 8.760 8.84 8.920 9.030 8.760 99.100 100.000 0.000 8.86 8.960 9.080 8.780 8.82 8.900 9.000 8.740 8.730 8.780 8.680 8.740 11.356 11.249 0.102 11.295 11.295 0.000
PRIMET_226 2020-09-30 04:30:00 226 3904.0 0.00 0 0.000 0.000     8.730 8.800 8.87 8.960 9.060 8.800 99.100 100.000 0.000 8.90 9.000 9.100 8.830 8.84 8.930 9.020 8.770 8.760 8.830 8.690 8.770 11.379 11.272 0.102 11.326 11.326 0.000
PRIMET_226 2020-09-30 04:25:00 226 3904.0 0.00 0 0.000 0.000     8.750 8.830 8.89 9.000 9.120 8.830 99.100 100.000 0.000 8.90 9.020 9.140 8.850 8.87 8.970 9.100 8.800 8.770 8.850 8.730 8.800 11.395 11.287 0.103 11.349 11.349 0.000
PRIMET_226 2020-09-30 04:20:00 226 3904.0 0.00 0 0.000 0.000     8.780 8.800 8.92 8.950 9.050 8.800 99.000 100.000 0.000 8.95 8.980 9.080 8.830 8.89 8.930 9.030 8.790 8.800 8.830 8.740 8.790 11.418 11.310 0.114 11.326 11.326 0.000
PRIMET_226 2020-09-30 04:15:00 226 3904.0 0.00 0 0.000 0.000     8.830 8.860 8.97 9.030 9.110 8.860 99.000 100.000 0.000 8.99 9.080 9.160 8.900 8.95 8.990 9.060 8.820 8.850 8.900 8.800 8.820 11.457 11.349 0.115 11.372 11.372 0.000
PRIMET_226 2020-09-30 04:10:00 226 3904.0 0.00 0 0.000 0.000     8.840 8.890 8.99 9.070 9.160 8.890 99.000 100.000 0.000 9.01 9.100 9.190 8.910 8.97 9.040 9.130 8.880 8.870 8.910 8.820 8.880 11.472 11.356 0.115 11.395 11.395 0.000
PRIMET_226 2020-09-30 04:05:00 226 3904.0 0.00 0 0.000 0.000     8.870 8.950 9.02 9.110 9.220 8.950 99.000 100.000 0.000 9.06 9.160 9.270 8.990 8.99 9.050 9.160 8.910 8.910 8.990 8.840 8.910 11.495 11.379 0.115 11.441 11.441 0.000
PRIMET_226 2020-09-30 04:00:00 226 3904.0 0.00 0 0.000 0.000     8.920 8.960 9.07 9.150 9.250 8.960 99.000 100.000 0.000 9.09 9.170 9.290 8.990 9.04 9.120 9.210 8.940 8.940 8.990 8.890 8.940 11.534 11.418 0.115 11.449 11.449 0.000
PRIMET_226 2020-09-30 03:55:00 226 3904.0 0.00 0 0.000 0.000     8.970 8.990 9.12 9.170 9.270 8.990 99.000 100.000 0.000 9.17 9.230 9.320 9.020 9.09 9.130 9.220 8.950 9.020 9.020 8.930 8.950 11.573 11.457 0.116 11.472 11.472 0.000
PRIMET_226 2020-09-30 03:50:00 226 3904.0 0.00 0 0.000 0.000     9.060 9.050 9.21 9.280 9.380 9.050 99.000 100.000 0.000 9.23 9.320 9.400 9.070 9.18 9.240 9.330 9.020 9.090 9.070 9.030 9.020 11.644 11.526 0.116 11.519 11.519 0.000
PRIMET_226 2020-09-30 03:45:00 226 3904.0 0.00 0 0.000 0.000     9.000 9.040 9.15 9.220 9.330 9.050 98.900 100.000 0.000 9.18 9.280 9.390 9.060 9.14 9.180 9.290 9.020 9.040 9.060 8.970 9.020 11.597 11.480 0.128 11.519 11.511 0.000
PRIMET_226 2020-09-30 03:40:00 226 3904.0 0.00 0 0.000 0.000     9.020 9.080 9.19 9.240 9.340 9.080 98.900 100.000 0.000 9.23 9.280 9.380 9.110 9.15 9.180 9.300 9.040 9.070 9.110 8.990 9.040 11.628 11.495 0.128 11.542 11.542 0.000
PRIMET_226 2020-09-30 03:35:00 226 3904.0 0.00 0 0.000 0.000     9.080 9.130 9.25 9.290 9.400 9.130 98.900 100.000 0.000 9.27 9.310 9.420 9.160 9.22 9.280 9.380 9.110 9.100 9.160 9.060 9.100 11.675 11.542 0.128 11.581 11.581 -0.000
PRIMET_226 2020-09-30 03:30:00 226 3904.0 0.00 0 0.000 0.000     9.130 9.180 9.30 9.350 9.460 9.190 98.900 100.000 0.000 9.31 9.370 9.480 9.210 9.26 9.310 9.430 9.170 9.150 9.200 9.090 9.160 11.715 11.581 0.129 11.628 11.620 -0.000
PRIMET_226 2020-09-30 03:25:00 226 3904.0 0.00 0 0.000 0.000     9.180 9.210 9.34 9.400 9.480 9.210 98.900 99.900 0.000 9.38 9.450 9.540 9.240 9.31 9.350 9.440 9.190 9.220 9.230 9.140 9.180 11.746 11.620 0.129 11.644 11.644 0.012
PRIMET_226 2020-09-30 03:20:00 226 3904.0 0.00 0 0.000 0.000     9.250 9.270 9.41 9.490 9.570 9.270 98.900 99.900 0.000 9.42 9.510 9.600 9.290 9.38 9.450 9.530 9.250 9.270 9.280 9.220 9.240 11.802 11.675 0.130 11.691 11.691 0.012
PRIMET_226 2020-09-30 03:15:00 226 3904.0 0.00 0 0.000 0.000     9.230 9.280 9.40 9.470 9.570 9.290 98.900 99.900 0.000 9.42 9.500 9.600 9.300 9.39 9.450 9.550 9.280 9.260 9.290 9.220 9.270 11.794 11.659 0.130 11.707 11.699 0.012
PRIMET_226 2020-09-30 03:10:00 226 3904.0 0.00 0 0.000 0.000     9.260 9.300 9.43 9.490 9.570 9.310 98.800 99.900 0.000 9.47 9.530 9.590 9.350 9.40 9.460 9.540 9.300 9.290 9.330 9.220 9.280 11.818 11.683 0.142 11.722 11.715 0.012
PRIMET_226 2020-09-30 03:05:00 226 3904.0 0.00 0 0.000 0.000     9.320 9.350 9.49 9.570 9.640 9.360 98.800 99.900 0.000 9.52 9.600 9.670 9.400 9.47 9.530 9.590 9.330 9.350 9.380 9.290 9.310 11.865 11.730 0.142 11.762 11.754 0.012
PRIMET_226 2020-09-30 03:00:00 226 3904.0 0.00 0 0.000 0.000     9.370 9.390 9.54 9.620 9.700 9.410 98.900 99.900 0.000 9.56 9.630 9.720 9.440 9.51 9.590 9.670 9.380 9.400 9.420 9.340 9.370 11.905 11.770 0.131 11.802 11.786 0.012
PRIMET_226 2020-09-30 02:55:00 226 3904.0 0.00 0 0.000 0.000     9.340 9.400 9.52 9.600 9.690 9.420 98.800 99.900 0.000 9.54 9.620 9.710 9.440 9.50 9.580 9.680 9.400 9.360 9.420 9.320 9.380 11.889 11.746 0.143 11.810 11.794 0.012
PRIMET_226 2020-09-30 02:50:00 226 3904.0 0.00 0 0.000 0.000     9.380 9.440 9.56 9.640 9.730 9.460 98.800 99.900 0.000 9.59 9.660 9.760 9.490 9.54 9.630 9.690 9.430 9.410 9.470 9.360 9.410 11.921 11.778 0.143 11.841 11.826 0.012
PRIMET_226 2020-09-30 02:45:00 226 3904.0 0.00 0 0.000 0.000     9.430 9.480 9.61 9.690 9.790 9.500 98.800 99.800 0.000 9.62 9.720 9.820 9.530 9.59 9.660 9.760 9.480 9.450 9.500 9.410 9.450 11.962 11.818 0.144 11.873 11.857 0.024
PRIMET_226 2020-09-30 02:40:00 226 3904.0 0.00 0 0.000 0.000     9.430 9.470 9.61 9.680 9.770 9.500 98.800 99.800 0.000 9.64 9.710 9.790 9.530 9.59 9.660 9.750 9.480 9.450 9.510 9.410 9.450 11.962 11.818 0.144 11.873 11.849 0.024
PRIMET_226 2020-09-30 02:35:00 226 3904.0 0.00 0 0.000 0.000     9.510 9.530 9.69 9.750 9.840 9.560 98.800 99.800 0.000 9.74 9.800 9.900 9.600 9.65 9.710 9.790 9.520 9.560 9.580 9.460 9.490 12.026 11.881 0.144 11.921 11.897 0.024
PRIMET_226 2020-09-30 02:30:00 226 3904.0 0.00 0 0.000 0.000     9.560 9.580 9.74 9.830 9.920 9.620 98.800 99.800 0.000 9.75 9.840 9.930 9.640 9.72 9.810 9.900 9.600 9.580 9.600 9.530 9.560 12.066 11.921 0.145 11.970 11.937 0.024
PRIMET_226 2020-09-30 02:25:00 226 3904.0 0.00 0 0.000 0.000     9.550 9.600 9.74 9.820 9.920 9.640 98.700 99.800 0.000 9.76 9.840 9.940 9.650 9.73 9.800 9.900 9.610 9.570 9.620 9.540 9.580 12.066 11.913 0.157 11.986 11.953 0.024
PRIMET_226 2020-09-30 02:20:00 226 3904.0 0.00 0 0.000 0.000     9.570 9.630 9.76 9.870 9.970 9.670 98.700 99.700 0.000 9.79 9.900 10.000 9.690 9.75 9.840 9.940 9.660 9.600 9.650 9.550 9.610 12.083 11.929 0.157 12.010 11.978 0.036
PRIMET_226 2020-09-30 02:15:00 226 3904.0 0.00 0 0.000 0.000     9.600 9.670 9.80 9.890 9.980 9.710 98.700 99.700 0.000 9.85 9.930 10.030 9.760 9.75 9.860 9.950 9.660 9.660 9.730 9.550 9.620 12.115 11.953 0.157 12.042 12.010 0.036
PRIMET_226 2020-09-30 02:10:00 226 3904.0 0.00 0 0.000 0.000     9.710 9.750 9.89 9.970 10.080 9.790 98.800 99.800 0.000 9.93 10.000 10.110 9.810 9.84 9.930 10.030 9.760 9.750 9.770 9.650 9.720 12.189 12.042 0.146 12.107 12.075 0.024
PRIMET_226 2020-09-30 02:05:00 226 3904.0 0.00 0 0.000 0.000     9.690 9.750 9.88 9.950 10.080 9.790 98.700 99.700 0.000 9.91 9.990 10.100 9.800 9.86 9.940 10.040 9.770 9.720 9.760 9.660 9.730 12.180 12.026 0.158 12.107 12.075 0.036
PRIMET_226 2020-09-30 02:00:00 226 3904.0 0.00 0 0.000 0.000     9.710 9.760 9.91 9.960 10.090 9.810 98.700 99.700 0.000 9.92 9.990 10.110 9.820 9.90 9.940 10.050 9.790 9.730 9.780 9.700 9.740 12.205 12.042 0.159 12.123 12.083 0.036
PRIMET_226 2020-09-30 01:55:00 226 3904.0 0.00 0 0.000 0.000     9.750 9.810 9.95 10.000 10.120 9.860 98.600 99.700 0.000 10.00 10.070 10.190 9.910 9.91 9.950 10.060 9.800 9.800 9.860 9.710 9.760 12.238 12.075 0.171 12.164 12.123 0.036
PRIMET_226 2020-09-30 01:50:00 226 3904.0 0.00 0 0.000 0.000     9.810 9.850 10.01 10.080 10.190 9.900 98.600 99.700 0.000 10.02 10.100 10.220 9.910 9.99 10.060 10.160 9.880 9.820 9.870 9.780 9.830 12.287 12.123 0.172 12.197 12.156 0.037
PRIMET_226 2020-09-30 01:45:00 226 3904.0 0.00 0 0.000 0.000     9.840 9.880 10.05 10.110 10.200 9.940 98.600 99.600 0.000 10.07 10.130 10.220 9.950 10.02 10.070 10.170 9.910 9.860 9.890 9.810 9.860 12.320 12.148 0.172 12.229 12.180 0.049
PRIMET_226 2020-09-30 01:40:00 226 3904.0 0.00 0 0.000 0.000     9.890 9.910 10.10 10.170 10.250 9.970 98.600 99.600 0.000 10.13 10.210 10.290 10.010 10.06 10.120 10.210 9.940 9.930 9.950 9.850 9.880 12.361 12.189 0.173 12.254 12.205 0.049
PRIMET_226 2020-09-30 01:35:00 226 3904.0 0.00 0 0.000 0.000     9.920 9.970 10.13 10.220 10.310 10.040 98.600 99.600 0.000 10.15 10.250 10.340 10.070 10.12 10.210 10.280 10.000 9.930 10.010 9.910 9.940 12.386 12.213 0.173 12.312 12.254 0.049
PRIMET_226 2020-09-30 01:30:00 226 3904.0 0.00 0 0.000 0.000     9.950 10.040 10.17 10.270 10.370 10.100 98.500 99.600 0.000 10.19 10.290 10.390 10.120 10.14 10.250 10.350 10.080 9.970 10.060 9.920 10.020 12.419 12.238 0.186 12.361 12.312 0.049
PRIMET_226 2020-09-30 01:25:00 226 3904.0 0.00 0 0.000 0.000     10.010 10.080 10.22 10.300 10.410 10.140 98.600 99.600 0.000 10.24 10.330 10.440 10.160 10.18 10.270 10.380 10.110 10.030 10.100 9.960 10.050 12.461 12.287 0.174 12.394 12.345 0.050
PRIMET_226 2020-09-30 01:20:00 226 3904.0 0.00 0 0.000 0.000     10.010 10.100 10.23 10.310 10.440 10.170 98.500 99.600 0.000 10.25 10.330 10.460 10.190 10.21 10.290 10.420 10.150 10.020 10.120 9.980 10.080 12.469 12.287 0.187 12.419 12.361 0.050
PRIMET_226 2020-09-30 01:15:00 226 3904.0 0.00 0 0.000 0.000     10.060 10.110 10.29 10.360 10.460 10.190 98.500 99.500 0.000 10.33 10.380 10.470 10.210 10.26 10.330 10.450 10.170 10.090 10.130 10.030 10.100 12.519 12.328 0.188 12.436 12.370 0.062
PRIMET_226 2020-09-30 01:10:00 226 3904.0 0.00 0 0.000 0.000     10.110 10.160 10.35 10.410 10.490 10.240 98.400 99.500 0.000 10.39 10.460 10.520 10.280 10.32 10.380 10.460 10.210 10.150 10.200 10.080 10.120 12.570 12.370 0.201 12.478 12.411 0.062
PRIMET_226 2020-09-30 01:05:00 226 3904.0 0.00 0 0.000 0.000     10.190 10.240 10.42 10.510 10.580 10.320 98.400 99.500 0.000 10.46 10.550 10.640 10.360 10.39 10.460 10.530 10.280 10.230 10.280 10.150 10.200 12.629 12.436 0.202 12.545 12.478 0.063
PRIMET_226 2020-09-30 01:00:00 226 3904.0 0.00 0 0.000 0.000     10.250 10.280 10.47 10.560 10.670 10.360 98.500 99.500 0.000 10.50 10.600 10.710 10.390 10.45 10.500 10.610 10.330 10.270 10.310 10.210 10.240 12.671 12.486 0.190 12.578 12.511 0.063
PRIMET_226 2020-09-30 00:55:00 226 3904.0 0.00 0 0.000 0.000     10.230 10.270 10.48 10.530 10.620 10.370 98.400 99.400 0.000 10.50 10.560 10.660 10.410 10.44 10.490 10.590 10.330 10.260 10.320 10.200 10.230 12.679 12.469 0.203 12.586 12.503 0.076
PRIMET_226 2020-09-30 00:50:00 226 3904.0 0.00 0 0.000 0.000     10.300 10.360 10.55 10.610 10.720 10.450 98.400 99.400 0.000 10.58 10.660 10.780 10.480 10.51 10.560 10.670 10.410 10.340 10.390 10.270 10.320 12.739 12.528 0.204 12.654 12.578 0.076
PRIMET_226 2020-09-30 00:45:00 226 3904.0 0.00 0 0.000 0.000     10.330 10.390 10.59 10.650 10.750 10.480 98.300 99.400 0.000 10.62 10.670 10.770 10.500 10.55 10.630 10.740 10.460 10.360 10.410 10.290 10.370 12.773 12.553 0.217 12.679 12.603 0.076
PRIMET_226 2020-09-30 00:40:00 226 3904.0 0.00 0 0.000 0.000     10.380 10.440 10.64 10.700 10.790 10.530 98.300 99.400 0.000 10.67 10.730 10.820 10.570 10.60 10.670 10.760 10.500 10.410 10.470 10.340 10.410 12.815 12.595 0.218 12.722 12.645 0.076
PRIMET_226 2020-09-30 00:35:00 226 3904.0 0.00 0 0.000 0.000     10.440 10.490 10.70 10.760 10.850 10.580 98.300 99.300 0.000 10.73 10.790 10.880 10.610 10.67 10.730 10.820 10.550 10.470 10.520 10.410 10.450 12.867 12.645 0.219 12.764 12.688 0.089
PRIMET_226 2020-09-30 00:30:00 226 3904.0 0.00 0 0.000 0.000     10.500 10.540 10.76 10.830 10.920 10.640 98.200 99.300 0.000 10.79 10.860 10.970 10.670 10.73 10.800 10.880 10.600 10.530 10.570 10.460 10.500 12.918 12.696 0.233 12.815 12.730 0.090
PRIMET_226 2020-09-30 00:25:00 226 3904.0 0.00 0 0.000 0.000     10.530 10.560 10.80 10.870 10.950 10.670 98.200 99.300 0.000 10.82 10.910 10.980 10.690 10.78 10.840 10.930 10.640 10.550 10.590 10.510 10.530 12.953 12.722 0.233 12.841 12.747 0.090
PRIMET_226 2020-09-30 00:20:00 226 3904.0 0.00 0 0.000 0.000     10.560 10.600 10.84 10.920 10.990 10.720 98.200 99.200 0.000 10.87 10.930 11.000 10.740 10.83 10.910 10.980 10.700 10.590 10.630 10.550 10.580 12.987 12.747 0.234 12.884 12.781 0.103
PRIMET_226 2020-09-30 00:15:00 226 3904.0 0.00 0 0.000 0.000     10.620 10.640 10.90 10.940 11.030 10.770 98.200 99.100 0.000 10.92 10.970 11.050 10.800 10.87 10.930 11.000 10.740 10.640 10.670 10.590 10.620 13.039 12.798 0.235 12.927 12.815 0.116
PRIMET_226 2020-09-30 00:10:00 226 3904.0 0.00 0 0.000 0.000     10.660 10.690 10.95 10.970 11.070 10.830 98.100 99.100 0.000 11.00 11.020 11.110 10.870 10.92 10.940 11.050 10.800 10.710 10.730 10.630 10.670 13.083 12.832 0.249 12.979 12.858 0.117
PRIMET_226 2020-09-30 00:05:00 226 3904.0 0.00 0 0.000 0.000     10.740 10.780 11.02 11.070 11.170 10.910 98.100 99.100 0.000 11.06 11.110 11.220 10.950 10.99 11.030 11.110 10.860 10.780 10.830 10.700 10.720 13.144 12.901 0.250 13.048 12.935 0.117
PRIMET_226 2020-09-30 00:00:00 226 3904.0 0.00 0 0.000 0.000     10.750 10.790 11.05 11.090 11.190 10.930 98.000 99.100 0.000 11.08 11.110 11.220 10.960 11.03 11.070 11.170 10.910 10.780 10.810 10.730 10.760 13.170 12.910 0.263 13.065 12.944 0.118
PRIMET_226 2020-09-29 23:55:00 226 3904.0 0.00 0 0.000 0.000     10.810 10.850 11.11 11.140 11.240 10.990 98.000 99.000 0.000 11.16 11.190 11.290 11.040 11.07 11.110 11.200 10.950 10.860 10.910 10.770 10.800 13.222 12.961 0.264 13.117 12.996 0.131
PRIMET_226 2020-09-29 23:50:00 226 3904.0 0.00 0 0.000 0.000     10.880 10.920 11.18 11.230 11.310 11.060 98.000 99.100 0.000 11.21 11.240 11.340 11.070 11.15 11.200 11.290 11.040 10.900 10.930 10.850 10.900 13.284 13.022 0.266 13.179 13.056 0.119
PRIMET_226 2020-09-29 23:45:00 226 3904.0 0.00 0 0.000 0.000     10.930 10.970 11.24 11.290 11.370 11.110 98.000 99.100 0.000 11.28 11.330 11.400 11.150 11.21 11.250 11.320 11.070 10.970 11.010 10.900 10.930 13.337 13.065 0.267 13.222 13.100 0.119
PRIMET_226 2020-09-29 23:40:00 226 3904.0 0.00 0 0.000 0.000     10.980 11.030 11.30 11.360 11.440 11.170 97.900 99.100 0.000 11.35 11.400 11.480 11.210 11.26 11.320 11.400 11.150 11.050 11.080 10.940 11.010 13.390 13.109 0.281 13.275 13.152 0.119
PRIMET_226 2020-09-29 23:35:00 226 3904.0 0.00 0 0.000 0.000     11.020 11.050 11.34 11.400 11.480 11.210 97.900 99.000 0.000 11.36 11.420 11.510 11.230 11.32 11.370 11.460 11.200 11.050 11.070 11.000 11.040 13.426 13.144 0.282 13.310 13.170 0.133
PRIMET_226 2020-09-29 23:30:00 226 3904.0 0.00 0 0.000 0.000     11.080 11.120 11.40 11.450 11.530 11.270 97.900 99.000 0.000 11.46 11.500 11.590 11.330 11.35 11.380 11.470 11.220 11.130 11.190 11.020 11.060 13.479 13.196 0.283 13.364 13.231 0.134
PRIMET_226 2020-09-29 23:25:00 226 3904.0 0.00 0 0.000 0.000     11.140 11.170 11.46 11.520 11.610 11.320 97.900 99.000 0.000 11.48 11.550 11.630 11.340 11.45 11.510 11.600 11.310 11.150 11.200 11.130 11.150 13.533 13.249 0.284 13.408 13.275 0.134
PRIMET_226 2020-09-29 23:20:00 226 3904.0 0.00 0 0.000 0.000     11.170 11.200 11.51 11.590 11.640 11.360 97.800 98.900 0.000 11.54 11.640 11.680 11.400 11.46 11.550 11.610 11.330 11.210 11.240 11.130 11.170 13.578 13.275 0.299 13.444 13.302 0.148
PRIMET_226 2020-09-29 23:15:00 226 3904.0 0.00 0 0.000 0.000     11.210 11.230 11.55 11.610 11.670 11.410 97.800 98.800 0.000 11.57 11.630 11.690 11.430 11.52 11.600 11.660 11.380 11.230 11.240 11.190 11.210 13.614 13.310 0.300 13.488 13.328 0.162
PRIMET_226 2020-09-29 23:10:00 226 3904.0 0.00 0 0.000 0.000     11.270 11.310 11.62 11.660 11.730 11.490 97.700 98.800 0.000 11.67 11.720 11.780 11.540 11.57 11.600 11.680 11.430 11.320 11.370 11.210 11.250 13.677 13.364 0.315 13.560 13.399 0.163
PRIMET_226 2020-09-29 23:05:00 226 3904.0 0.00 0 0.000 0.000     11.350 11.380 11.70 11.760 11.820 11.560 97.700 98.800 0.000 11.73 11.780 11.850 11.590 11.66 11.720 11.790 11.530 11.390 11.410 11.320 11.360 13.749 13.435 0.316 13.623 13.461 0.163
PRIMET_226 2020-09-29 23:00:00 226 3904.0 0.00 0 0.000 0.000     11.390 11.400 11.75 11.790 11.870 11.590 97.700 98.800 0.000 11.76 11.800 11.890 11.610 11.73 11.770 11.840 11.580 11.410 11.420 11.370 11.390 13.795 13.470 0.317 13.650 13.479 0.164
PRIMET_226 2020-09-29 22:55:00 226 3904.0 0.00 0 0.000 0.000     11.420 11.430 11.80 11.830 11.880 11.640 97.600 98.600 0.000 11.84 11.870 11.920 11.680 11.76 11.790 11.850 11.610 11.480 11.470 11.380 11.400 13.841 13.497 0.332 13.695 13.506 0.192
PRIMET_226 2020-09-29 22:50:00 226 3904.0 0.00 0 0.000 0.000     11.490 11.510 11.87 11.910 11.960 11.720 97.600 98.600 0.000 11.91 11.960 12.010 11.760 11.84 11.870 11.930 11.680 11.530 11.550 11.470 11.470 13.905 13.560 0.334 13.768 13.578 0.193
PRIMET_226 2020-09-29 22:45:00 226 3904.0 0.00 0 0.000 0.000     11.550 11.580 11.93 11.990 12.050 11.790 97.500 98.600 0.000 11.97 12.000 12.070 11.820 11.90 11.960 12.020 11.750 11.590 11.610 11.520 11.540 13.960 13.614 0.349 13.831 13.641 0.194
PRIMET_226 2020-09-29 22:40:00 226 3904.0 0.00 0 0.000 0.000     11.610 11.630 11.99 12.030 12.100 11.860 97.500 98.500 0.000 12.03 12.080 12.150 11.890 11.96 12.000 12.060 11.820 11.640 11.660 11.580 11.600 14.015 13.668 0.350 13.896 13.686 0.208
PRIMET_226 2020-09-29 22:35:00 226 3904.0 0.00 0 0.000 0.000     11.670 11.700 12.07 12.130 12.200 11.930 97.400 98.500 0.000 12.12 12.170 12.240 11.970 12.03 12.090 12.150 11.900 11.720 11.740 11.640 11.670 14.089 13.722 0.366 13.960 13.749 0.209
PRIMET_226 2020-09-29 22:30:00 226 3904.0 0.00 0 0.000 0.000     11.750 11.760 12.15 12.200 12.260 12.010 97.400 98.400 0.000 12.17 12.230 12.290 12.050 12.12 12.170 12.240 11.980 11.760 11.790 11.730 11.750 14.164 13.795 0.368 14.034 13.804 0.225
PRIMET_226 2020-09-29 22:25:00 226 3904.0 0.00 0 0.000 0.000     11.810 11.830 12.22 12.280 12.330 12.090 97.300 98.300 0.000 12.26 12.340 12.390 12.150 12.18 12.220 12.290 12.050 11.840 11.890 11.770 11.780 14.229 13.850 0.384 14.108 13.868 0.240
PRIMET_226 2020-09-29 22:20:00 226 3904.0 0.00 0 0.000 0.000     11.880 11.930 12.29 12.390 12.440 12.180 97.400 98.400 0.000 12.32 12.430 12.490 12.210 12.25 12.340 12.400 12.130 11.920 11.960 11.840 11.870 14.295 13.914 0.372 14.192 13.960 0.227
PRIMET_226 2020-09-29 22:15:00 226 3904.0 0.00 0 0.000 0.000     11.900 11.950 12.32 12.410 12.470 12.210 97.300 98.300 0.000 12.35 12.440 12.500 12.260 12.29 12.400 12.460 12.190 11.930 11.990 11.880 11.920 14.323 13.932 0.387 14.220 13.978 0.242
PRIMET_226 2020-09-29 22:10:00 226 3904.0 0.00 0 0.000 0.000     11.960 12.000 12.38 12.450 12.530 12.280 97.300 98.200 0.000 12.40 12.460 12.560 12.310 12.35 12.440 12.510 12.240 11.980 12.030 11.940 11.970 14.380 13.988 0.388 14.286 14.025 0.257
PRIMET_226 2020-09-29 22:05:00 226 3904.0 0.00 0 0.000 0.000     12.000 12.050 12.44 12.480 12.580 12.340 97.200 98.100 0.000 12.48 12.530 12.620 12.380 12.40 12.450 12.540 12.300 12.040 12.070 11.970 12.020 14.437 14.025 0.404 14.342 14.071 0.272
PRIMET_226 2020-09-29 22:00:00 226 3904.0 0.00 0 0.000 0.000     12.080 12.120 12.53 12.590 12.670 12.420 97.100 98.000 0.000 12.56 12.630 12.720 12.470 12.48 12.530 12.620 12.380 12.110 12.170 12.040 12.070 14.522 14.099 0.421 14.418 14.136 0.288
PRIMET_226 2020-09-29 21:55:00 226 3904.0 0.00 0 0.000 0.000     12.160 12.210 12.62 12.690 12.770 12.510 97.000 98.000 0.000 12.66 12.730 12.810 12.540 12.57 12.640 12.720 12.460 12.200 12.230 12.120 12.160 14.608 14.173 0.438 14.503 14.220 0.290
PRIMET_226 2020-09-29 21:50:00 226 3904.0 0.00 0 0.000 0.000     12.220 12.240 12.69 12.780 12.840 12.560 97.000 97.900 0.000 12.73 12.810 12.860 12.600 12.65 12.730 12.810 12.540 12.260 12.260 12.190 12.210 14.675 14.229 0.440 14.551 14.248 0.306
PRIMET_226 2020-09-29 21:45:00 226 3904.0 0.00 0 0.000 0.000     12.270 12.280 12.76 12.840 12.900 12.630 96.800 97.700 0.000 12.80 12.880 12.940 12.670 12.72 12.790 12.860 12.590 12.300 12.330 12.230 12.240 14.743 14.276 0.472 14.618 14.286 0.336
PRIMET_226 2020-09-29 21:40:00 226 3904.0 0.00 0 0.000 0.000     12.350 12.370 12.84 12.930 12.990 12.720 96.800 97.700 0.000 12.87 12.960 13.020 12.770 12.80 12.890 12.950 12.690 12.370 12.410 12.310 12.340 14.820 14.351 0.474 14.704 14.370 0.338
PRIMET_226 2020-09-29 21:35:00 226 3904.0 0.00 0 0.037 0.037 43.840 0.000 12.410 12.440 12.91 13.010 13.070 12.800 96.800 97.700 0.255 12.95 13.060 13.120 12.840 12.86 12.960 13.020 12.750 12.470 12.490 12.350 12.390 14.889 14.408 0.476 14.782 14.437 0.340
PRIMET_226 2020-09-29 21:30:00 226 3904.0 0.00 0 0.000 0.000     12.470 12.500 12.97 13.080 13.130 12.860 96.800 97.600 0.000 13.00 13.100 13.150 12.900 12.94 13.060 13.110 12.820 12.490 12.530 12.450 12.460 14.947 14.465 0.478 14.840 14.494 0.356
PRIMET_226 2020-09-29 21:25:00 226 3904.0 0.00 0 0.000 0.000     12.520 12.580 13.04 13.160 13.210 12.950 96.700 97.600 0.000 13.09 13.210 13.270 12.990 12.99 13.110 13.160 12.900 12.580 12.640 12.480 12.530 15.016 14.513 0.496 14.928 14.570 0.358
PRIMET_226 2020-09-29 21:20:00 226 3904.0 0.00 0 0.000 0.000     12.590 12.640 13.11 13.220 13.280 13.010 96.700 97.600 0.000 13.15 13.240 13.300 13.040 13.08 13.210 13.260 12.980 12.630 12.670 12.560 12.620 15.085 14.579 0.498 14.986 14.627 0.360
PRIMET_226 2020-09-29 21:15:00 226 3904.0 0.00 0 0.000 0.000     12.650 12.710 13.19 13.290 13.350 13.090 96.600 97.500 0.000 13.23 13.330 13.390 13.140 13.14 13.240 13.300 13.060 12.680 12.740 12.620 12.680 15.164 14.637 0.516 15.065 14.695 0.377
PRIMET_226 2020-09-29 21:10:00 226 3904.0 0.00 0 0.000 0.000     12.720 12.760 13.28 13.370 13.430 13.180 96.400 97.300 0.000 13.33 13.410 13.460 13.240 13.23 13.330 13.400 13.130 12.760 12.810 12.690 12.730 15.253 14.704 0.549 15.154 14.743 0.409
PRIMET_226 2020-09-29 21:05:00 226 3904.0 0.00 0 0.000 0.000     12.840 12.880 13.39 13.480 13.550 13.280 96.500 97.400 0.000 13.44 13.540 13.600 13.310 13.34 13.410 13.470 13.230 12.910 12.910 12.770 12.810 15.363 14.820 0.538 15.253 14.859 0.397
PRIMET_226 2020-09-29 21:00:00 226 3904.0 0.00 0 0.000 0.000     12.890 12.910 13.44 13.530 13.590 13.320 96.500 97.400 0.000 13.48 13.550 13.610 13.350 13.42 13.520 13.570 13.300 12.920 12.940 12.870 12.880 15.413 14.869 0.539 15.293 14.889 0.398
PRIMET_226 2020-09-29 20:55:00 226 3904.0 0.00 0 0.000 0.000     12.970 12.980 13.52 13.610 13.660 13.400 96.500 97.300 0.000 13.55 13.660 13.700 13.420 13.48 13.560 13.610 13.350 13.000 13.000 12.930 12.940 15.494 14.947 0.542 15.373 14.957 0.415
PRIMET_226 2020-09-29 20:50:00 226 3904.0 0.00 0 0.000 0.000     13.020 13.040 13.58 13.700 13.750 13.470 96.400 97.200 0.000 13.61 13.740 13.790 13.510 13.55 13.660 13.700 13.420 13.040 13.070 12.990 12.990 15.554 14.996 0.560 15.443 15.016 0.432
PRIMET_226 2020-09-29 20:45:00 226 3904.0 0.00 0 0.000 0.000     13.070 13.120 13.66 13.780 13.830 13.560 96.200 97.100 0.000 13.72 13.820 13.870 13.610 13.61 13.750 13.790 13.520 13.100 13.150 13.030 13.080 15.635 15.045 0.594 15.534 15.094 0.450
PRIMET_226 2020-09-29 20:40:00 226 3904.0 0.00 0 0.000 0.000     13.150 13.170 13.77 13.870 13.920 13.650 96.000 96.900 0.000 13.81 13.890 13.940 13.690 13.70 13.820 13.880 13.610 13.190 13.180 13.080 13.150 15.748 15.124 0.630 15.625 15.144 0.484
PRIMET_226 2020-09-29 20:35:00 226 3904.0 0.00 0 0.000 0.000     13.230 13.220 13.86 13.950 13.990 13.730 96.000 96.700 0.000 13.92 14.010 14.050 13.790 13.82 13.910 13.940 13.690 13.290 13.280 13.190 13.160 15.840 15.203 0.634 15.707 15.193 0.518
PRIMET_226 2020-09-29 20:30:00 226 3904.0 0.00 0 0.000 0.000     13.320 13.300 13.95 14.050 14.090 13.830 96.000 96.600 0.000 13.99 14.090 14.140 13.860 13.91 14.000 14.050 13.780 13.350 13.340 13.270 13.270 15.933 15.293 0.637 15.809 15.273 0.538
PRIMET_226 2020-09-29 20:25:00 226 3904.0 0.00 0 0.000 0.000     13.390 13.380 14.03 14.130 14.180 13.920 95.900 96.500 0.000 14.07 14.160 14.220 13.960 13.99 14.090 14.140 13.870 13.420 13.420 13.350 13.330 16.016 15.363 0.657 15.902 15.353 0.557
PRIMET_226 2020-09-29 20:20:00 226 3904.0 0.00 0 0.000 0.000     13.450 13.430 14.12 14.220 14.270 14.010 95.700 96.300 0.000 14.17 14.260 14.310 14.070 14.08 14.170 14.220 13.960 13.490 13.470 13.420 13.380 16.110 15.423 0.693 15.995 15.403 0.592
PRIMET_226 2020-09-29 20:15:00 226 3904.0 0.00 0 0.000 0.000     13.530 13.510 14.21 14.320 14.370 14.110 95.600 96.100 0.000 14.26 14.370 14.410 14.160 14.16 14.260 14.310 14.050 13.570 13.540 13.470 13.460 16.204 15.504 0.713 16.099 15.483 0.628
PRIMET_226 2020-09-29 20:10:00 226 3904.0 0.00 0 0.000 0.000     13.610 13.610 14.29 14.420 14.470 14.220 95.600 96.200 0.000 14.32 14.470 14.520 14.260 14.26 14.370 14.420 14.170 13.630 13.680 13.570 13.550 16.288 15.585 0.717 16.214 15.585 0.616
PRIMET_226 2020-09-29 20:05:00 226 3904.0 0.00 0 0.000 0.000     13.660 13.690 14.37 14.490 14.550 14.300 95.500 96.100 0.000 14.43 14.540 14.610 14.360 14.31 14.450 14.500 14.260 13.730 13.750 13.610 13.660 16.372 15.635 0.737 16.298 15.666 0.636
PRIMET_226 2020-09-29 20:00:00 226 3904.0 0.00 0 0.000 0.000     13.740 13.750 14.46 14.570 14.630 14.390 95.500 95.900 0.000 14.50 14.610 14.670 14.440 14.42 14.540 14.600 14.350 13.770 13.780 13.720 13.730 16.468 15.717 0.741 16.394 15.727 0.672
PRIMET_226 2020-09-29 19:55:00 226 3904.0 0.00 0 0.000 0.000     13.820 13.820 14.56 14.670 14.730 14.500 95.300 95.700 0.000 14.60 14.730 14.800 14.560 14.50 14.620 14.680 14.440 13.860 13.880 13.770 13.770 16.575 15.799 0.779 16.511 15.799 0.710
PRIMET_226 2020-09-29 19:50:00 226 3904.0 0.00 0 0.000 0.000     13.930 13.950 14.67 14.780 14.860 14.610 95.300 95.800 0.000 14.70 14.830 14.890 14.640 14.60 14.730 14.800 14.550 13.990 13.980 13.860 13.870 16.693 15.912 0.785 16.628 15.933 0.698
PRIMET_226 2020-09-29 19:45:00 226 3904.0 0.00 0 0.000 0.000     14.010 14.000 14.72 14.860 14.910 14.660 95.500 95.800 0.000 14.77 14.910 14.950 14.690 14.68 14.820 14.890 14.630 14.070 14.030 13.970 13.970 16.747 15.995 0.754 16.682 15.985 0.701
PRIMET_226 2020-09-29 19:40:00 226 3904.0 0.00 0 0.070 0.070 43.890 0.000 14.060 14.070 14.80 14.940 15.000 14.750 95.300 95.700 0.346 14.85 14.990 15.040 14.800 14.76 14.910 14.960 14.700 14.080 14.130 14.040 14.020 16.834 16.047 0.791 16.779 16.057 0.722
PRIMET_226 2020-09-29 19:35:00 226 3904.0 0.00 0 0.000 0.000     14.140 14.170 14.91 15.050 15.100 14.860 95.100 95.700 0.000 14.96 15.100 15.150 14.920 14.85 15.000 15.050 14.800 14.180 14.210 14.080 14.120 16.953 16.130 0.831 16.899 16.162 0.727
PRIMET_226 2020-09-29 19:30:00 226 3904.0 0.00 0 0.000 0.000     14.210 14.210 15.00 15.130 15.180 14.930 95.000 95.500 0.000 15.04 15.180 15.220 14.970 14.96 15.110 15.150 14.890 14.240 14.240 14.180 14.190 17.052 16.204 0.853 16.975 16.204 0.764
PRIMET_226 2020-09-29 19:25:00 226 3904.0 0.00 0 0.000 0.000     14.300 14.310 15.10 15.230 15.280 15.020 95.000 95.500 0.000 15.15 15.270 15.340 15.070 15.04 15.170 15.220 14.980 14.350 14.360 14.230 14.250 17.162 16.298 0.858 17.074 16.309 0.768
PRIMET_226 2020-09-29 19:20:00 226 3904.0 0.00 0 0.035 0.035 43.870 0.000 14.390 14.380 15.19 15.320 15.370 15.120 95.000 95.300 0.399 15.23 15.380 15.440 15.170 15.14 15.270 15.320 15.060 14.450 14.430 14.340 14.330 17.262 16.394 0.863 17.184 16.383 0.808
PRIMET_226 2020-09-29 19:15:00 226 3904.0 0.00 0 0.000 0.000     14.450 14.420 15.26 15.400 15.460 15.200 94.900 95.100 0.000 15.33 15.450 15.510 15.260 15.22 15.380 15.430 15.160 14.480 14.470 14.420 14.410 17.339 16.457 0.884 17.273 16.426 0.846
PRIMET_226 2020-09-29 19:10:00 226 3904.0 0.00 0 0.051 0.051 43.900 0.000 14.530 14.530 15.36 15.500 15.560 15.300 94.800 95.200 0.379 15.39 15.550 15.600 15.350 15.32 15.460 15.510 15.260 14.570 14.600 14.470 14.460 17.451 16.543 0.907 17.384 16.543 0.834
PRIMET_226 2020-09-29 19:05:00 226 3904.0 0.00 0 0.000 0.000     14.620 14.620 15.44 15.590 15.640 15.390 94.800 95.200 0.000 15.50 15.640 15.670 15.440 15.39 15.550 15.600 15.350 14.680 14.650 14.560 14.590 17.541 16.639 0.912 17.485 16.639 0.839
PRIMET_226 2020-09-29 19:00:00 226 3904.0 0.00 0 0.000 0.000     14.690 14.680 15.54 15.680 15.720 15.490 94.700 94.900 0.000 15.60 15.720 15.770 15.560 15.49 15.640 15.680 15.440 14.730 14.750 14.660 14.640 17.654 16.715 0.936 17.597 16.704 0.897
PRIMET_226 2020-09-29 18:55:00 226 3904.0 0.00 431 0.041 0.041 43.860 0.000 14.780 14.760 15.65 15.780 15.840 15.610 94.500 94.700 0.353 15.71 15.850 15.890 15.660 15.60 15.730 15.790 15.560 14.810 14.790 14.740 14.740 17.779 16.812 0.978 17.733 16.790 0.940
PRIMET_226 2020-09-29 18:50:00 226 3904.0 0.00 350 0.000 0.000     14.860 14.830 15.77 15.910 15.960 15.720 94.300 94.500 0.000 15.83 15.970 16.020 15.780 15.72 15.840 15.890 15.660 14.910 14.900 14.810 14.770 17.916 16.899 1.021 17.859 16.866 0.982
PRIMET_226 2020-09-29 18:45:00 226 3904.0 0.00 421 0.000 0.000     14.960 14.940 15.89 16.030 16.090 15.850 94.200 94.300 0.000 15.93 16.070 16.140 15.900 15.84 15.980 16.030 15.790 15.000 14.980 14.910 14.900 18.054 17.008 1.047 18.008 16.986 1.026
PRIMET_226 2020-09-29 18:40:00 226 3904.0 0.00 425 0.127 0.127 44.000 0.017 15.030 15.040 16.00 16.140 16.190 15.950 94.000 94.300 0.536 16.05 16.190 16.240 16.000 15.95 16.080 16.150 15.890 15.080 15.090 15.000 14.960 18.181 17.085 1.091 18.123 17.096 1.033
PRIMET_226 2020-09-29 18:35:00 226 3904.0 0.00 374 0.000 0.000     15.140 15.160 16.11 16.240 16.290 16.060 94.000 94.400 0.000 16.17 16.300 16.360 16.110 16.05 16.190 16.250 16.010 15.190 15.200 15.080 15.100 18.309 17.206 1.099 18.251 17.228 1.022
PRIMET_226 2020-09-29 18:30:00 226 3904.0 0.00 309 0.000 0.000     15.250 15.250 16.23 16.370 16.420 16.180 93.900 94.200 0.000 16.27 16.420 16.460 16.230 16.17 16.310 16.360 16.130 15.290 15.270 15.180 15.220 18.450 17.328 1.125 18.391 17.328 1.067
PRIMET_226 2020-09-29 18:25:00 226 3904.0 0.00 319 0.002 0.002 43.890 0.000 15.330 15.310 16.32 16.470 16.520 16.280 93.900 94.000 0.046 16.37 16.500 16.560 16.320 16.27 16.420 16.470 16.230 15.360 15.340 15.280 15.260 18.556 17.418 1.132 18.509 17.395 1.111
PRIMET_226 2020-09-29 18:20:00 226 3904.0 0.00 337 0.077 0.077 43.970 0.000 15.400 15.390 16.44 16.570 16.620 16.400 93.500 93.700 0.451 16.52 16.640 16.680 16.460 16.37 16.510 16.560 16.330 15.470 15.440 15.330 15.330 18.698 17.496 1.215 18.651 17.485 1.175
PRIMET_226 2020-09-29 18:15:00 226 3904.0 0.00 338 0.000 0.000     15.500 15.480 16.56 16.690 16.730 16.520 93.500 93.500 0.000 16.62 16.740 16.790 16.590 16.51 16.650 16.680 16.470 15.550 15.550 15.460 15.420 18.842 17.609 1.225 18.794 17.586 1.222
PRIMET_226 2020-09-29 18:10:00 226 3904.0 0.00 448 0.000 0.000     15.580 15.580 16.70 16.820 16.870 16.670 93.100 93.300 0.000 16.78 16.900 16.950 16.750 16.62 16.750 16.790 16.590 15.640 15.640 15.540 15.540 19.010 17.699 1.312 18.974 17.699 1.271
PRIMET_226 2020-09-29 18:05:00 226 3904.0 0.00 281 0.000 0.000     15.690 15.690 16.83 16.960 17.010 16.820 93.000 93.100 0.000 16.88 17.010 17.070 16.880 16.77 16.900 16.960 16.760 15.720 15.750 15.640 15.640 19.168 17.824 1.342 19.155 17.824 1.322
PRIMET_226 2020-09-29 18:00:00 226 3904.0 0.00 407 0.000 0.000     15.770 15.770 16.97 17.090 17.140 16.950 92.700 92.800 0.000 17.04 17.170 17.230 17.030 16.87 17.020 17.070 16.870 15.820 15.810 15.700 15.730 19.339 17.916 1.412 19.314 17.916 1.391
PRIMET_226 2020-09-29 17:55:00 226 3904.0 0.00 327 0.000 0.000     15.850 15.860 17.12 17.250 17.310 17.120 92.200 92.300 0.000 17.20 17.330 17.380 17.190 17.05 17.180 17.240 17.040 15.910 15.910 15.810 15.810 19.523 18.008 1.523 19.523 18.019 1.503
PRIMET_226 2020-09-29 17:50:00 226 3904.0 0.00 371 0.092 0.092 43.920 0.000 15.970 15.970 17.28 17.400 17.460 17.280 92.000 92.000 0.575 17.36 17.480 17.530 17.360 17.22 17.340 17.390 17.190 16.000 16.000 15.920 15.910 19.722 18.146 1.578 19.722 18.146 1.578
PRIMET_226 2020-09-29 17:45:00 226 3904.0 0.00 324 0.105 0.105 43.970 0.072 16.090 16.070 17.44 17.550 17.610 17.430 91.800 91.700 0.503 17.50 17.620 17.680 17.490 17.37 17.480 17.550 17.360 16.170 16.150 16.000 15.990 19.922 18.286 1.634 19.910 18.263 1.653
PRIMET_226 2020-09-29 17:40:00 226 3904.0 0.00 352 0.000 0.000     16.180 16.180 17.58 17.680 17.740 17.580 91.500 91.500 0.000 17.68 17.780 17.830 17.670 17.49 17.620 17.680 17.510 16.240 16.230 16.130 16.140 20.099 18.391 1.708 20.099 18.391 1.708
PRIMET_226 2020-09-29 17:35:00 226 3904.0 0.00 380 0.000 0.000     16.290 16.290 17.78 17.880 17.930 17.770 91.000 91.100 0.000 17.90 17.980 18.030 17.860 17.69 17.800 17.840 17.670 16.370 16.360 16.260 16.220 20.354 18.521 1.832 20.341 18.521 1.810
PRIMET_226 2020-09-29 17:30:00 226 3904.0 0.00 346 0.000 0.000     16.430 16.420 17.96 18.060 18.110 17.940 90.800 90.900 0.000 18.03 18.110 18.170 18.000 17.89 18.000 18.030 17.860 16.490 16.470 16.360 16.350 20.586 18.686 1.894 20.560 18.675 1.871
PRIMET_226 2020-09-29 17:25:00 226 3904.0 0.00 304 0.081 0.081 44.430 0.292 16.520 16.530 18.12 18.200 18.250 18.080 90.400 90.600 0.568 18.19 18.280 18.340 18.170 18.02 18.120 18.180 18.000 16.610 16.590 16.430 16.450 20.794 18.794 1.996 20.742 18.806 1.950
PRIMET_226 2020-09-29 17:20:00 226 3904.0 0.00 364 0.000 0.000     16.660 16.630 18.27 18.350 18.420 18.240 90.300 90.300 0.000 18.32 18.410 18.480 18.310 18.20 18.270 18.340 18.170 16.690 16.680 16.610 16.580 20.991 18.962 2.036 20.951 18.926 2.032
PRIMET_226 2020-09-29 17:15:00 226 3904.0 0.00 306 0.000 0.000     16.770 16.730 18.35 18.450 18.540 18.370 90.500 90.200 0.000 18.38 18.480 18.570 18.430 18.32 18.410 18.480 18.310 16.810 16.790 16.700 16.670 21.096 19.095 2.004 21.123 19.046 2.070
PRIMET_226 2020-09-29 17:10:00 226 3904.0 0.00 392 0.000 0.000     16.830 16.840 18.47 18.550 18.650 18.520 90.200 90.000 0.007 18.58 18.650 18.740 18.600 18.38 18.470 18.580 18.430 16.880 16.890 16.780 16.780 21.256 19.168 2.083 21.322 19.180 2.132
PRIMET_226 2020-09-29 17:05:00 226 3904.0 0.00 348 0.000 0.000     16.960 16.940 18.64 18.740 18.810 18.680 90.000 89.600 0.000 18.71 18.820 18.890 18.750 18.59 18.670 18.740 18.610 17.010 16.990 16.890 16.890 21.483 19.326 2.148 21.537 19.302 2.240
PRIMET_226 2020-09-29 17:00:00 226 3904.0 0.00 309 0.000 0.000     17.010 17.030 18.80 18.890 18.970 18.850 89.300 89.200 0.000 18.90 19.000 19.070 18.920 18.71 18.810 18.890 18.760 17.090 17.070 16.970 16.980 21.699 19.388 2.322 21.767 19.412 2.351
PRIMET_226 2020-09-29 16:55:00 226 3904.0 0.00 341 0.000 0.000     17.090 17.090 19.02 19.090 19.150 19.010 88.600 88.600 0.000 19.12 19.200 19.230 19.080 18.91 19.010 19.060 18.930 17.140 17.120 17.050 17.060 21.999 19.486 2.508 21.985 19.486 2.506
PRIMET_226 2020-09-29 16:50:00 226 3904.0 0.00 343 0.000 0.000     17.190 17.140 19.20 19.270 19.310 19.170 88.100 88.000 0.000 19.27 19.340 19.380 19.260 19.13 19.210 19.240 19.090 17.270 17.210 17.140 17.090 22.247 19.610 2.647 22.206 19.548 2.665
PRIMET_226 2020-09-29 16:45:00 226 3904.0 0.00 272 0.000 0.000     17.260 17.240 19.38 19.450 19.490 19.380 87.500 87.500 0.000 19.47 19.550 19.590 19.480 19.29 19.350 19.380 19.280 17.290 17.270 17.230 17.210 22.498 19.697 2.812 22.498 19.672 2.812
PRIMET_226 2020-09-29 16:40:00 226 3904.0 0.00 267 0.000 0.000     17.320 17.280 19.56 19.650 19.680 19.550 86.900 86.800 0.000 19.66 19.730 19.760 19.630 19.47 19.570 19.610 19.490 17.370 17.330 17.220 17.210 22.751 19.772 2.980 22.737 19.722 3.001
PRIMET_226 2020-09-29 16:35:00 226 3904.0 0.00 280 0.000 0.000     17.310 17.270 19.76 19.820 19.870 19.750 85.800 85.600 0.000 19.86 19.930 19.960 19.860 19.66 19.730 19.770 19.640 17.380 17.330 17.220 17.180 23.035 19.759 3.271 23.021 19.709 3.315
PRIMET_226 2020-09-29 16:30:00 226 3904.0 0.00 251 0.000 0.000     17.440 17.340 19.97 20.030 20.070 19.980 85.300 84.800 0.000 20.05 20.100 20.160 20.050 19.87 19.940 19.970 19.870 17.470 17.390 17.400 17.280 23.337 19.922 3.431 23.351 19.797 3.549
PRIMET_226 2020-09-29 16:25:00 226 3904.0 0.00 244 0.000 0.000     17.440 17.370 20.13 20.190 20.250 20.180 84.500 83.900 0.000 20.21 20.270 20.340 20.300 20.06 20.110 20.160 20.080 17.530 17.490 17.360 17.290 23.569 19.922 3.653 23.642 19.834 3.806
PRIMET_226 2020-09-29 16:20:00 226 3904.0 0.00 240 0.026 0.026 42.100 0.000 17.390 17.350 20.35 20.390 20.480 20.450 83.200 82.400 0.314 20.46 20.550 20.610 20.570 20.22 20.270 20.360 20.320 17.510 17.490 17.290 17.270 23.892 19.859 4.014 24.039 19.809 4.231
PRIMET_226 2020-09-29 16:15:00 226 3904.0 0.00 242 0.000 0.000     17.360 17.300 20.52 20.580 20.700 20.680 82.100 81.000 0.000 20.56 20.600 20.780 20.800 20.47 20.530 20.610 20.580 17.600 17.510 17.030 16.950 24.143 19.822 4.322 24.383 19.747 4.633
PRIMET_226 2020-09-29 16:10:00 226 3904.0 0.00 235 0.000 0.000     17.210 17.100 20.71 20.790 20.930 20.920 80.400 78.770 0.000 20.77 20.880 21.030 21.060 20.56 20.610 20.790 20.810 17.540 17.500 16.880 16.700 24.428 19.635 4.788 24.745 19.498 5.253
PRIMET_226 2020-09-29 16:05:00 226 3904.0 0.00 240 0.000 0.000     16.840 16.770 20.87 20.930 21.130 21.150 77.770 76.060 0.000 21.01 21.080 21.260 21.260 20.77 20.870 21.050 21.040 17.270 17.370 16.630 16.550 24.669 19.180 5.484 25.097 19.095 6.008
PRIMET_226 2020-09-29 16:00:00 226 3904.0 0.00 242 0.037 0.037 63.070 0.028 16.940 17.090 21.03 21.150 21.350 21.380 77.470 76.550 0.346 21.05 21.180 21.400 21.500 21.00 21.100 21.270 21.260 17.120 17.250 16.680 16.850 24.913 19.302 5.613 25.454 19.486 5.969
PRIMET_226 2020-09-29 15:55:00 226 3904.0 0.00 243 0.000 0.000     16.850 16.810 21.19 21.300 21.570 21.630 76.310 74.100 0.000 21.28 21.450 21.710 21.760 21.03 21.120 21.410 21.500 17.140 17.310 16.590 16.310 25.159 19.192 5.960 25.846 19.143 6.694
PRIMET_226 2020-09-29 15:50:00 226 3904.0 0.00 251 0.000 0.000     16.530 16.580 21.35 21.520 21.840 21.880 73.990 71.900 0.000 21.53 21.690 21.960 22.000 21.25 21.440 21.730 21.770 16.810 16.930 16.250 16.430 25.407 18.806 6.608 26.243 18.866 7.374
PRIMET_226 2020-09-29 15:45:00 226 3904.0 0.00 238 0.000 0.000     16.710 16.620 21.67 21.830 22.070 22.100 73.440 71.100 0.000 21.75 21.920 22.170 22.210 21.55 21.700 21.980 22.010 16.820 16.900 16.660 16.010 25.909 19.022 6.881 26.598 18.914 7.687
PRIMET_226 2020-09-29 15:40:00 226 3904.0 0.00 238 0.000 0.000     16.680 16.940 21.86 22.000 22.310 22.390 72.470 71.320 0.000 22.01 22.210 22.460 22.530 21.75 21.910 22.190 22.220 17.000 17.090 16.270 16.670 26.211 18.986 7.216 27.071 19.302 7.764
PRIMET_226 2020-09-29 15:35:00 226 3904.0 0.00 240 0.000 0.000     16.520 16.670 22.01 22.220 22.580 22.680 71.060 68.910 0.000 22.17 22.300 22.730 22.880 21.97 22.180 22.480 22.530 16.880 16.890 16.010 16.120 26.452 18.794 7.655 27.552 18.974 8.566
PRIMET_226 2020-09-29 15:30:00 226 3904.0 0.00 240 0.000 0.000     16.790 17.250 22.51 22.680 23.130 23.170 70.110 69.380 0.000 22.83 23.040 23.460 23.380 22.18 22.330 22.750 22.890 16.930 17.410 16.280 16.830 27.269 19.119 8.151 28.381 19.684 8.690
PRIMET_226 2020-09-29 15:25:00 226 3904.0 0.00 236 0.050 0.050 70.880 1.751 16.740 16.950 23.03 23.370 23.800 23.580 67.780 66.390 0.431 23.37 23.690 23.990 23.880 22.84 23.100 23.510 23.380 17.250 17.310 16.140 16.600 28.142 19.058 9.067 29.092 19.314 9.778
PRIMET_226 2020-09-29 15:20:00 226 3904.0 0.00 262 0.158 0.155 52.760 6.602 17.080 17.020 23.58 24.080 24.280 24.180 66.960 64.310 0.601 23.70 24.200 24.390 24.340 23.42 23.750 24.050 23.930 17.340 17.160 16.650 16.760 29.092 19.474 9.612 30.159 19.400 10.764
PRIMET_226 2020-09-29 15:15:00 226 3904.0 0.00 247 0.001 0.001 63.990 0.015 17.000 17.350 24.13 24.340 24.540 24.560 64.410 64.220 0.013 24.36 24.620 24.720 24.690 23.74 23.970 24.290 24.360 17.540 17.500 16.350 17.150 30.069 19.375 10.702 30.853 19.809 11.039
PRIMET_226 2020-09-29 15:10:00 226 3904.0 0.00 302 0.182 0.182 42.750 3.682 16.640 16.920 24.22 24.410 24.670 24.700 62.660 61.970 0.516 24.50 24.630 24.790 24.860 24.12 24.290 24.530 24.620 17.360 17.460 15.790 16.010 30.232 18.938 11.289 31.112 19.277 11.832
PRIMET_226 2020-09-29 15:05:00 226 3904.0 0.00 256 0.261 0.253 40.220 11.290 17.040 16.940 24.96 25.090 25.020 25.080 61.480 60.710 0.595 25.13 25.340 25.170 25.170 24.54 24.670 24.780 24.870 17.530 17.540 16.070 15.790 31.598 19.425 12.172 31.825 19.302 12.504
PRIMET_226 2020-09-29 15:00:00 226 3904.0 0.00 262 0.130 0.130 55.350 2.536 17.100 17.380 25.52 25.220 25.110 25.260 59.690 61.720 0.451 25.97 25.360 25.220 25.300 25.08 25.130 24.990 25.170 17.340 17.520 16.890 17.260 32.668 19.498 13.169 32.168 19.847 12.314
PRIMET_226 2020-09-29 14:55:00 226 3904.0 0.00 217 0.096 0.095 39.280 2.566 17.050 17.200 26.92 25.860 25.470 25.670 54.830 59.590 0.457 27.85 26.150 25.650 25.800 26.10 25.360 25.100 25.330 17.540 17.710 16.250 15.600 35.482 19.437 16.027 32.960 19.622 13.319
PRIMET_226 2020-09-29 14:50:00 226 3904.0 0.00 289 0.238 0.235 52.200 7.993 17.410 17.420 30.17 25.870 25.460 25.580 46.660 60.700 0.653 33.65 26.050 25.600 25.690 28.00 25.600 25.310 25.460 17.910 17.530 16.580 17.160 42.840 19.885 22.851 32.785 19.897 12.884
PRIMET_226 2020-09-29 14:45:00 226 3904.0 0.00 308 0.035 0.035 19.130 0.029 16.450 16.610 35.39 25.990 25.620 25.850 32.650 56.810 0.379 36.38 26.170 25.830 26.090 34.25 25.580 25.280 25.480 17.780 17.390 14.440 14.980 57.441 18.710 38.686 33.313 18.902 14.388
PRIMET_226 2020-09-29 14:40:00 226 3904.0 0.00 310 0.206 0.206 43.340 3.760 17.070 17.150 36.31 26.060 25.810 26.060 32.230 58.010 0.595 36.97 26.340 26.050 26.260 35.26 25.910 25.690 25.960 17.810 17.470 16.410 16.670 60.418 19.461 40.945 33.729 19.560 14.163
PRIMET_226 2020-09-29 14:35:00 226 3904.0 0.00 250 0.165 0.158 40.960 14.020 16.800 16.860 36.45 26.420 26.130 26.340 31.440 56.040 0.438 37.54 26.610 26.320 26.430 35.38 26.320 26.040 26.280 17.700 17.490 15.910 16.180 60.883 19.131 41.741 34.291 19.204 15.074
PRIMET_226 2020-09-29 14:30:00 226 3904.0 0.00 318 0.137 0.133 42.240 10.130 17.160 16.960 37.25 26.700 26.310 26.630 30.810 55.450 0.438 37.90 26.810 26.400 26.720 36.36 26.460 26.180 26.450 18.050 17.700 15.350 15.490 63.597 19.573 44.003 34.882 19.326 15.540
PRIMET_226 2020-09-29 14:25:00 226 3904.0 0.00 300 0.267 0.260 42.840 10.280 16.970 16.850 36.57 26.780 26.390 26.650 31.580 55.000 0.686 37.65 26.990 26.670 26.880 35.51 26.620 26.240 26.480 18.070 17.530 14.810 15.880 61.283 19.339 41.930 34.923 19.192 15.715
PRIMET_226 2020-09-29 14:20:00 226 3904.0 0.00 328 0.183 0.182 48.710 3.153 16.150 16.780 36.29 26.910 26.450 26.700 30.440 54.550 0.621 38.12 27.010 26.680 26.850 35.41 26.800 26.350 26.580 18.130 17.330 15.000 15.910 60.352 18.356 41.981 35.026 19.107 15.919
PRIMET_226 2020-09-29 14:15:00 226 3904.0 0.00 264 0.250 0.240 47.930 14.390 17.190 16.960 37.28 26.980 26.600 26.850 30.800 54.690 0.595 38.01 27.100 26.750 26.950 36.47 26.880 26.350 26.610 18.140 17.460 15.810 16.370 63.701 19.610 44.081 35.336 19.326 16.011
PRIMET_226 2020-09-29 14:10:00 226 3904.0 0.00 260 0.169 0.163 47.470 9.730 17.430 16.760 37.35 26.930 26.610 26.880 31.170 53.940 0.706 37.85 27.030 26.700 26.930 36.72 26.790 26.500 26.840 18.570 17.490 16.040 15.650 63.943 19.910 44.012 35.398 19.083 16.305
PRIMET_226 2020-09-29 14:05:00 226 3904.0 0.00 245 0.166 0.165 34.350 3.874 16.370 16.630 36.20 26.930 26.850 26.990 31.080 53.150 0.660 37.65 27.210 27.110 27.080 34.98 26.670 26.640 26.920 18.280 17.480 14.670 15.600 60.055 18.615 41.390 35.628 18.926 16.692
PRIMET_226 2020-09-29 14:00:00 226 3904.0 0.00 252 0.253 0.243 49.670 13.500 15.940 16.320 36.26 26.740 26.570 26.660 30.080 53.140 0.640 36.72 27.030 26.890 26.910 35.71 26.450 26.230 26.460 17.400 17.560 14.730 14.660 60.253 18.112 42.129 34.944 18.556 16.375
PRIMET_226 2020-09-29 13:55:00 226 3904.0 0.00 255 0.302 0.293 43.240 12.250 16.040 15.830 35.18 26.460 26.240 26.520 32.160 51.950 0.738 36.82 26.660 26.470 26.770 34.17 26.250 26.060 26.390 18.580 17.320 14.800 14.960 56.779 18.228 38.519 34.657 17.985 16.653
PRIMET_226 2020-09-29 13:50:00 226 3904.0 0.00 276 0.265 0.259 50.280 11.010 15.450 15.550 34.79 26.700 26.500 26.690 31.640 50.540 0.693 36.36 27.020 26.790 26.830 33.48 26.360 26.250 26.550 17.970 17.110 14.050 14.610 55.569 17.552 37.987 35.005 17.665 17.314
PRIMET_226 2020-09-29 13:45:00 226 3904.0 0.00 262 0.283 0.280 39.770 7.274 15.580 15.320 31.32 26.210 26.130 26.360 38.900 50.760 0.771 34.60 26.790 26.600 26.640 27.72 25.920 25.840 26.220 17.430 16.790 13.730 14.080 45.744 17.699 27.950 34.332 17.406 16.905
PRIMET_226 2020-09-29 13:40:00 226 3904.0 0.00 226 0.123 0.121 57.900 6.520 15.010 14.740 26.02 26.060 26.110 26.280 50.740 49.090 0.588 27.20 26.170 26.230 26.420 25.87 25.850 25.890 26.160 15.770 15.300 14.190 13.980 33.650 17.063 16.576 34.170 16.769 17.396
PRIMET_226 2020-09-29 13:35:00 226 3904.0 0.00 242 0.265 0.260 35.390 8.390 14.890 14.770 25.97 26.010 25.980 26.270 50.490 49.230 0.928 26.03 26.360 26.250 26.370 25.91 25.810 25.810 26.170 15.700 15.380 13.990 13.640 33.550 16.932 16.611 34.150 16.801 17.338
PRIMET_226 2020-09-29 13:30:00 226 3904.0 0.00 227 0.344 0.337 37.330 10.720 15.280 14.880 25.76 25.950 25.850 26.080 52.420 50.140 0.823 25.90 26.370 26.210 26.210 25.66 25.730 25.640 25.960 16.510 16.210 14.000 13.970 33.136 17.362 15.766 33.769 16.921 16.837
PRIMET_226 2020-09-29 13:25:00 226 3904.0 0.00 240 0.026 0.026 48.000 5.524 15.000 14.800 25.56 25.830 25.830 26.120 52.080 49.730 0.176 25.76 25.970 25.940 26.170 25.40 25.700 25.750 26.090 15.770 15.260 14.130 14.040 32.746 17.052 15.692 33.849 16.834 17.016
PRIMET_226 2020-09-29 13:20:00 226 3904.0 0.00 268 0.367 0.366 59.090 3.807 15.270 13.840 25.33 25.570 25.640 25.960 53.760 47.180 0.647 25.42 25.710 25.810 26.160 25.26 25.460 25.480 25.840 16.070 14.630 14.370 13.260 32.302 17.351 14.936 33.531 15.819 17.711
PRIMET_226 2020-09-29 13:15:00 226 3904.0 0.00 230 0.248 0.245 29.660 7.505 14.840 14.700 25.36 25.560 25.570 25.950 52.190 49.940 0.536 25.50 25.640 25.650 25.990 25.17 25.480 25.470 25.850 15.960 15.410 13.570 13.100 32.359 16.877 15.471 33.511 16.725 16.775
PRIMET_226 2020-09-29 13:10:00 226 3904.0 0.00 325 0.362 0.356 49.050 9.820 15.310 13.180 24.98 25.290 25.410 25.870 55.140 45.510 0.653 25.14 25.540 25.590 25.960 24.90 25.110 25.280 25.800 16.780 14.420 13.290 11.970 31.636 17.395 14.192 33.353 15.154 18.174
PRIMET_226 2020-09-29 13:05:00 226 3904.0 0.00 236 0.585 0.582 45.680 6.162 14.730 13.560 24.87 25.160 25.360 25.830 53.370 46.690 0.830 24.95 25.340 25.480 25.900 24.78 25.060 25.260 25.770 15.590 14.450 13.570 12.740 31.429 16.758 14.655 33.274 15.534 17.738
PRIMET_226 2020-09-29 13:00:00 226 3904.0 0.00 238 0.704 0.700 40.320 6.370 15.060 13.650 24.71 24.970 25.190 25.900 55.030 46.790 0.875 24.76 25.030 25.270 26.230 24.61 24.910 25.150 25.750 15.780 14.620 14.570 12.490 31.131 17.118 13.999 33.412 15.625 17.778
PRIMET_226 2020-09-29 12:55:00 226 3904.0 0.00 256 0.427 0.418 47.810 10.560 15.480 13.710 24.50 24.890 25.470 26.270 57.240 45.960 0.745 24.60 24.970 25.520 26.410 24.45 24.800 25.340 26.050 16.400 14.800 14.580 12.940 30.743 17.586 13.146 34.150 15.686 18.455
PRIMET_226 2020-09-29 12:50:00 226 3904.0 0.00 301 0.373 0.373 61.360 0.557 15.920 13.540 24.54 24.930 25.380 25.800 58.720 46.730 0.581 24.57 25.070 25.400 26.000 24.48 24.790 25.340 25.620 16.500 14.090 15.300 13.100 30.816 18.088 12.721 33.215 15.514 17.693
PRIMET_226 2020-09-29 12:45:00 226 3904.0 0.00 240 0.589 0.588 56.760 3.321 15.860 13.630 24.40 25.010 25.380 25.520 58.960 47.780 0.693 24.51 25.070 25.420 25.620 24.29 24.930 25.340 25.470 16.180 14.650 15.320 12.990 30.559 18.019 12.542 32.668 15.605 17.059
PRIMET_226 2020-09-29 12:40:00 226 3904.0 0.00 297 0.752 0.748 50.610 5.337 15.560 14.020 24.19 24.820 25.370 25.530 58.600 48.980 0.862 24.30 24.920 25.410 25.610 24.07 24.640 25.220 25.450 16.110 14.620 14.890 13.220 30.177 17.676 12.493 32.687 16.005 16.677
PRIMET_226 2020-09-29 12:35:00 226 3904.0 0.00 232 0.370 0.370 62.370 2.752 15.860 14.090 23.91 24.450 24.890 25.220 60.700 50.100 0.536 24.06 24.630 25.210 25.480 23.76 24.200 24.590 24.980 16.480 14.570 15.450 13.530 29.675 18.019 11.662 32.091 16.078 16.013
PRIMET_226 2020-09-29 12:30:00 226 3904.0 0.00 289 0.778 0.774 46.340 6.201 15.440 14.420 23.61 24.140 24.710 25.270 60.200 51.020 0.889 23.75 24.260 25.090 25.590 23.46 24.040 24.510 24.990 16.100 15.020 15.020 13.750 29.144 17.541 11.599 32.187 16.426 15.765
PRIMET_226 2020-09-29 12:25:00 226 3904.0 0.00 249 0.454 0.454 59.270 0.711 16.160 14.480 23.34 24.080 25.020 25.500 64.050 50.560 0.621 23.44 24.250 25.110 25.600 23.26 24.010 24.960 25.370 16.530 14.830 15.700 14.320 28.674 18.368 10.308 32.629 16.489 16.132
PRIMET_226 2020-09-29 12:20:00 226 3904.0 0.00 259 0.431 0.431 59.500 0.659 16.180 14.230 23.08 23.950 24.820 25.130 65.140 50.840 0.542 23.24 24.020 24.960 25.360 22.96 23.850 24.670 24.930 16.760 14.760 15.650 13.810 28.227 18.391 9.840 31.920 16.225 15.692
PRIMET_226 2020-09-29 12:15:00 226 3904.0 0.00 213 0.203 0.203 58.860 0.406 15.820 14.090 22.84 23.790 24.610 24.740 64.610 51.560 0.510 22.95 23.860 24.690 24.930 22.73 23.720 24.550 24.540 16.310 14.500 15.540 13.660 27.820 17.973 9.846 31.187 16.078 15.107
PRIMET_226 2020-09-29 12:10:00 226 3904.0 0.00 258 0.051 0.051 59.160 0.020 15.980 14.370 22.50 23.450 24.300 24.230 66.620 54.150 0.320 22.72 23.710 24.560 24.530 22.35 23.250 24.100 23.900 16.310 14.790 15.610 13.940 27.253 18.158 9.097 30.250 16.372 13.870
PRIMET_226 2020-09-29 12:05:00 226 3904.0 0.00 250 0.101 0.101 58.490 0.379 15.970 14.420 22.30 23.190 24.020 23.720 67.420 56.010 0.301 22.34 23.270 24.090 23.880 22.22 23.060 23.930 23.640 16.150 14.920 15.770 13.930 26.923 18.146 8.772 29.338 16.426 12.906
PRIMET_226 2020-09-29 12:00:00 226 3904.0 0.00 241 0.103 0.103 58.050 0.126 15.900 14.400 22.11 22.840 23.710 23.730 67.880 55.900 0.503 22.20 23.040 23.950 23.830 22.02 22.710 23.440 23.440 16.470 15.260 15.580 13.830 26.614 18.065 8.548 29.355 16.404 12.946
PRIMET_226 2020-09-29 11:55:00 226 3904.0 0.00 0 0.204 0.204 57.810 0.033 15.860 14.570 21.80 22.530 23.100 23.120 69.010 58.620 0.542 21.98 22.690 23.390 23.400 21.64 22.360 22.860 23.020 16.130 15.120 15.640 14.110 26.116 18.019 8.093 28.295 16.586 11.709
PRIMET_226 2020-09-29 11:50:00 226 3904.0 0.00 288 0.563 0.562 52.430 3.808 15.720 14.600 21.43 22.140 22.790 22.940 69.940 59.380 0.771 21.63 22.330 22.840 23.010 21.28 21.980 22.750 22.860 16.120 14.980 15.390 14.080 25.532 17.859 7.675 27.989 16.618 11.369
PRIMET_226 2020-09-29 11:45:00 226 3904.0 0.00 231 0.000 0.000     15.700 14.610 21.22 21.950 22.820 22.540 70.800 60.900 0.000 21.27 21.980 22.870 22.850 21.14 21.930 22.720 22.210 16.080 15.220 15.210 13.890 25.205 17.836 7.360 27.319 16.628 10.682
PRIMET_226 2020-09-29 11:40:00 226 3904.0 0.00 328 0.113 0.113 50.870 0.000 15.610 14.450 20.91 21.680 22.630 22.040 71.720 62.090 0.444 21.13 21.910 22.830 22.190 20.72 21.500 22.440 21.910 15.760 14.670 15.440 14.070 24.730 17.733 6.994 26.501 16.457 10.046
PRIMET_226 2020-09-29 11:35:00 226 3904.0 0.00 256 0.282 0.282 50.860 0.000 15.440 14.150 20.55 21.340 22.190 21.500 72.530 62.960 0.510 20.71 21.490 22.440 21.880 20.35 21.170 21.950 21.210 15.700 14.750 15.170 13.610 24.188 17.541 6.644 25.641 16.141 9.498
PRIMET_226 2020-09-29 11:30:00 226 3904.0 0.00 240 0.396 0.396 50.620 0.000 15.070 13.930 20.13 20.940 21.610 21.010 72.710 63.970 0.555 20.29 21.160 21.930 21.200 19.96 20.740 21.330 20.800 15.300 14.890 14.700 13.060 23.569 17.129 6.432 24.882 15.912 8.965
PRIMET_226 2020-09-29 11:25:00 226 3904.0 0.00 269 0.507 0.507 48.300 1.456 14.760 13.870 19.76 20.600 21.190 20.700 72.910 64.930 0.738 19.96 20.700 21.310 20.800 19.58 20.370 20.910 20.510 15.210 14.380 14.400 12.850 23.035 16.790 6.240 24.413 15.850 8.562
PRIMET_226 2020-09-29 11:20:00 226 3904.0 0.00 268 0.406 0.406 48.560 0.436 14.520 13.550 19.49 20.280 20.780 20.300 73.010 65.230 0.732 19.59 20.350 20.900 20.470 19.37 20.210 20.750 20.230 15.010 14.110 14.240 12.710 22.652 16.532 6.114 23.818 15.524 8.281
PRIMET_226 2020-09-29 11:15:00 226 3904.0 0.00 248 0.525 0.525 47.650 0.247 14.330 13.530 19.15 20.030 20.580 20.130 73.650 65.780 0.647 19.36 20.210 20.750 20.240 18.92 19.830 20.450 20.060 14.850 13.930 13.970 13.160 22.178 16.330 5.844 23.569 15.504 8.065
PRIMET_226 2020-09-29 11:10:00 226 3904.0 0.00 313 0.500 0.500 45.730 0.304 14.260 13.290 18.69 19.540 20.160 19.940 75.450 65.510 0.647 18.88 19.820 20.400 20.070 18.47 19.330 20.010 19.830 14.600 13.730 14.100 12.630 21.550 16.256 5.291 23.294 15.263 8.034
PRIMET_226 2020-09-29 11:05:00 226 3904.0 0.00 242 0.469 0.469 45.640 0.326 14.150 13.100 18.29 19.090 19.680 19.590 76.840 66.130 0.549 18.44 19.290 19.980 19.830 18.18 18.970 19.490 19.390 14.520 13.580 13.930 12.650 21.017 16.141 4.868 22.793 15.075 7.720
PRIMET_226 2020-09-29 11:00:00 226 3904.0 0.00 243 0.612 0.612 45.790 0.270 13.940 13.100 17.90 18.750 19.220 19.110 77.620 68.140 0.804 18.14 18.980 19.470 19.370 17.61 18.520 19.030 18.970 14.440 13.680 13.610 12.730 20.508 15.923 4.590 22.123 15.075 7.048
PRIMET_226 2020-09-29 10:55:00 226 3904.0 0.00 283 0.595 0.595 45.370 0.108 13.800 12.990 17.40 18.270 18.870 18.860 79.390 68.740 0.725 17.59 18.500 19.030 18.990 17.22 18.010 18.650 18.670 13.940 13.360 13.610 12.390 19.872 15.778 4.096 21.780 14.967 6.809
PRIMET_226 2020-09-29 10:50:00 226 3904.0 0.00 288 0.513 0.513 44.890 0.742 13.580 12.870 17.06 17.890 18.460 18.370 79.970 70.320 0.745 17.20 17.990 18.620 18.630 16.89 17.760 18.360 18.230 13.890 13.370 13.330 12.290 19.449 15.554 3.896 21.123 14.850 6.269
PRIMET_226 2020-09-29 10:45:00 226 3904.0 0.00 225 0.432 0.431 45.250 0.829 13.380 12.860 16.73 17.540 18.150 17.910 80.600 72.350 0.647 16.87 17.730 18.340 18.210 16.63 17.370 17.940 17.650 13.600 13.250 13.140 12.440 19.046 15.353 3.695 20.521 14.840 5.674
PRIMET_226 2020-09-29 10:40:00 226 3904.0 0.00 247 0.416 0.416 45.920 0.264 13.530 13.240 16.45 17.200 17.800 17.360 82.900 76.760 0.595 16.64 17.370 17.950 17.630 16.23 16.970 17.560 17.050 13.640 13.510 13.430 12.960 18.710 15.504 3.199 19.822 15.213 4.607
PRIMET_226 2020-09-29 10:35:00 226 3904.0 0.00 259 0.504 0.504 46.720 0.595 13.420 13.260 16.00 16.840 17.430 16.890 84.600 79.170 0.751 16.20 16.970 17.540 17.060 15.76 16.700 17.300 16.710 13.650 13.510 13.310 13.050 18.181 15.393 2.800 19.241 15.233 4.008
PRIMET_226 2020-09-29 10:30:00 226 3904.0 0.00 220 0.498 0.498 47.220 1.021 13.220 13.110 15.40 16.330 16.910 16.480 86.800 80.500 0.745 15.73 16.650 17.260 16.680 15.09 15.990 16.580 16.260 13.350 13.260 13.040 12.900 17.496 15.193 2.309 18.746 15.085 3.655
PRIMET_226 2020-09-29 10:25:00 226 3904.0 0.00 0 0.553 0.553 48.980 2.412 13.000 13.090 14.79 15.690 16.300 16.040 89.000 82.700 0.849 15.05 15.950 16.520 16.240 14.54 15.460 16.160 15.870 13.130 13.240 12.900 12.910 16.823 14.976 1.850 18.228 15.065 3.153
PRIMET_226 2020-09-29 10:20:00 226 3904.0 0.00 254 0.268 0.268 51.000 0.102 12.830 12.920 14.39 15.150 15.880 15.690 90.300 83.600 0.608 14.52 15.430 16.140 15.850 14.28 14.920 15.630 15.530 12.910 13.060 12.780 12.740 16.394 14.811 1.590 17.824 14.898 2.923
PRIMET_226 2020-09-29 10:15:00 226 3904.0 0.00 308 0.359 0.359 51.050 0.000 12.730 12.790 14.11 14.690 15.440 15.300 91.400 85.000 0.699 14.27 14.900 15.600 15.500 13.99 14.550 15.360 15.100 12.880 12.920 12.560 12.620 16.099 14.714 1.385 17.384 14.772 2.608
PRIMET_226 2020-09-29 10:10:00 226 3904.0 0.00 218 0.429 0.429 51.110 0.151 12.450 12.540 13.97 14.610 15.360 14.910 90.600 85.700 0.640 13.99 14.700 15.400 15.080 13.96 14.560 15.240 14.750 12.520 12.740 12.410 12.400 15.954 14.446 1.500 16.953 14.532 2.424
PRIMET_226 2020-09-29 10:05:00 226 3904.0 0.00 272 0.451 0.450 43.650 3.202 12.400 12.420 13.92 14.680 15.050 14.560 90.500 87.000 0.745 13.96 14.710 15.210 14.750 13.81 14.580 14.960 14.350 12.460 12.500 12.270 12.320 15.902 14.399 1.511 16.575 14.418 2.155
PRIMET_226 2020-09-29 10:00:00 226 3904.0 0.00 0 0.475 0.475 42.330 0.341 12.170 12.110 13.57 14.350 14.720 14.220 91.200 87.100 0.706 13.79 14.550 14.950 14.320 13.37 14.190 14.520 14.130 12.270 12.230 12.100 11.930 15.544 14.182 1.368 16.214 14.127 2.092
PRIMET_226 2020-09-29 09:55:00 226 3904.0 0.00 282 0.303 0.303 42.360 0.163 11.990 11.940 13.05 13.880 14.220 13.840 93.300 88.300 0.483 13.33 14.180 14.500 14.100 12.79 13.580 13.920 13.610 12.120 12.060 11.920 11.720 15.025 14.015 1.007 15.819 13.969 1.851
PRIMET_226 2020-09-29 09:50:00 226 3904.0 0.00 0 0.230 0.230 42.320 0.202 11.770 11.670 12.42 13.170 13.580 13.340 95.800 89.700 0.418 12.76 13.570 13.890 13.590 12.13 12.770 13.180 13.060 11.990 11.860 11.590 11.470 14.418 13.813 0.606 15.313 13.722 1.577
PRIMET_226 2020-09-29 09:45:00 226 3904.0 0.00 0 0.286 0.286 42.320 0.257 11.380 11.480 11.86 12.480 12.830 12.730 96.900 92.100 0.758 12.11 12.740 13.140 13.040 11.61 12.190 12.510 12.390 11.580 11.590 11.110 11.390 13.896 13.461 0.431 14.714 13.551 1.162
PRIMET_226 2020-09-29 09:40:00 226 3904.0 0.00 0 0.214 0.214 42.250 0.039 11.050 11.210 11.52 12.060 12.300 12.110 97.000 94.200 0.457 11.61 12.160 12.490 12.350 11.43 11.980 12.160 11.920 11.110 11.400 11.010 11.060 13.587 13.170 0.408 14.127 13.310 0.819
PRIMET_226 2020-09-29 09:35:00 226 3904.0 0.00 0 0.331 0.331 41.950 0.094 10.930 10.890 11.30 11.830 12.030 11.820 97.600 94.000 0.608 11.42 11.950 12.150 11.900 11.13 11.660 11.940 11.780 11.020 11.020 10.760 10.780 13.390 13.065 0.321 13.859 13.030 0.832
PRIMET_226 2020-09-29 09:30:00 226 3904.0 0.00 0 0.290 0.290 40.730 2.014 10.730 10.770 11.05 11.580 11.890 11.750 97.900 93.700 0.679 11.12 11.650 11.930 11.800 10.93 11.510 11.840 11.690 10.760 10.830 10.650 10.660 13.170 12.892 0.277 13.795 12.927 0.869
PRIMET_226 2020-09-29 09:25:00 226 3904.0 0.00 0 0.341 0.341 37.500 0.101 10.520 10.670 10.78 11.340 11.710 11.500 98.300 94.700 0.653 10.91 11.490 11.820 11.670 10.68 11.270 11.590 11.270 10.630 10.790 10.450 10.520 12.935 12.713 0.220 13.569 12.841 0.719
PRIMET_226 2020-09-29 09:20:00 226 3904.0 0.00 0 0.320 0.318 29.180 6.616 10.340 10.510 10.53 11.150 11.440 11.050 98.700 96.500 0.660 10.67 11.290 11.570 11.250 10.35 10.890 11.220 10.800 10.450 10.610 10.170 10.400 12.722 12.561 0.165 13.170 12.705 0.461
PRIMET_226 2020-09-29 09:15:00 226 3904.0 0.00 0 0.393 0.390 37.800 7.281 9.990 10.120 10.17 10.560 10.780 10.460 98.800 97.800 0.608 10.35 10.860 11.190 10.770 9.95 10.310 10.460 10.170 10.170 10.380 9.740 9.880 12.419 12.271 0.149 12.662 12.378 0.279
PRIMET_226 2020-09-29 09:10:00 226 3904.0 0.00 0 0.092 0.092 48.940 0.000 9.600 9.710 9.81 10.120 10.270 9.970 98.600 98.200 0.372 9.93 10.270 10.410 10.140 9.74 9.990 10.130 9.830 9.720 9.860 9.530 9.550 12.123 11.953 0.170 12.254 12.042 0.221
PRIMET_226 2020-09-29 09:05:00 226 3904.0 0.00 0 0.083 0.083 49.040 0.025 9.480 9.450 9.66 9.920 10.060 9.690 98.800 98.400 0.595 9.75 10.000 10.130 9.810 9.52 9.810 9.950 9.550 9.570 9.550 9.350 9.300 12.002 11.857 0.144 12.026 11.833 0.192
PRIMET_226 2020-09-29 09:00:00 226 3904.0 0.00 0 0.000 0.000     9.260 9.200 9.43 9.660 9.850 9.450 98.900 98.300 0.000 9.51 9.820 9.960 9.540 9.30 9.520 9.770 9.340 9.330 9.290 9.130 9.080 11.818 11.683 0.130 11.833 11.636 0.201
PRIMET_226 2020-09-29 08:55:00 226 3904.0 0.00 0 0.000 0.000     9.000 9.030 9.16 9.390 9.760 9.260 98.900 98.400 0.000 9.28 9.500 9.810 9.320 9.04 9.300 9.670 9.200 9.120 9.050 8.880 9.000 11.604 11.480 0.128 11.683 11.503 0.187
PRIMET_226 2020-09-29 08:50:00 226 3904.0 0.00 0 0.000 0.000     8.700 9.020 8.86 9.130 9.400 9.070 98.900 99.700 0.000 9.02 9.280 9.640 9.190 8.73 8.970 9.200 8.890 8.860 9.080 8.580 8.880 11.372 11.249 0.125 11.534 11.495 0.035
PRIMET_226 2020-09-29 08:45:00 226 3904.0 0.00 0 0.000 0.000     8.450 8.670 8.61 8.850 9.010 8.680 98.900 99.900 0.000 8.72 8.960 9.180 8.880 8.51 8.770 8.860 8.500 8.560 8.880 8.350 8.490 11.181 11.060 0.123 11.234 11.226 0.011
PRIMET_226 2020-09-29 08:40:00 226 3904.0 0.00 0 0.000 0.000     8.250 8.360 8.41 8.660 8.750 8.380 98.900 99.900 0.000 8.50 8.760 8.870 8.490 8.32 8.550 8.630 8.280 8.340 8.470 8.150 8.260 11.030 10.911 0.121 11.008 10.993 0.011
PRIMET_226 2020-09-29 08:35:00 226 3904.0 0.00 0 0.000 0.000     8.080 8.170 8.25 8.460 8.540 8.180 98.800 99.900 0.000 8.32 8.540 8.620 8.270 8.19 8.400 8.480 8.120 8.150 8.250 8.010 8.100 10.911 10.786 0.131 10.859 10.852 0.011
PRIMET_226 2020-09-29 08:30:00 226 3904.0 0.00 0 0.000 0.000     7.952 8.020 8.12 8.330 8.410 8.040 98.800 99.900 0.000 8.18 8.390 8.480 8.120 8.08 8.260 8.340 7.958 8.010 8.100 7.911 7.939 10.815 10.692 0.130 10.756 10.742 0.011
PRIMET_226 2020-09-29 08:25:00 226 3904.0 0.00 0 0.000 0.000     7.831 7.871 8.00 8.190 8.270 7.889 98.900 99.900 0.000 8.07 8.260 8.340 7.948 7.92 8.110 8.190 7.811 7.904 7.932 7.739 7.790 10.727 10.604 0.118 10.646 10.633 0.011
PRIMET_226 2020-09-29 08:20:00 226 3904.0 0.00 0 0.000 0.000     7.685 7.741 7.86 8.040 8.130 7.760 98.800 99.900 0.000 7.91 8.100 8.190 7.808 7.80 7.979 8.070 7.713 7.733 7.789 7.612 7.693 10.629 10.499 0.128 10.553 10.539 0.011
PRIMET_226 2020-09-29 08:15:00 226 3904.0 0.00 0 0.000 0.000     7.595 7.659 7.78 7.922 8.020 7.674 98.800 99.900 0.000 7.82 7.964 8.060 7.709 7.76 7.881 7.986 7.634 7.641 7.694 7.572 7.621 10.567 10.435 0.127 10.491 10.480 0.010
PRIMET_226 2020-09-29 08:10:00 226 3904.0 0.00 0 0.002 0.002 262.400 0.000 7.557 7.609 7.73 7.869 7.977 7.621 98.800 99.900 0.039 7.77 7.902 8.010 7.661 7.69 7.821 7.925 7.569 7.592 7.651 7.498 7.552 10.533 10.408 0.126 10.453 10.445 0.010
PRIMET_226 2020-09-29 08:05:00 226 3904.0 0.00                                                                
PRIMET_226 2020-09-29 08:00:00 226 3904.0 0.00                                                                
PRIMET_226 2020-09-29 07:55:00 226 3904.0 0.00                                                                
PRIMET_226 2020-09-29 07:50:00 226 3904.0 0.00                                                                
PRIMET_226 2020-09-29 07:45:00 226 3904.0 0.00                                                                
PRIMET_226 2020-09-29 07:40:00 226 3904.0 0.00                                                                
PRIMET_226 2020-09-29 07:35:00 226 3904.0 0.00                                                                
PRIMET_226 2020-09-29 07:30:00 226 3904.0 0.00                                                                
PRIMET_226 2020-09-29 07:25:00 226 3904.0 0.00                                                                
PRIMET_226 2020-09-29 07:20:00 226 3904.0 0.00                                                                
PRIMET_226 2020-09-29 07:15:00 226 3904.0 0.00                                                                
PRIMET_226 2020-09-29 07:10:00 226 3904.0 0.00                                                                
PRIMET_226 2020-09-29 07:05:00 226 3904.0 0.00                                                                
PRIMET_226 2020-09-29 07:00:00 226 3904.0 0.00                                                                
PRIMET_226 2020-09-29 06:55:00 226 3904.0 0.00                                                                
PRIMET_226 2020-09-29 06:50:00 226 3904.0 0.00                                                                
PRIMET_226 2020-09-29 06:45:00 226 3904.0 0.00                                                                
PRIMET_226 2020-09-29 06:40:00 226 3904.0 0.00                                                                
PRIMET_226 2020-09-29 06:35:00 226 3904.0 0.00                                                                
PRIMET_226 2020-09-29 06:30:00 226 3904.0 0.00                                                                
PRIMET_226 2020-09-29 06:25:00 226 3904.0 0.00                                                                
PRIMET_226 2020-09-29 06:20:00 226 3904.0 0.00                                                                
PRIMET_226 2020-09-29 06:15:00 226 3904.0 0.00                                                                
PRIMET_226 2020-09-29 06:10:00 226 3904.0 0.00                                                                
PRIMET_226 2020-09-29 06:05:00 226 3904.0 0.00                                                                
PRIMET_226 2020-09-29 06:00:00 226 3904.0 0.00                                                                
PRIMET_226 2020-09-29 05:55:00 226 3904.0 0.00                                                                
PRIMET_226 2020-09-29 05:50:00 226 3904.0 0.00                                                                
PRIMET_226 2020-09-29 05:45:00 226 3904.0 0.00                                                                
PRIMET_226 2020-09-29 05:40:00 226 3904.0 0.00                                                                
PRIMET_226 2020-09-29 05:35:00 226 3904.0 0.00                                                                
PRIMET_226 2020-09-29 05:30:00 226 3904.0 0.00                                                                
PRIMET_226 2020-09-29 05:25:00 226 3904.0 0.00                                                                
PRIMET_226 2020-09-29 05:20:00 226 3904.0 0.00                                                                
PRIMET_226 2020-09-29 05:15:00 226 3904.0 0.00                                                                
PRIMET_226 2020-09-29 05:10:00 226 3904.0 0.00                                                                
PRIMET_226 2020-09-29 05:05:00 226 3904.0 0.00                                                                
PRIMET_226 2020-09-29 05:00:00 226 3904.0 0.00                                                                
PRIMET_226 2020-09-29 04:55:00 226 3904.0 0.00                                                                
PRIMET_226 2020-09-29 04:50:00 226 3904.0 0.00                                                                
PRIMET_226 2020-09-29 04:45:00 226 3904.0 0.00                                                                
PRIMET_226 2020-09-29 04:40:00 226 3904.0 0.00                                                                
PRIMET_226 2020-09-29 04:35:00 226 3904.0 0.00                                                                
PRIMET_226 2020-09-29 04:30:00 226 3904.0 0.00                                                                
PRIMET_226 2020-09-29 04:25:00 226 3904.0 0.00                                                                
PRIMET_226 2020-09-29 04:20:00 226 3904.0 0.00                                                                
PRIMET_226 2020-09-29 04:15:00 226 3904.0 0.00                                                                
PRIMET_226 2020-09-29 04:10:00 226 3904.0 0.00                                                                
PRIMET_226 2020-09-29 04:05:00 226 3904.0 0.00                                                                
PRIMET_226 2020-09-29 04:00:00 226 3904.0 0.00                                                                
PRIMET_226 2020-09-29 03:55:00 226 3904.0 0.00                                                                
PRIMET_226 2020-09-29 03:50:00 226 3904.0 0.00                                                                
PRIMET_226 2020-09-29 03:45:00 226 3904.0 0.00                                                                
PRIMET_226 2020-09-29 03:40:00 226 3904.0 0.00                                                                
PRIMET_226 2020-09-29 03:35:00 226 3904.0 0.00                                                                
PRIMET_226 2020-09-29 03:30:00 226 3904.0 0.00                                                                
PRIMET_226 2020-09-29 03:25:00 226 3904.0 0.00                                                                
PRIMET_226 2020-09-29 03:20:00 226 3904.0 0.00                                                                
PRIMET_226 2020-09-29 03:15:00 226 3904.0 0.00                                                                
PRIMET_226 2020-09-29 03:10:00 226 3904.0 0.00                                                                
PRIMET_226 2020-09-29 03:05:00 226 3904.0 0.00                                                                
PRIMET_226 2020-09-29 03:00:00 226 3904.0 0.00                                                                
PRIMET_226 2020-09-29 02:55:00 226 3904.0 0.00                                                                
PRIMET_226 2020-09-29 02:50:00 226 3904.0 0.00                                                                
PRIMET_226 2020-09-29 02:45:00 226 3904.0 0.00                                                                
PRIMET_226 2020-09-29 02:40:00 226 3904.0 0.00                                                                
PRIMET_226 2020-09-29 02:35:00 226 3904.0 0.00                                                                
PRIMET_226 2020-09-29 02:30:00 226 3904.0 0.00                                                                
PRIMET_226 2020-09-29 02:25:00 226 3904.0 0.00                                                                
PRIMET_226 2020-09-29 02:20:00 226 3904.0 0.00                                                                
PRIMET_226 2020-09-29 02:15:00 226 3904.0 0.00                                                                
PRIMET_226 2020-09-29 02:10:00 226 3904.0 0.00                                                                
PRIMET_226 2020-09-29 02:05:00 226 3904.0 0.00                                                                
PRIMET_226 2020-09-29 02:00:00 226 3904.0 0.00                                                                
PRIMET_226 2020-09-29 01:55:00 226 3904.0 0.00                                                                
PRIMET_226 2020-09-29 01:50:00 226 3904.0 0.00                                                                
PRIMET_226 2020-09-29 01:45:00 226 3904.0 0.00                                                                
PRIMET_226 2020-09-29 01:40:00 226 3904.0 0.00                                                                
PRIMET_226 2020-09-29 01:35:00 226 3904.0 0.00                                                                
PRIMET_226 2020-09-29 01:30:00 226 3904.0 0.00                                                                
PRIMET_226 2020-09-29 01:25:00 226 3904.0 0.00                                                                
PRIMET_226 2020-09-29 01:20:00 226 3904.0 0.00                                                                
PRIMET_226 2020-09-29 01:15:00 226 3904.0 0.00                                                                
PRIMET_226 2020-09-29 01:10:00 226 3904.0 0.00                                                                
PRIMET_226 2020-09-29 01:05:00 226 3904.0 0.00                                                                
PRIMET_226 2020-09-29 01:00:00 226 3904.0 0.00                                                                
PRIMET_226 2020-09-29 00:55:00 226 3904.0 0.00                                                                
PRIMET_226 2020-09-29 00:50:00 226 3904.0 0.00                                                                
PRIMET_226 2020-09-29 00:45:00 226 3904.0 0.00                                                                
PRIMET_226 2020-09-29 00:40:00 226 3904.0 0.00                                                                
PRIMET_226 2020-09-29 00:35:00 226 3904.0 0.00                                                                
PRIMET_226 2020-09-29 00:30:00 226 3904.0 0.00                                                                
PRIMET_226 2020-09-29 00:25:00 226 3904.0 0.00                                                                
PRIMET_226 2020-09-29 00:20:00 226 3904.0 0.00                                                                
PRIMET_226 2020-09-29 00:15:00 226 3904.0 0.00                                                                
PRIMET_226 2020-09-29 00:10:00 226 3904.0 0.00                                                                
PRIMET_226 2020-09-29 00:05:00 226 3904.0 0.00                                                                
PRIMET_226 2020-09-29 00:00:00 226 3904.0 0.00                                                                
PRIMET_226 2020-09-28 23:55:00 226 3904.0 0.00                                                                
PRIMET_226 2020-09-28 23:50:00 226 3904.0 0.00                                                                
PRIMET_226 2020-09-28 23:45:00 226 3904.0 0.00                                                                
PRIMET_226 2020-09-28 23:40:00 226 3904.0 0.00                                                                
PRIMET_226 2020-09-28 23:35:00 226 3904.0 0.00                                                                
PRIMET_226 2020-09-28 23:30:00 226 3904.0 0.00                                                                
PRIMET_226 2020-09-28 23:25:00 226 3904.0 0.00                                                                
PRIMET_226 2020-09-28 23:20:00 226 3904.0 0.00                                                                
PRIMET_226 2020-09-28 23:15:00 226 3904.0 0.00                                                                
PRIMET_226 2020-09-28 23:10:00 226 3904.0 0.00                                                                
PRIMET_226 2020-09-28 23:05:00 226 3904.0 0.00                                                                
PRIMET_226 2020-09-28 23:00:00 226 3904.0 0.00                                                                
PRIMET_226 2020-09-28 22:55:00 226 3904.0 0.00                                                                
PRIMET_226 2020-09-28 22:50:00 226 3904.0 0.00                                                                
PRIMET_226 2020-09-28 22:45:00 226 3904.0 0.00                                                                
PRIMET_226 2020-09-28 22:40:00 226 3904.0 0.00                                                                
PRIMET_226 2020-09-28 22:35:00 226 3904.0 0.00                                                                
PRIMET_226 2020-09-28 22:30:00 226 3904.0 0.00                                                                
PRIMET_226 2020-09-28 22:25:00 226 3904.0 0.00                                                                
PRIMET_226 2020-09-28 22:20:00 226 3904.0 0.00                                                                
PRIMET_226 2020-09-28 22:15:00 226 3904.0 0.00                                                                
PRIMET_226 2020-09-28 22:10:00 226 3904.0 0.00                                                                
PRIMET_226 2020-09-28 22:05:00 226 3904.0 0.00                                                                
PRIMET_226 2020-09-28 22:00:00 226 3904.0 0.00                                                                
PRIMET_226 2020-09-28 21:55:00 226 3904.0 0.00                                                                
PRIMET_226 2020-09-28 21:50:00 226 3904.0 0.00                                                                
PRIMET_226 2020-09-28 21:45:00 226 3904.0 0.00                                                                
PRIMET_226 2020-09-28 21:40:00 226 3904.0 0.00                                                                
PRIMET_226 2020-09-28 21:35:00 226 3904.0 0.00                                                                
PRIMET_226 2020-09-28 21:30:00 226 3904.0 0.00                                                                
PRIMET_226 2020-09-28 21:25:00 226 3904.0 0.00                                                                
PRIMET_226 2020-09-28 21:20:00 226 3904.0 0.00                                                                
PRIMET_226 2020-09-28 21:15:00 226 3904.0 0.00                                                                
PRIMET_226 2020-09-28 21:10:00 226 3904.0 0.00                                                                
PRIMET_226 2020-09-28 21:05:00 226 3904.0 0.00                                                                
PRIMET_226 2020-09-28 21:00:00 226 3904.0 0.00                                                                
PRIMET_226 2020-09-28 20:55:00 226 3904.0 0.00                                                                
PRIMET_226 2020-09-28 20:50:00 226 3904.0 0.00                                                                
PRIMET_226 2020-09-28 20:45:00 226 3904.0 0.00                                                                
PRIMET_226 2020-09-28 20:40:00 226 3904.0 0.00                                                                
PRIMET_226 2020-09-28 20:35:00 226 3904.0 0.00                                                                
PRIMET_226 2020-09-28 20:30:00 226 3904.0 0.00                                                                
PRIMET_226 2020-09-28 20:25:00 226 3904.0 0.00                                                                
PRIMET_226 2020-09-28 20:20:00 226 3904.0 0.00                                                                
PRIMET_226 2020-09-28 20:15:00 226 3904.0 0.00                                                                
PRIMET_226 2020-09-28 20:10:00 226 3904.0 0.00                                                                
PRIMET_226 2020-09-28 20:05:00 226 3904.0 0.00                                                                
PRIMET_226 2020-09-28 20:00:00 226 3904.0 0.00                                                                
PRIMET_226 2020-09-28 19:55:00 226 3904.0 0.00                                                                
PRIMET_226 2020-09-28 19:50:00 226 3904.0 0.00                                                                
PRIMET_226 2020-09-28 19:45:00 226 3904.0 0.00                                                                
PRIMET_226 2020-09-28 19:40:00 226 3904.0 0.00                                                                
PRIMET_226 2020-09-28 19:35:00 226 3904.0 0.00                                                                
PRIMET_226 2020-09-28 19:30:00 226 3904.0 0.00                                                                
PRIMET_226 2020-09-28 19:25:00 226 3904.0 0.00                                                                
PRIMET_226 2020-09-28 19:20:00 226 3904.0 0.00                                                                
PRIMET_226 2020-09-28 19:15:00 226 3904.0 0.00                                                                
PRIMET_226 2020-09-28 19:10:00 226 3904.0 0.00                                                                
PRIMET_226 2020-09-28 19:05:00 226 3904.0 0.00                                                                
PRIMET_226 2020-09-28 19:00:00 226 3904.0 0.00                                                                
PRIMET_226 2020-09-28 18:55:00 226 3904.0 0.00                                                                
PRIMET_226 2020-09-28 18:50:00 226 3904.0 0.00                                                                
PRIMET_226 2020-09-28 18:45:00 226 3904.0 0.00                                                                
PRIMET_226 2020-09-28 18:40:00 226 3904.0 0.00                                                                
PRIMET_226 2020-09-28 18:35:00 226 3904.0 0.00                                                                
PRIMET_226 2020-09-28 18:30:00 226 3904.0 0.00                                                                
PRIMET_226 2020-09-28 18:25:00 226 3904.0 0.00                                                                
PRIMET_226 2020-09-28 18:20:00 226 3904.0 0.00                                                                
PRIMET_226 2020-09-28 18:15:00 226 3904.0 0.00                                                                
PRIMET_226 2020-09-28 18:10:00 226 3904.0 0.00                                                                
PRIMET_226 2020-09-28 18:05:00 226 3904.0 0.00                                                                
PRIMET_226 2020-09-28 18:00:00 226 3904.0 0.00                                                                
PRIMET_226 2020-09-28 17:55:00 226 3904.0 0.00                                                                
PRIMET_226 2020-09-28 17:50:00 226 3904.0 0.00                                                                
PRIMET_226 2020-09-28 17:45:00 226 3904.0 0.00                                                                
PRIMET_226 2020-09-28 17:40:00 226 3904.0 0.00                                                                
PRIMET_226 2020-09-28 17:35:00 226 3904.0 0.00                                                                
PRIMET_226 2020-09-28 17:30:00 226 3904.0 0.00                                                                
PRIMET_226 2020-09-28 17:25:00 226 3904.0 0.00                                                                
PRIMET_226 2020-09-28 17:20:00 226 3904.0 0.00                                                                
PRIMET_226 2020-09-28 17:15:00 226 3904.0 0.00                                                                
PRIMET_226 2020-09-28 17:10:00 226 3904.0 0.00                                                                
PRIMET_226 2020-09-28 17:05:00 226 3904.0 0.00                                                                
PRIMET_226 2020-09-28 17:00:00 226 3904.0 0.00                                                                
PRIMET_226 2020-09-28 16:55:00 226 3904.0 0.00                                                                
PRIMET_226 2020-09-28 16:50:00 226 3904.0 0.00                                                                
PRIMET_226 2020-09-28 16:45:00 226 3904.0 0.00                                                                
PRIMET_226 2020-09-28 16:40:00 226 3904.0 0.00                                                                
PRIMET_226 2020-09-28 16:35:00 226 3904.0 0.00                                                                
PRIMET_226 2020-09-28 16:30:00 226 3904.0 0.00                                                                
PRIMET_226 2020-09-28 16:25:00 226 3904.0 0.00                                                                
PRIMET_226 2020-09-28 16:20:00 226 3904.0 0.00                                                                
PRIMET_226 2020-09-28 16:15:00 226 3904.0 0.00                                                                
PRIMET_226 2020-09-28 16:10:00 226 3904.0 0.00                                                                
PRIMET_226 2020-09-28 16:05:00 226 3904.0 0.00                                                                
PRIMET_226 2020-09-28 16:00:00 226 3904.0 0.00                                                                
PRIMET_226 2020-09-28 15:55:00 226 3904.0 0.00                                                                
PRIMET_226 2020-09-28 15:50:00 226 3904.0 0.00                                                                
PRIMET_226 2020-09-28 15:45:00 226 3904.0 0.00                                                                
PRIMET_226 2020-09-28 15:40:00 226 3904.0 0.00                                                                
PRIMET_226 2020-09-28 15:35:00 226 3904.0 0.00                                                                
PRIMET_226 2020-09-28 15:30:00 226 3904.0 0.00                                                                
PRIMET_226 2020-09-28 15:25:00 226 3904.0 0.00                                                                
PRIMET_226 2020-09-28 15:20:00 226 3904.0 0.00                                                                
PRIMET_226 2020-09-28 15:15:00 226 3904.0 0.00                                                                
PRIMET_226 2020-09-28 15:10:00 226 3904.0 0.00                                                                
PRIMET_226 2020-09-28 15:05:00 226 3904.0 0.00                                                                
PRIMET_226 2020-09-28 15:00:00 226 3904.0 0.00                                                                
PRIMET_226 2020-09-28 14:55:00 226 3904.0 0.00                                                                
PRIMET_226 2020-09-28 14:50:00 226 3904.0 0.00                                                                
PRIMET_226 2020-09-28 14:45:00 226 3904.0 0.00                                                                
PRIMET_226 2020-09-28 14:40:00 226 3904.0 0.00                                                                
PRIMET_226 2020-09-28 14:35:00 226 3904.0 0.00                                                                
PRIMET_226 2020-09-28 14:30:00 226 3904.0 0.00                                                                
PRIMET_226 2020-09-28 14:25:00 226 3904.0 0.00                                                                
PRIMET_226 2020-09-28 14:20:00 226 3904.0 0.00                                                                
PRIMET_226 2020-09-28 14:15:00 226 3904.0 0.00                                                                
PRIMET_226 2020-09-28 14:10:00 226 3904.0 0.00                                                                
PRIMET_226 2020-09-28 14:05:00 226 3904.0 0.00                                                                
PRIMET_226 2020-09-28 14:00:00 226 3904.0 0.00                                                                
PRIMET_226 2020-09-28 13:55:00 226 3904.0 0.00                                                                
PRIMET_226 2020-09-28 13:50:00 226 3904.0 0.00                                                                
PRIMET_226 2020-09-28 13:45:00 226 3904.0 0.00                                                                
PRIMET_226 2020-09-28 13:40:00 226 3904.0 0.00                                                                
PRIMET_226 2020-09-28 13:35:00 226 3904.0 0.00                                                                
PRIMET_226 2020-09-28 13:30:00 226 3904.0 0.00                                                                
PRIMET_226 2020-09-28 13:25:00 226 3904.0 0.00                                                                
PRIMET_226 2020-09-28 13:20:00 226 3904.0 0.00                                                                
PRIMET_226 2020-09-28 13:15:00 226 3904.0 0.00                                                                
PRIMET_226 2020-09-28 13:10:00 226 3904.0 0.00                                                                
PRIMET_226 2020-09-28 13:05:00 226 3904.0 0.00                                                                
PRIMET_226 2020-09-28 13:00:00 226 3904.0 0.00                                                                
PRIMET_226 2020-09-28 12:55:00 226 3904.0 0.00                                                                
PRIMET_226 2020-09-28 12:50:00 226 3904.0 0.00                                                                
PRIMET_226 2020-09-28 12:45:00 226 3904.0 0.00                                                                
PRIMET_226 2020-09-28 12:40:00 226 3904.0 0.00                                                                
PRIMET_226 2020-09-28 12:35:00 226 3904.0 0.00                                                                
PRIMET_226 2020-09-28 12:30:00 226 3904.0 0.00                                                                
PRIMET_226 2020-09-28 12:25:00 226 3904.0 0.00                                                                
PRIMET_226 2020-09-28 12:20:00 226 3904.0 0.00                                                                
PRIMET_226 2020-09-28 12:15:00 226 3904.0 0.00                                                                
PRIMET_226 2020-09-28 12:10:00 226 3904.0 0.00                                                                
PRIMET_226 2020-09-28 12:05:00 226 3904.0 0.00                                                                
PRIMET_226 2020-09-28 12:00:00 226 3904.0 0.00                                                                
PRIMET_226 2020-09-28 11:55:00 226 3904.0 0.00                                                                
PRIMET_226 2020-09-28 11:50:00 226 3904.0 0.00                                                                
PRIMET_226 2020-09-28 11:45:00 226 3904.0 0.00                                                                
PRIMET_226 2020-09-28 11:40:00 226 3904.0 0.00                                                                
PRIMET_226 2020-09-28 11:35:00 226 3904.0 0.00                                                                
PRIMET_226 2020-09-28 11:30:00 226 3904.0 0.00                                                                
PRIMET_226 2020-09-28 11:25:00 226 3904.0 0.00                                                                
PRIMET_226 2020-09-28 11:20:00 226 3904.0 0.00                                                                
PRIMET_226 2020-09-28 11:15:00 226 3904.0 0.00                                                                
PRIMET_226 2020-09-28 11:10:00 226 3904.0 0.00                                                                
PRIMET_226 2020-09-28 11:05:00 226 3904.0 0.00                                                                
PRIMET_226 2020-09-28 11:00:00 226 3904.0 0.00                                                                
PRIMET_226 2020-09-28 10:55:00 226 3904.0 0.00                                                                
PRIMET_226 2020-09-28 10:50:00 226 3904.0 0.00                                                                
PRIMET_226 2020-09-28 10:45:00 226 3904.0 0.00                                                                
PRIMET_226 2020-09-28 10:40:00 226 3904.0 0.00                                                                
PRIMET_226 2020-09-28 10:35:00 226 3904.0 0.00                                                                
PRIMET_226 2020-09-28 10:30:00 226 3904.0 0.00                                                                
PRIMET_226 2020-09-28 10:25:00 226 3904.0 0.00                                                                
PRIMET_226 2020-09-28 10:20:00 226 3904.0 0.00                                                                
PRIMET_226 2020-09-28 10:15:00 226 3904.0 0.00                                                                
PRIMET_226 2020-09-28 10:10:00 226 3904.0 0.00                                                                
PRIMET_226 2020-09-28 10:05:00 226 3904.0 0.00                                                                
PRIMET_226 2020-09-28 10:00:00 226 3904.0 0.00                                                                
PRIMET_226 2020-09-28 09:55:00 226 3904.0 0.00                                                                
PRIMET_226 2020-09-28 09:50:00 226 3904.0 0.00                                                                
PRIMET_226 2020-09-28 09:45:00 226 3904.0 0.00                                                                
PRIMET_226 2020-09-28 09:40:00 226 3904.0 0.00                                                                
PRIMET_226 2020-09-28 09:35:00 226 3904.0 0.00                                                                
PRIMET_226 2020-09-28 09:30:00 226 3904.0 0.00                                                                
PRIMET_226 2020-09-28 09:25:00 226 3904.0 0.00                                                                
PRIMET_226 2020-09-28 09:20:00 226 3904.0 0.00                                                                
PRIMET_226 2020-09-28 09:15:00 226 3904.0 0.00                                                                
PRIMET_226 2020-09-28 09:10:00 226 3904.0 0.00                                                                
PRIMET_226 2020-09-28 09:05:00 226 3904.0 0.00                                                                
PRIMET_226 2020-09-28 09:00:00 226 3904.0 0.00                                                                
PRIMET_226 2020-09-28 08:55:00 226 3904.0 0.00                                                                
PRIMET_226 2020-09-28 08:50:00 226 3904.0 0.00                                                                
PRIMET_226 2020-09-28 08:45:00 226 3904.0 0.00                                                                
PRIMET_226 2020-09-28 08:40:00 226 3904.0 0.00                                                                
PRIMET_226 2020-09-28 08:35:00 226 3904.0 0.00                                                                
PRIMET_226 2020-09-28 08:30:00 226 3904.0 0.00                                                                
PRIMET_226 2020-09-28 08:25:00 226 3904.0 0.00                                                                
PRIMET_226 2020-09-28 08:20:00 226 3904.0 0.00                                                                
PRIMET_226 2020-09-28 08:15:00 226 3904.0 0.00                                                                
PRIMET_226 2020-09-28 08:10:00 226 3904.0 0.00                                                                
PRIMET_226 2020-09-28 08:05:00 226 3904.0 0.00                                                                
PRIMET_226 2020-09-28 08:00:00 226 3904.0 0.00                                                                
PRIMET_226 2020-09-28 07:55:00 226 3904.0 0.00                                                                
PRIMET_226 2020-09-28 07:50:00 226 3904.0 0.00                                                                
PRIMET_226 2020-09-28 07:45:00 226 3904.0 0.00                                                                
PRIMET_226 2020-09-28 07:40:00 226 3904.0 0.00                                                                
PRIMET_226 2020-09-28 07:35:00 226 3904.0 0.00                                                                
PRIMET_226 2020-09-28 07:30:00 226 3904.0 0.00                                                                
PRIMET_226 2020-09-28 07:25:00 226 3904.0 0.00                                                                
PRIMET_226 2020-09-28 07:20:00 226 3904.0 0.00                                                                
PRIMET_226 2020-09-28 07:15:00 226 3904.0 0.00                                                                
PRIMET_226 2020-09-28 07:10:00 226 3904.0 0.00                                                                
PRIMET_226 2020-09-28 07:05:00 226 3904.0 0.00                                                                
PRIMET_226 2020-09-28 07:00:00 226 3904.0 0.00                                                                
PRIMET_226 2020-09-28 06:55:00 226 3904.0 0.00                                                                
PRIMET_226 2020-09-28 06:50:00 226 3904.0 0.00                                                                
PRIMET_226 2020-09-28 06:45:00 226 3904.0 0.00                                                                
PRIMET_226 2020-09-28 06:40:00 226 3904.0 0.00                                                                
PRIMET_226 2020-09-28 06:35:00 226 3904.0 0.00                                                                
PRIMET_226 2020-09-28 06:30:00 226 3904.0 0.00                                                                
PRIMET_226 2020-09-28 06:25:00 226 3904.0 0.00                                                                
PRIMET_226 2020-09-28 06:20:00 226 3904.0 0.00                                                                
PRIMET_226 2020-09-28 06:15:00 226 3904.0 0.00                                                                
PRIMET_226 2020-09-28 06:10:00 226 3904.0 0.00                                                                
PRIMET_226 2020-09-28 06:05:00 226 3904.0 0.00                                                                
PRIMET_226 2020-09-28 06:00:00 226 3904.0 0.00                                                                
PRIMET_226 2020-09-28 05:55:00 226 3904.0 0.00                                                                
PRIMET_226 2020-09-28 05:50:00 226 3904.0 0.00                                                                
PRIMET_226 2020-09-28 05:45:00 226 3904.0 0.00                                                                
PRIMET_226 2020-09-28 05:40:00 226 3904.0 0.00                                                                
PRIMET_226 2020-09-28 05:35:00 226 3904.0 0.00                                                                
PRIMET_226 2020-09-28 05:30:00 226 3904.0 0.00                                                                
PRIMET_226 2020-09-28 05:25:00 226 3904.0 0.00                                                                
PRIMET_226 2020-09-28 05:20:00 226 3904.0 0.00                                                                
PRIMET_226 2020-09-28 05:15:00 226 3904.0 0.00                                                                
PRIMET_226 2020-09-28 05:10:00 226 3904.0 0.00                                                                
PRIMET_226 2020-09-28 05:05:00 226 3904.0 0.00                                                                
PRIMET_226 2020-09-28 05:00:00 226 3904.0 0.00                                                                
PRIMET_226 2020-09-28 04:55:00 226 3904.0 0.00                                                                
PRIMET_226 2020-09-28 04:50:00 226 3904.0 0.00                                                                
PRIMET_226 2020-09-28 04:45:00 226 3904.0 0.00                                                                
PRIMET_226 2020-09-28 04:40:00 226 3904.0 0.00                                                                
PRIMET_226 2020-09-28 04:35:00 226 3904.0 0.00                                                                
PRIMET_226 2020-09-28 04:30:00 226 3904.0 0.00                                                                
PRIMET_226 2020-09-28 04:25:00 226 3904.0 0.00                                                                
PRIMET_226 2020-09-28 04:20:00 226 3904.0 0.00                                                                
PRIMET_226 2020-09-28 04:15:00 226 3904.0 0.00                                                                
PRIMET_226 2020-09-28 04:10:00 226 3904.0 0.00                                                                
PRIMET_226 2020-09-28 04:05:00 226 3904.0 0.00                                                                
PRIMET_226 2020-09-28 04:00:00 226 3904.0 0.00                                                                
PRIMET_226 2020-09-28 03:55:00 226 3904.0 0.00                                                                
PRIMET_226 2020-09-28 03:50:00 226 3904.0 0.00                                                                
PRIMET_226 2020-09-28 03:45:00 226 3904.0 0.00                                                                
PRIMET_226 2020-09-28 03:40:00 226 3904.0 0.00                                                                
PRIMET_226 2020-09-28 03:35:00 226 3904.0 0.00                                                                
PRIMET_226 2020-09-28 03:30:00 226 3904.0 0.00                                                                
PRIMET_226 2020-09-28 03:25:00 226 3904.0 0.00                                                                
PRIMET_226 2020-09-28 03:20:00 226 3904.0 0.00                                                                
PRIMET_226 2020-09-28 03:15:00 226 3904.0 0.00                                                                
PRIMET_226 2020-09-28 03:10:00 226 3904.0 0.00                                                                
PRIMET_226 2020-09-28 03:05:00 226 3904.0 0.00                                                                
PRIMET_226 2020-09-28 03:00:00 226 3904.0 0.00                                                                
PRIMET_226 2020-09-28 02:55:00 226 3904.0 0.00                                                                
PRIMET_226 2020-09-28 02:50:00 226 3904.0 0.00                                                                
PRIMET_226 2020-09-28 02:45:00 226 3904.0 0.00                                                                
PRIMET_226 2020-09-28 02:40:00 226 3904.0 0.00                                                                
PRIMET_226 2020-09-28 02:35:00 226 3904.0 0.00                                                                
PRIMET_226 2020-09-28 02:30:00 226 3904.0 0.00                                                                
PRIMET_226 2020-09-28 02:25:00 226 3904.0 0.00                                                                
PRIMET_226 2020-09-28 02:20:00 226 3904.0 0.00                                                                
PRIMET_226 2020-09-28 02:15:00 226 3904.0 0.00                                                                
PRIMET_226 2020-09-28 02:10:00 226 3904.0 0.00                                                                
PRIMET_226 2020-09-28 02:05:00 226 3904.0 0.00                                                                
PRIMET_226 2020-09-28 02:00:00 226 3904.0 0.00